Wetterdaten: Montag, 30.07.2018
Datum Zeit Temp. A. Pool Temp. Temp. 5cm Feuchte A. Luftdruck Regen Wind Richtung Richtung Sonnenschein ET UV Solar Taupunkt Windchill Windben Empfang
30.07.2018 00:00 22,0 C 26,7 C 21,1 C 72 % 1012,8 hPa 0,0 l/m 5,1 km/h (1 Bft) S-SW 198 0 min 0,000 mm 0,0 UV-I 0 W/m 16,7 C 22,0 C 8,0 km/h (2 Bft) 100,00 %
30.07.2018 00:02 22,1 C 26,7 C 21,1 C 71 % 1012,8 hPa 0,0 l/m 4,3 km/h (1 Bft) S-SW 199 0 min 0,000 mm 0,0 UV-I 0 W/m 16,6 C 22,1 C 6,4 km/h (2 Bft) 100,00 %
30.07.2018 00:04 22,1 C 26,7 C 21,1 C 72 % 1012,8 hPa 0,0 l/m 4,1 km/h (1 Bft) S-SW 199 0 min 0,000 mm 0,0 UV-I 0 W/m 16,8 C 22,1 C 6,4 km/h (2 Bft) 95,74 %
30.07.2018 00:06 22,0 C 26,7 C 21,1 C 71 % 1012,8 hPa 0,0 l/m 3,2 km/h (1 Bft) S-SW 199 0 min 0,000 mm 0,0 UV-I 0 W/m 16,5 C 22,0 C 4,8 km/h (1 Bft) 95,74 %
30.07.2018 00:08 22,0 C 26,7 C 20,6 C 71 % 1012,8 hPa 0,0 l/m 3,0 km/h (1 Bft) S-SW 199 0 min 0,000 mm 0,0 UV-I 0 W/m 16,5 C 22,0 C 3,2 km/h (1 Bft) 93,62 %
30.07.2018 00:10 22,1 C 26,7 C 20,6 C 71 % 1012,8 hPa 0,0 l/m 2,9 km/h (1 Bft) S-SW 199 0 min 0,000 mm 0,0 UV-I 0 W/m 16,6 C 22,1 C 3,2 km/h (1 Bft) 95,74 %
30.07.2018 00:12 22,0 C 26,7 C 20,6 C 72 % 1012,8 hPa 0,0 l/m 2,0 km/h (1 Bft) S-SW 199 0 min 0,000 mm 0,0 UV-I 0 W/m 16,7 C 22,0 C 3,2 km/h (1 Bft) 95,74 %
30.07.2018 00:14 21,9 C 26,7 C 20,6 C 72 % 1012,8 hPa 0,0 l/m 1,9 km/h (1 Bft) S-SW 199 0 min 0,000 mm 0,0 UV-I 0 W/m 16,6 C 21,9 C 3,2 km/h (1 Bft) 94,74 %
30.07.2018 00:16 21,9 C 26,7 C 20,6 C 73 % 1012,8 hPa 0,0 l/m 2,3 km/h (1 Bft) S-SW 199 0 min 0,000 mm 0,0 UV-I 0 W/m 16,8 C 21,9 C 4,8 km/h (1 Bft) 96,00 %
30.07.2018 00:18 22,0 C 26,7 C 20,6 C 73 % 1012,8 hPa 0,0 l/m 2,5 km/h (1 Bft) S-SW 199 0 min 0,000 mm 0,0 UV-I 0 W/m 16,9 C 22,0 C 3,2 km/h (1 Bft) 92,00 %
30.07.2018 00:20 21,8 C 26,7 C 20,6 C 72 % 1012,8 hPa 0,0 l/m 2,5 km/h (1 Bft) S-SW 199 0 min 0,000 mm 0,0 UV-I 0 W/m 16,5 C 21,8 C 4,8 km/h (1 Bft) 94,44 %
30.07.2018 00:22 21,7 C 26,7 C 20,6 C 73 % 1012,8 hPa 0,0 l/m 2,5 km/h (1 Bft) S-SW 199 0 min 0,000 mm 0,0 UV-I 0 W/m 16,6 C 21,7 C 3,2 km/h (1 Bft) 96,36 %
30.07.2018 00:24 21,7 C 26,7 C 20,6 C 73 % 1012,8 hPa 0,0 l/m 2,3 km/h (1 Bft) S-SW 199 0 min 0,000 mm 0,0 UV-I 0 W/m 16,6 C 21,7 C 3,2 km/h (1 Bft) 95,74 %
30.07.2018 00:26 21,8 C 26,7 C 20,6 C 74 % 1012,8 hPa 0,0 l/m 2,9 km/h (1 Bft) S-SW 199 0 min 0,000 mm 0,0 UV-I 0 W/m 17,0 C 21,8 C 4,8 km/h (1 Bft) 95,83 %
30.07.2018 00:28 21,9 C 26,7 C 20,6 C 74 % 1012,8 hPa 0,0 l/m 3,1 km/h (1 Bft) S-SW 199 0 min 0,000 mm 0,0 UV-I 0 W/m 17,0 C 21,9 C 4,8 km/h (1 Bft) 95,74 %
30.07.2018 00:30 22,0 C 26,7 C 21,1 C 74 % 1012,8 hPa 0,0 l/m 2,8 km/h (1 Bft) S-SW 199 0 min 0,000 mm 0,0 UV-I 0 W/m 17,1 C 22,0 C 4,8 km/h (1 Bft) 96,00 %
30.07.2018 00:32 22,0 C 26,7 C 21,1 C 74 % 1012,7 hPa 0,0 l/m 3,1 km/h (1 Bft) S-SW 199 0 min 0,000 mm 0,0 UV-I 0 W/m 17,1 C 22,0 C 4,8 km/h (1 Bft) 93,62 %
30.07.2018 00:34 22,0 C 26,7 C 21,1 C 75 % 1012,7 hPa 0,0 l/m 2,5 km/h (1 Bft) S-SW 199 0 min 0,000 mm 0,0 UV-I 0 W/m 17,4 C 22,0 C 4,8 km/h (1 Bft) 95,74 %
30.07.2018 00:36 21,9 C 26,7 C 20,6 C 75 % 1012,7 hPa 0,0 l/m 2,1 km/h (1 Bft) S-SW 199 0 min 0,000 mm 0,0 UV-I 0 W/m 17,3 C 21,9 C 3,2 km/h (1 Bft) 95,74 %
30.07.2018 00:38 21,8 C 26,7 C 20,6 C 75 % 1012,7 hPa 0,0 l/m 1,0 km/h (0 Bft) S-SW 199 0 min 0,000 mm 0,0 UV-I 0 W/m 17,2 C 21,8 C 3,2 km/h (1 Bft) 97,87 %
30.07.2018 00:40 21,9 C 26,7 C 20,6 C 75 % 1012,7 hPa 0,0 l/m 0,7 km/h (0 Bft) S-SW 199 0 min 0,000 mm 0,0 UV-I 0 W/m 17,3 C 21,9 C 1,6 km/h (1 Bft) 97,87 %
30.07.2018 00:42 21,9 C 26,7 C 20,6 C 75 % 1012,8 hPa 0,0 l/m 0,7 km/h (0 Bft) S-SW 199 0 min 0,000 mm 0,0 UV-I 0 W/m 17,3 C 21,9 C 1,6 km/h (1 Bft) 97,87 %
30.07.2018 00:44 22,0 C 26,7 C 20,6 C 75 % 1012,8 hPa 0,0 l/m 0,2 km/h (0 Bft) S-SW 199 0 min 0,000 mm 0,0 UV-I 0 W/m 17,4 C 22,0 C 1,6 km/h (1 Bft) 95,74 %
30.07.2018 00:46 22,1 C 26,7 C 20,6 C 75 % 1012,8 hPa 0,0 l/m 0,0 km/h (0 Bft) S-SW 199 0 min 0,000 mm 0,0 UV-I 0 W/m 17,5 C 22,1 C 0,0 km/h (0 Bft) 97,14 %
30.07.2018 00:48 22,0 C 26,7 C 20,6 C 76 % 1012,8 hPa 0,0 l/m 0,0 km/h (0 Bft) S-SW 199 0 min 0,000 mm 0,0 UV-I 0 W/m 17,6 C 22,0 C 0,0 km/h (0 Bft) 93,62 %
30.07.2018 00:50 21,9 C 26,7 C 20,6 C 76 % 1012,8 hPa 0,0 l/m 0,0 km/h (0 Bft) S-SW 199 0 min 0,000 mm 0,0 UV-I 0 W/m 17,5 C 21,9 C 0,0 km/h (0 Bft) 97,87 %
30.07.2018 00:52 21,9 C 26,7 C 20,0 C 76 % 1012,8 hPa 0,0 l/m 0,0 km/h (0 Bft) S-SW 199 0 min 0,000 mm 0,0 UV-I 0 W/m 17,5 C 21,9 C 0,0 km/h (0 Bft) 97,87 %
30.07.2018 00:54 21,9 C 26,7 C 20,0 C 75 % 1012,8 hPa 0,0 l/m 0,0 km/h (0 Bft) S-SW 199 0 min 0,000 mm 0,0 UV-I 0 W/m 17,3 C 21,9 C 0,0 km/h (0 Bft) 95,74 %
30.07.2018 00:56 21,9 C 26,7 C 20,0 C 76 % 1012,7 hPa 0,0 l/m 0,0 km/h (0 Bft) S-SW 199 0 min 0,000 mm 0,0 UV-I 0 W/m 17,5 C 21,9 C 0,0 km/h (0 Bft) 100,00 %
30.07.2018 00:58 22,0 C 26,7 C 20,0 C 76 % 1012,7 hPa 0,0 l/m 0,0 km/h (0 Bft) S-SW 199 0 min 0,000 mm 0,0 UV-I 0 W/m 17,6 C 22,0 C 0,0 km/h (0 Bft) 97,87 %
30.07.2018 00:59 21,9 C 26,7 C 20,6 C 76 % 1012,7 hPa 0,0 l/m 0,3 km/h (0 Bft) S-SW 199 0 min 0,025 mm 0,0 UV-I 0 W/m 17,5 C 21,9 C 1,6 km/h (1 Bft) 100,00 %
30.07.2018 01:02 21,8 C 26,7 C 20,6 C 76 % 1012,7 hPa 0,0 l/m 3,1 km/h (1 Bft) S-SW 199 0 min 0,000 mm 0,0 UV-I 0 W/m 17,4 C 21,8 C 4,8 km/h (1 Bft) 95,74 %
30.07.2018 01:04 21,7 C 26,7 C 20,6 C 77 % 1012,8 hPa 0,0 l/m 3,7 km/h (1 Bft) S-SW 200 0 min 0,000 mm 0,0 UV-I 0 W/m 17,5 C 21,7 C 4,8 km/h (1 Bft) 100,00 %
30.07.2018 01:06 21,5 C 26,7 C 20,6 C 78 % 1012,8 hPa 0,0 l/m 4,7 km/h (1 Bft) S-SW 200 0 min 0,000 mm 0,0 UV-I 0 W/m 17,5 C 21,5 C 6,4 km/h (2 Bft) 100,00 %
30.07.2018 01:08 21,4 C 26,7 C 20,6 C 78 % 1012,8 hPa 0,0 l/m 5,4 km/h (1 Bft) S-SW 203 0 min 0,000 mm 0,0 UV-I 0 W/m 17,4 C 21,4 C 6,4 km/h (2 Bft) 100,00 %
30.07.2018 01:10 21,4 C 26,7 C 20,6 C 78 % 1012,7 hPa 0,0 l/m 5,0 km/h (1 Bft) S-SW 208 0 min 0,000 mm 0,0 UV-I 0 W/m 17,4 C 21,4 C 6,4 km/h (2 Bft) 100,00 %
30.07.2018 01:12 21,4 C 26,7 C 20,6 C 78 % 1012,7 hPa 0,0 l/m 5,2 km/h (1 Bft) S-SW 209 0 min 0,000 mm 0,0 UV-I 0 W/m 17,4 C 21,4 C 6,4 km/h (2 Bft) 100,00 %
30.07.2018 01:14 21,4 C 26,7 C 21,1 C 79 % 1012,8 hPa 0,0 l/m 5,3 km/h (1 Bft) SW 215 0 min 0,000 mm 0,0 UV-I 0 W/m 17,6 C 21,4 C 8,0 km/h (2 Bft) 97,87 %
30.07.2018 01:16 21,5 C 26,7 C 21,1 C 78 % 1012,8 hPa 0,0 l/m 3,9 km/h (1 Bft) SW 214 0 min 0,000 mm 0,0 UV-I 0 W/m 17,5 C 21,5 C 6,4 km/h (2 Bft) 100,00 %
30.07.2018 01:18 21,6 C 26,7 C 21,1 C 78 % 1012,8 hPa 0,0 l/m 3,2 km/h (1 Bft) SW 214 0 min 0,000 mm 0,0 UV-I 0 W/m 17,6 C 21,6 C 4,8 km/h (1 Bft) 94,00 %
30.07.2018 01:20 21,7 C 26,7 C 21,1 C 78 % 1012,8 hPa 0,0 l/m 2,8 km/h (1 Bft) SW 215 0 min 0,000 mm 0,0 UV-I 0 W/m 17,7 C 21,7 C 4,8 km/h (1 Bft) 97,87 %
30.07.2018 01:22 21,8 C 26,7 C 20,6 C 78 % 1012,8 hPa 0,0 l/m 2,2 km/h (1 Bft) SW 215 0 min 0,000 mm 0,0 UV-I 0 W/m 17,8 C 21,8 C 4,8 km/h (1 Bft) 100,00 %
30.07.2018 01:24 21,9 C 26,7 C 20,6 C 77 % 1012,7 hPa 0,0 l/m 2,6 km/h (1 Bft) SW 215 0 min 0,000 mm 0,0 UV-I 0 W/m 17,7 C 21,9 C 3,2 km/h (1 Bft) 100,00 %
30.07.2018 01:26 21,9 C 26,7 C 20,6 C 77 % 1012,8 hPa 0,0 l/m 2,3 km/h (1 Bft) SW 215 0 min 0,000 mm 0,0 UV-I 0 W/m 17,7 C 21,9 C 3,2 km/h (1 Bft) 94,29 %
30.07.2018 01:28 21,9 C 26,7 C 20,6 C 77 % 1012,8 hPa 0,0 l/m 3,0 km/h (1 Bft) SW 215 0 min 0,000 mm 0,0 UV-I 0 W/m 17,7 C 21,9 C 4,8 km/h (1 Bft) 95,74 %
30.07.2018 01:30 21,9 C 26,7 C 20,6 C 78 % 1012,8 hPa 0,0 l/m 2,1 km/h (1 Bft) SW 215 0 min 0,000 mm 0,0 UV-I 0 W/m 17,9 C 21,9 C 3,2 km/h (1 Bft) 100,00 %
30.07.2018 01:32 21,9 C 26,7 C 20,6 C 78 % 1012,8 hPa 0,0 l/m 1,6 km/h (1 Bft) SW 215 0 min 0,000 mm 0,0 UV-I 0 W/m 17,9 C 21,9 C 3,2 km/h (1 Bft) 100,00 %
30.07.2018 01:34 21,9 C 26,7 C 20,6 C 78 % 1012,8 hPa 0,0 l/m 2,4 km/h (1 Bft) SW 215 0 min 0,000 mm 0,0 UV-I 0 W/m 17,9 C 21,9 C 3,2 km/h (1 Bft) 100,00 %
30.07.2018 01:36 21,9 C 26,7 C 20,6 C 78 % 1012,7 hPa 0,0 l/m 4,5 km/h (1 Bft) SW 215 0 min 0,000 mm 0,0 UV-I 0 W/m 17,9 C 21,9 C 4,8 km/h (1 Bft) 100,00 %
30.07.2018 01:38 21,8 C 26,7 C 20,6 C 78 % 1012,7 hPa 0,0 l/m 4,3 km/h (1 Bft) SW 214 0 min 0,000 mm 0,0 UV-I 0 W/m 17,8 C 21,8 C 6,4 km/h (2 Bft) 100,00 %
30.07.2018 01:40 21,7 C 26,7 C 20,6 C 79 % 1012,7 hPa 0,0 l/m 2,3 km/h (1 Bft) SW 214 0 min 0,000 mm 0,0 UV-I 0 W/m 17,9 C 21,7 C 3,2 km/h (1 Bft) 97,87 %
30.07.2018 01:42 21,6 C 26,7 C 20,6 C 79 % 1012,7 hPa 0,0 l/m 2,5 km/h (1 Bft) SW 214 0 min 0,000 mm 0,0 UV-I 0 W/m 17,8 C 21,6 C 4,8 km/h (1 Bft) 97,87 %
30.07.2018 01:44 21,6 C 26,7 C 20,6 C 79 % 1012,7 hPa 0,0 l/m 2,7 km/h (1 Bft) SW 214 0 min 0,000 mm 0,0 UV-I 0 W/m 17,8 C 21,6 C 4,8 km/h (1 Bft) 97,87 %
30.07.2018 01:46 21,6 C 26,7 C 20,6 C 80 % 1012,7 hPa 0,0 l/m 2,7 km/h (1 Bft) SW 214 0 min 0,000 mm 0,0 UV-I 0 W/m 18,0 C 21,6 C 4,8 km/h (1 Bft) 95,74 %
30.07.2018 01:48 21,6 C 26,7 C 20,6 C 79 % 1012,7 hPa 0,0 l/m 2,6 km/h (1 Bft) SW 214 0 min 0,000 mm 0,0 UV-I 0 W/m 17,8 C 21,6 C 4,8 km/h (1 Bft) 95,74 %
30.07.2018 01:50 21,7 C 26,7 C 20,6 C 79 % 1012,7 hPa 0,0 l/m 2,1 km/h (1 Bft) SW 214 0 min 0,000 mm 0,0 UV-I 0 W/m 17,9 C 21,7 C 4,8 km/h (1 Bft) 98,00 %
30.07.2018 01:52 21,6 C 26,7 C 20,6 C 80 % 1012,7 hPa 0,0 l/m 1,1 km/h (1 Bft) SW 214 0 min 0,000 mm 0,0 UV-I 0 W/m 18,0 C 21,6 C 1,6 km/h (1 Bft) 95,74 %
30.07.2018 01:54 21,6 C 26,7 C 20,0 C 80 % 1012,7 hPa 0,0 l/m 0,1 km/h (0 Bft) SW 214 0 min 0,000 mm 0,0 UV-I 0 W/m 18,0 C 21,6 C 1,6 km/h (1 Bft) 97,87 %
30.07.2018 01:56 21,5 C 26,7 C 20,0 C 80 % 1012,7 hPa 0,0 l/m 0,2 km/h (0 Bft) SW 214 0 min 0,000 mm 0,0 UV-I 0 W/m 17,9 C 21,5 C 1,6 km/h (1 Bft) 95,74 %
30.07.2018 01:58 21,4 C 26,7 C 20,0 C 80 % 1012,8 hPa 0,0 l/m 0,0 km/h (0 Bft) SW 214 0 min 0,000 mm 0,0 UV-I 0 W/m 17,8 C 21,4 C 0,0 km/h (0 Bft) 97,87 %
30.07.2018 02:00 21,3 C 26,7 C 20,0 C 81 % 1012,8 hPa 0,0 l/m 0,3 km/h (0 Bft) SW 214 0 min 0,026 mm 0,0 UV-I 0 W/m 17,9 C 21,3 C 1,6 km/h (1 Bft) 96,00 %
30.07.2018 02:02 21,3 C 26,7 C 20,0 C 81 % 1012,7 hPa 0,0 l/m 0,0 km/h (0 Bft) SW 214 0 min 0,000 mm 0,0 UV-I 0 W/m 17,9 C 21,3 C 0,0 km/h (0 Bft) 100,00 %
30.07.2018 02:04 21,3 C 26,7 C 20,0 C 81 % 1012,7 hPa 0,0 l/m 0,9 km/h (0 Bft) SW 214 0 min 0,000 mm 0,0 UV-I 0 W/m 17,9 C 21,3 C 1,6 km/h (1 Bft) 96,23 %
30.07.2018 02:06 21,4 C 26,7 C 20,0 C 81 % 1012,7 hPa 0,0 l/m 0,8 km/h (0 Bft) SW 214 0 min 0,000 mm 0,0 UV-I 0 W/m 18,0 C 21,4 C 1,6 km/h (1 Bft) 100,00 %
30.07.2018 02:08 21,5 C 26,7 C 20,0 C 81 % 1012,7 hPa 0,0 l/m 0,8 km/h (0 Bft) SW 214 0 min 0,000 mm 0,0 UV-I 0 W/m 18,1 C 21,5 C 1,6 km/h (1 Bft) 100,00 %
30.07.2018 02:10 21,4 C 26,7 C 20,0 C 81 % 1012,7 hPa 0,0 l/m 1,5 km/h (1 Bft) SW 214 0 min 0,000 mm 0,0 UV-I 0 W/m 18,0 C 21,4 C 3,2 km/h (1 Bft) 100,00 %
30.07.2018 02:12 21,4 C 26,7 C 20,0 C 81 % 1012,7 hPa 0,0 l/m 1,8 km/h (1 Bft) SW 214 0 min 0,000 mm 0,0 UV-I 0 W/m 18,0 C 21,4 C 3,2 km/h (1 Bft) 98,00 %
30.07.2018 02:14 21,4 C 26,1 C 20,0 C 81 % 1012,7 hPa 0,0 l/m 2,4 km/h (1 Bft) SW 214 0 min 0,000 mm 0,0 UV-I 0 W/m 18,0 C 21,4 C 3,2 km/h (1 Bft) 100,00 %
30.07.2018 02:16 21,4 C 26,1 C 20,0 C 81 % 1012,7 hPa 0,0 l/m 2,0 km/h (1 Bft) SW 214 0 min 0,000 mm 0,0 UV-I 0 W/m 18,0 C 21,4 C 3,2 km/h (1 Bft) 97,92 %
30.07.2018 02:18 21,3 C 26,1 C 20,0 C 81 % 1012,7 hPa 0,0 l/m 1,8 km/h (1 Bft) SW 214 0 min 0,000 mm 0,0 UV-I 0 W/m 17,9 C 21,3 C 3,2 km/h (1 Bft) 97,96 %
30.07.2018 02:20 21,1 C 26,1 C 20,0 C 82 % 1012,8 hPa 0,0 l/m 2,8 km/h (1 Bft) SW 214 0 min 0,000 mm 0,0 UV-I 0 W/m 17,9 C 21,1 C 3,2 km/h (1 Bft) 97,92 %
30.07.2018 02:22 21,1 C 26,1 C 20,0 C 82 % 1012,8 hPa 0,0 l/m 3,6 km/h (1 Bft) SW 214 0 min 0,000 mm 0,0 UV-I 0 W/m 17,9 C 21,1 C 4,8 km/h (1 Bft) 97,87 %
30.07.2018 02:24 21,0 C 26,1 C 20,0 C 82 % 1012,8 hPa 0,0 l/m 3,2 km/h (1 Bft) SW 214 0 min 0,000 mm 0,0 UV-I 0 W/m 17,8 C 21,0 C 4,8 km/h (1 Bft) 97,87 %
30.07.2018 02:26 21,0 C 26,1 C 20,0 C 82 % 1012,8 hPa 0,0 l/m 2,8 km/h (1 Bft) SW 214 0 min 0,000 mm 0,0 UV-I 0 W/m 17,8 C 21,0 C 3,2 km/h (1 Bft) 97,87 %
30.07.2018 02:28 21,1 C 26,1 C 20,0 C 82 % 1012,9 hPa 0,0 l/m 2,7 km/h (1 Bft) SW 214 0 min 0,000 mm 0,0 UV-I 0 W/m 17,9 C 21,1 C 4,8 km/h (1 Bft) 95,74 %
30.07.2018 02:30 21,1 C 26,1 C 20,0 C 82 % 1012,9 hPa 0,0 l/m 2,7 km/h (1 Bft) SW 214 0 min 0,000 mm 0,0 UV-I 0 W/m 17,9 C 21,1 C 4,8 km/h (1 Bft) 95,74 %
30.07.2018 02:32 21,0 C 26,1 C 20,0 C 82 % 1012,8 hPa 0,0 l/m 3,2 km/h (1 Bft) SW 214 0 min 0,000 mm 0,0 UV-I 0 W/m 17,8 C 21,0 C 4,8 km/h (1 Bft) 97,87 %
30.07.2018 02:34 20,9 C 26,1 C 20,0 C 82 % 1012,9 hPa 0,0 l/m 2,0 km/h (1 Bft) SW 214 0 min 0,000 mm 0,0 UV-I 0 W/m 17,7 C 20,9 C 3,2 km/h (1 Bft) 97,87 %
30.07.2018 02:36 20,8 C 26,1 C 20,0 C 83 % 1012,9 hPa 0,0 l/m 1,7 km/h (1 Bft) SW 214 0 min 0,000 mm 0,0 UV-I 0 W/m 17,8 C 20,8 C 3,2 km/h (1 Bft) 97,87 %
30.07.2018 02:38 20,9 C 26,1 C 19,4 C 83 % 1012,9 hPa 0,0 l/m 2,0 km/h (1 Bft) SW 214 0 min 0,000 mm 0,0 UV-I 0 W/m 17,9 C 20,9 C 3,2 km/h (1 Bft) 97,87 %
30.07.2018 02:40 20,9 C 26,1 C 19,4 C 82 % 1012,8 hPa 0,0 l/m 1,9 km/h (1 Bft) SW 214 0 min 0,000 mm 0,0 UV-I 0 W/m 17,7 C 20,9 C 3,2 km/h (1 Bft) 97,87 %
30.07.2018 02:42 20,9 C 26,1 C 19,4 C 82 % 1012,8 hPa 0,0 l/m 2,5 km/h (1 Bft) SW 214 0 min 0,000 mm 0,0 UV-I 0 W/m 17,7 C 20,9 C 3,2 km/h (1 Bft) 97,87 %
30.07.2018 02:44 21,0 C 26,1 C 19,4 C 82 % 1012,8 hPa 0,0 l/m 1,8 km/h (1 Bft) SW 214 0 min 0,000 mm 0,0 UV-I 0 W/m 17,8 C 21,0 C 3,2 km/h (1 Bft) 94,29 %
30.07.2018 02:46 21,1 C 26,1 C 20,0 C 82 % 1012,8 hPa 0,0 l/m 3,2 km/h (1 Bft) SW 214 0 min 0,000 mm 0,0 UV-I 0 W/m 17,9 C 21,1 C 4,8 km/h (1 Bft) 96,00 %
30.07.2018 02:48 21,1 C 26,1 C 20,0 C 82 % 1012,8 hPa 0,0 l/m 3,8 km/h (1 Bft) SW 214 0 min 0,000 mm 0,0 UV-I 0 W/m 17,9 C 21,1 C 6,4 km/h (2 Bft) 92,00 %
30.07.2018 02:50 21,1 C 26,1 C 20,0 C 82 % 1012,8 hPa 0,0 l/m 3,1 km/h (1 Bft) SW 214 0 min 0,000 mm 0,0 UV-I 0 W/m 17,9 C 21,1 C 4,8 km/h (1 Bft) 97,87 %
30.07.2018 02:52 21,1 C 26,1 C 20,0 C 82 % 1012,8 hPa 0,0 l/m 3,3 km/h (1 Bft) S-SW 213 0 min 0,000 mm 0,0 UV-I 0 W/m 17,9 C 21,1 C 4,8 km/h (1 Bft) 95,74 %
30.07.2018 02:54 21,1 C 26,1 C 20,0 C 82 % 1012,8 hPa 0,0 l/m 3,2 km/h (1 Bft) S-SW 213 0 min 0,000 mm 0,0 UV-I 0 W/m 17,9 C 21,1 C 4,8 km/h (1 Bft) 97,87 %
30.07.2018 02:56 21,1 C 26,1 C 20,0 C 82 % 1012,8 hPa 0,0 l/m 3,3 km/h (1 Bft) S-SW 213 0 min 0,000 mm 0,0 UV-I 0 W/m 17,9 C 21,1 C 4,8 km/h (1 Bft) 93,62 %
30.07.2018 02:58 21,2 C 26,1 C 20,0 C 82 % 1012,9 hPa 0,0 l/m 3,9 km/h (1 Bft) S-SW 213 0 min 0,000 mm 0,0 UV-I 0 W/m 18,0 C 21,2 C 4,8 km/h (1 Bft) 97,92 %
30.07.2018 03:00 21,2 C 26,1 C 20,0 C 82 % 1012,9 hPa 0,0 l/m 4,0 km/h (1 Bft) S-SW 213 0 min 0,000 mm 0,0 UV-I 0 W/m 18,0 C 21,2 C 6,4 km/h (2 Bft) 100,00 %
30.07.2018 03:02 21,2 C 26,1 C 20,0 C 82 % 1012,9 hPa 0,0 l/m 3,1 km/h (1 Bft) S-SW 213 0 min 0,000 mm 0,0 UV-I 0 W/m 18,0 C 21,2 C 4,8 km/h (1 Bft) 100,00 %
30.07.2018 03:04 21,1 C 26,1 C 20,0 C 82 % 1012,9 hPa 0,0 l/m 2,1 km/h (1 Bft) S-SW 213 0 min 0,000 mm 0,0 UV-I 0 W/m 17,9 C 21,1 C 3,2 km/h (1 Bft) 91,49 %
30.07.2018 03:06 21,1 C 26,1 C 20,0 C 82 % 1012,9 hPa 0,0 l/m 2,8 km/h (1 Bft) S-SW 213 0 min 0,000 mm 0,0 UV-I 0 W/m 17,9 C 21,1 C 4,8 km/h (1 Bft) 94,74 %
30.07.2018 03:08 21,0 C 26,1 C 20,0 C 83 % 1012,9 hPa 0,0 l/m 3,3 km/h (1 Bft) S-SW 213 0 min 0,000 mm 0,0 UV-I 0 W/m 18,0 C 21,0 C 4,8 km/h (1 Bft) 100,00 %
30.07.2018 03:10 20,9 C 26,1 C 20,0 C 83 % 1012,9 hPa 0,0 l/m 3,1 km/h (1 Bft) S-SW 213 0 min 0,000 mm 0,0 UV-I 0 W/m 17,9 C 20,9 C 4,8 km/h (1 Bft) 95,74 %
30.07.2018 03:12 20,9 C 26,1 C 20,0 C 83 % 1012,9 hPa 0,0 l/m 3,6 km/h (1 Bft) S-SW 213 0 min 0,000 mm 0,0 UV-I 0 W/m 17,9 C 20,9 C 4,8 km/h (1 Bft) 96,00 %
30.07.2018 03:14 21,1 C 26,1 C 20,0 C 83 % 1012,9 hPa 0,0 l/m 3,7 km/h (1 Bft) S-SW 213 0 min 0,000 mm 0,0 UV-I 0 W/m 18,1 C 21,1 C 4,8 km/h (1 Bft) 95,74 %
30.07.2018 03:16 21,1 C 26,1 C 20,0 C 83 % 1012,9 hPa 0,0 l/m 3,4 km/h (1 Bft) S-SW 213 0 min 0,000 mm 0,0 UV-I 0 W/m 18,1 C 21,1 C 6,4 km/h (2 Bft) 92,00 %
30.07.2018 03:18 21,1 C 26,1 C 20,0 C 83 % 1012,9 hPa 0,0 l/m 2,5 km/h (1 Bft) S-SW 213 0 min 0,000 mm 0,0 UV-I 0 W/m 18,1 C 21,1 C 4,8 km/h (1 Bft) 95,74 %
30.07.2018 03:20 21,0 C 26,1 C 20,0 C 83 % 1012,9 hPa 0,0 l/m 3,1 km/h (1 Bft) S-SW 213 0 min 0,000 mm 0,0 UV-I 0 W/m 18,0 C 21,0 C 4,8 km/h (1 Bft) 94,74 %
30.07.2018 03:22 20,9 C 26,1 C 20,0 C 83 % 1012,9 hPa 0,0 l/m 3,0 km/h (1 Bft) S-SW 213 0 min 0,000 mm 0,0 UV-I 0 W/m 17,9 C 20,9 C 4,8 km/h (1 Bft) 93,62 %
30.07.2018 03:24 20,8 C 26,1 C 20,0 C 83 % 1012,9 hPa 0,0 l/m 2,8 km/h (1 Bft) S-SW 213 0 min 0,000 mm 0,0 UV-I 0 W/m 17,8 C 20,8 C 4,8 km/h (1 Bft) 95,74 %
30.07.2018 03:26 20,8 C 26,1 C 20,0 C 84 % 1012,9 hPa 0,0 l/m 2,5 km/h (1 Bft) S-SW 213 0 min 0,000 mm 0,0 UV-I 0 W/m 18,0 C 20,8 C 4,8 km/h (1 Bft) 93,62 %
30.07.2018 03:28 20,9 C 26,1 C 20,0 C 83 % 1012,9 hPa 0,0 l/m 2,5 km/h (1 Bft) S-SW 213 0 min 0,000 mm 0,0 UV-I 0 W/m 17,9 C 20,9 C 3,2 km/h (1 Bft) 93,62 %
30.07.2018 03:30 21,0 C 26,1 C 20,0 C 83 % 1012,9 hPa 0,0 l/m 3,0 km/h (1 Bft) S-SW 213 0 min 0,000 mm 0,0 UV-I 0 W/m 18,0 C 21,0 C 4,8 km/h (1 Bft) 93,75 %
30.07.2018 03:32 21,0 C 26,1 C 20,0 C 83 % 1012,9 hPa 0,0 l/m 3,3 km/h (1 Bft) S-SW 213 0 min 0,000 mm 0,0 UV-I 0 W/m 18,0 C 21,0 C 4,8 km/h (1 Bft) 92,00 %
30.07.2018 03:34 20,9 C 26,1 C 20,0 C 83 % 1013,0 hPa 0,0 l/m 2,9 km/h (1 Bft) S-SW 213 0 min 0,000 mm 0,0 UV-I 0 W/m 17,9 C 20,9 C 4,8 km/h (1 Bft) 95,74 %
30.07.2018 03:36 20,9 C 26,1 C 20,0 C 84 % 1013,0 hPa 0,0 l/m 3,1 km/h (1 Bft) S-SW 213 0 min 0,000 mm 0,0 UV-I 0 W/m 18,1 C 20,9 C 4,8 km/h (1 Bft) 97,87 %
30.07.2018 03:38 20,8 C 26,1 C 20,0 C 84 % 1013,0 hPa 0,0 l/m 3,4 km/h (1 Bft) S-SW 213 0 min 0,000 mm 0,0 UV-I 0 W/m 18,0 C 20,8 C 4,8 km/h (1 Bft) 94,00 %
30.07.2018 03:40 20,8 C 26,1 C 20,0 C 84 % 1013,0 hPa 0,0 l/m 4,1 km/h (1 Bft) S-SW 213 0 min 0,000 mm 0,0 UV-I 0 W/m 18,0 C 20,8 C 4,8 km/h (1 Bft) 97,87 %
30.07.2018 03:42 20,8 C 26,1 C 20,0 C 84 % 1013,0 hPa 0,0 l/m 3,7 km/h (1 Bft) S-SW 213 0 min 0,000 mm 0,0 UV-I 0 W/m 18,0 C 20,8 C 4,8 km/h (1 Bft) 97,87 %
30.07.2018 03:44 20,7 C 26,1 C 19,4 C 84 % 1013,1 hPa 0,0 l/m 2,9 km/h (1 Bft) S-SW 213 0 min 0,000 mm 0,0 UV-I 0 W/m 17,9 C 20,7 C 4,8 km/h (1 Bft) 92,11 %
30.07.2018 03:46 20,6 C 26,1 C 19,4 C 84 % 1013,1 hPa 0,0 l/m 3,3 km/h (1 Bft) S-SW 213 0 min 0,000 mm 0,0 UV-I 0 W/m 17,8 C 20,6 C 4,8 km/h (1 Bft) 97,87 %
30.07.2018 03:48 20,7 C 26,1 C 19,4 C 85 % 1013,1 hPa 0,0 l/m 3,3 km/h (1 Bft) S-SW 212 0 min 0,000 mm 0,0 UV-I 0 W/m 18,1 C 20,7 C 6,4 km/h (2 Bft) 95,74 %
30.07.2018 03:50 20,8 C 26,1 C 18,9 C 84 % 1013,1 hPa 0,0 l/m 3,6 km/h (1 Bft) S-SW 211 0 min 0,000 mm 0,0 UV-I 0 W/m 18,0 C 20,8 C 6,4 km/h (2 Bft) 97,87 %
30.07.2018 03:52 20,8 C 26,1 C 18,9 C 84 % 1013,1 hPa 0,0 l/m 3,5 km/h (1 Bft) S-SW 211 0 min 0,000 mm 0,0 UV-I 0 W/m 18,0 C 20,8 C 4,8 km/h (1 Bft) 97,87 %
30.07.2018 03:54 20,8 C 26,1 C 19,4 C 84 % 1013,1 hPa 0,0 l/m 3,6 km/h (1 Bft) S-SW 210 0 min 0,000 mm 0,0 UV-I 0 W/m 18,0 C 20,8 C 6,4 km/h (2 Bft) 97,87 %
30.07.2018 03:56 20,8 C 26,1 C 19,4 C 84 % 1013,1 hPa 0,0 l/m 4,0 km/h (1 Bft) S-SW 210 0 min 0,000 mm 0,0 UV-I 0 W/m 18,0 C 20,8 C 4,8 km/h (1 Bft) 95,74 %
30.07.2018 03:58 20,8 C 26,1 C 19,4 C 84 % 1013,0 hPa 0,0 l/m 3,0 km/h (1 Bft) S-SW 210 0 min 0,000 mm 0,0 UV-I 0 W/m 18,0 C 20,8 C 4,8 km/h (1 Bft) 97,87 %
30.07.2018 04:00 20,8 C 26,1 C 19,4 C 84 % 1013,1 hPa 0,0 l/m 2,9 km/h (1 Bft) S-SW 210 0 min 0,025 mm 0,0 UV-I 0 W/m 18,0 C 20,8 C 3,2 km/h (1 Bft) 95,74 %
30.07.2018 04:02 20,8 C 26,1 C 19,4 C 84 % 1013,1 hPa 0,0 l/m 3,1 km/h (1 Bft) S-SW 210 0 min 0,000 mm 0,0 UV-I 0 W/m 18,0 C 20,8 C 3,2 km/h (1 Bft) 96,30 %
30.07.2018 04:04 20,8 C 26,1 C 19,4 C 84 % 1013,1 hPa 0,0 l/m 2,8 km/h (1 Bft) S-SW 210 0 min 0,000 mm 0,0 UV-I 0 W/m 18,0 C 20,8 C 4,8 km/h (1 Bft) 94,00 %
30.07.2018 04:06 20,7 C 26,1 C 19,4 C 84 % 1013,1 hPa 0,0 l/m 1,9 km/h (1 Bft) S-SW 210 0 min 0,000 mm 0,0 UV-I 0 W/m 17,9 C 20,7 C 3,2 km/h (1 Bft) 97,87 %
30.07.2018 04:08 20,7 C 26,1 C 19,4 C 85 % 1013,1 hPa 0,0 l/m 3,0 km/h (1 Bft) S-SW 210 0 min 0,000 mm 0,0 UV-I 0 W/m 18,1 C 20,7 C 4,8 km/h (1 Bft) 97,44 %
30.07.2018 04:10 20,6 C 26,1 C 19,4 C 85 % 1013,1 hPa 0,0 l/m 2,7 km/h (1 Bft) S-SW 210 0 min 0,000 mm 0,0 UV-I 0 W/m 18,0 C 20,6 C 4,8 km/h (1 Bft) 95,74 %
30.07.2018 04:12 20,6 C 26,1 C 19,4 C 85 % 1013,2 hPa 0,0 l/m 3,7 km/h (1 Bft) S-SW 210 0 min 0,000 mm 0,0 UV-I 0 W/m 18,0 C 20,6 C 4,8 km/h (1 Bft) 97,87 %
30.07.2018 04:14 20,6 C 26,1 C 19,4 C 85 % 1013,1 hPa 0,0 l/m 2,9 km/h (1 Bft) S-SW 210 0 min 0,000 mm 0,0 UV-I 0 W/m 18,0 C 20,6 C 4,8 km/h (1 Bft) 100,00 %
30.07.2018 04:16 20,6 C 26,1 C 19,4 C 85 % 1013,2 hPa 0,0 l/m 3,2 km/h (1 Bft) S-SW 210 0 min 0,000 mm 0,0 UV-I 0 W/m 18,0 C 20,6 C 4,8 km/h (1 Bft) 100,00 %
30.07.2018 04:18 20,6 C 26,1 C 19,4 C 85 % 1013,2 hPa 0,0 l/m 4,1 km/h (1 Bft) S-SW 211 0 min 0,000 mm 0,0 UV-I 0 W/m 18,0 C 20,6 C 4,8 km/h (1 Bft) 100,00 %
30.07.2018 04:20 20,6 C 26,1 C 20,0 C 85 % 1013,1 hPa 0,0 l/m 4,2 km/h (1 Bft) S-SW 211 0 min 0,000 mm 0,0 UV-I 0 W/m 18,0 C 20,6 C 6,4 km/h (2 Bft) 97,87 %
30.07.2018 04:22 20,6 C 26,1 C 20,0 C 85 % 1013,0 hPa 0,0 l/m 4,2 km/h (1 Bft) S-SW 211 0 min 0,000 mm 0,0 UV-I 0 W/m 18,0 C 20,6 C 4,8 km/h (1 Bft) 97,87 %
30.07.2018 04:24 20,6 C 26,1 C 20,0 C 85 % 1013,1 hPa 0,0 l/m 3,6 km/h (1 Bft) S-SW 211 0 min 0,000 mm 0,0 UV-I 0 W/m 18,0 C 20,6 C 6,4 km/h (2 Bft) 97,87 %
30.07.2018 04:26 20,6 C 26,1 C 20,0 C 85 % 1013,0 hPa 0,0 l/m 4,2 km/h (1 Bft) S-SW 211 0 min 0,000 mm 0,0 UV-I 0 W/m 18,0 C 20,6 C 6,4 km/h (2 Bft) 98,00 %
30.07.2018 04:28 20,6 C 26,1 C 20,0 C 85 % 1013,0 hPa 0,0 l/m 3,2 km/h (1 Bft) S-SW 211 0 min 0,000 mm 0,0 UV-I 0 W/m 18,0 C 20,6 C 4,8 km/h (1 Bft) 97,87 %
30.07.2018 04:30 20,6 C 26,1 C 20,0 C 85 % 1013,0 hPa 0,0 l/m 3,6 km/h (1 Bft) S-SW 213 0 min 0,000 mm 0,0 UV-I 0 W/m 18,0 C 20,6 C 4,8 km/h (1 Bft) 97,14 %
30.07.2018 04:32 20,7 C 26,1 C 20,0 C 85 % 1013,1 hPa 0,0 l/m 4,0 km/h (1 Bft) S-SW 213 0 min 0,000 mm 0,0 UV-I 0 W/m 18,1 C 20,7 C 4,8 km/h (1 Bft) 94,34 %
30.07.2018 04:34 20,7 C 26,1 C 20,0 C 85 % 1013,1 hPa 0,0 l/m 3,5 km/h (1 Bft) S-SW 213 0 min 0,000 mm 0,0 UV-I 0 W/m 18,1 C 20,7 C 4,8 km/h (1 Bft) 97,87 %
30.07.2018 04:36 20,7 C 26,1 C 20,0 C 85 % 1013,2 hPa 0,0 l/m 3,8 km/h (1 Bft) S-SW 213 0 min 0,000 mm 0,0 UV-I 0 W/m 18,1 C 20,7 C 4,8 km/h (1 Bft) 95,74 %
30.07.2018 04:38 20,6 C 26,1 C 20,0 C 85 % 1013,2 hPa 0,0 l/m 4,4 km/h (1 Bft) S-SW 211 0 min 0,000 mm 0,0 UV-I 0 W/m 18,0 C 20,6 C 6,4 km/h (2 Bft) 96,00 %
30.07.2018 04:40 20,6 C 26,1 C 20,0 C 85 % 1013,2 hPa 0,0 l/m 3,1 km/h (1 Bft) S-SW 211 0 min 0,000 mm 0,0 UV-I 0 W/m 18,0 C 20,6 C 4,8 km/h (1 Bft) 95,74 %
30.07.2018 04:42 20,6 C 26,1 C 20,0 C 85 % 1013,2 hPa 0,0 l/m 2,8 km/h (1 Bft) S-SW 211 0 min 0,000 mm 0,0 UV-I 0 W/m 18,0 C 20,6 C 4,8 km/h (1 Bft) 95,74 %
30.07.2018 04:44 20,7 C 26,1 C 20,0 C 85 % 1013,2 hPa 0,0 l/m 2,6 km/h (1 Bft) S-SW 211 0 min 0,000 mm 0,0 UV-I 0 W/m 18,1 C 20,7 C 4,8 km/h (1 Bft) 92,00 %
30.07.2018 04:46 20,7 C 26,1 C 20,0 C 85 % 1013,2 hPa 0,0 l/m 2,2 km/h (1 Bft) S-SW 211 0 min 0,000 mm 0,0 UV-I 0 W/m 18,1 C 20,7 C 4,8 km/h (1 Bft) 93,62 %
30.07.2018 04:48 20,8 C 26,1 C 20,0 C 85 % 1013,2 hPa 0,0 l/m 3,0 km/h (1 Bft) S-SW 211 0 min 0,000 mm 0,0 UV-I 0 W/m 18,2 C 20,8 C 4,8 km/h (1 Bft) 91,49 %
30.07.2018 04:50 20,8 C 26,1 C 20,0 C 85 % 1013,2 hPa 0,0 l/m 2,9 km/h (1 Bft) S-SW 211 0 min 0,000 mm 0,0 UV-I 0 W/m 18,2 C 20,8 C 4,8 km/h (1 Bft) 97,44 %
30.07.2018 04:52 20,8 C 26,1 C 20,0 C 84 % 1013,2 hPa 0,0 l/m 3,0 km/h (1 Bft) S-SW 211 0 min 0,000 mm 0,0 UV-I 0 W/m 18,0 C 20,8 C 4,8 km/h (1 Bft) 98,00 %
30.07.2018 04:54 20,9 C 26,1 C 20,0 C 84 % 1013,3 hPa 0,0 l/m 2,8 km/h (1 Bft) S-SW 211 0 min 0,000 mm 0,0 UV-I 0 W/m 18,1 C 20,9 C 3,2 km/h (1 Bft) 97,87 %
30.07.2018 04:56 20,9 C 26,1 C 20,0 C 84 % 1013,3 hPa 0,0 l/m 3,2 km/h (1 Bft) S-SW 211 0 min 0,000 mm 0,0 UV-I 0 W/m 18,1 C 20,9 C 4,8 km/h (1 Bft) 95,74 %
30.07.2018 04:58 20,9 C 26,1 C 20,0 C 84 % 1013,2 hPa 0,0 l/m 2,2 km/h (1 Bft) S-SW 211 0 min 0,000 mm 0,0 UV-I 0 W/m 18,1 C 20,9 C 3,2 km/h (1 Bft) 97,87 %
30.07.2018 05:00 20,8 C 26,1 C 20,0 C 85 % 1013,3 hPa 0,0 l/m 3,1 km/h (1 Bft) S-SW 211 0 min 0,000 mm 0,0 UV-I 0 W/m 18,2 C 20,8 C 4,8 km/h (1 Bft) 93,62 %
30.07.2018 05:02 20,7 C 26,1 C 20,0 C 85 % 1013,2 hPa 0,0 l/m 2,7 km/h (1 Bft) S-SW 211 0 min 0,000 mm 0,0 UV-I 0 W/m 18,1 C 20,7 C 4,8 km/h (1 Bft) 98,00 %
30.07.2018 05:04 20,7 C 26,1 C 20,0 C 85 % 1013,2 hPa 0,0 l/m 2,1 km/h (1 Bft) S-SW 211 0 min 0,000 mm 0,0 UV-I 0 W/m 18,1 C 20,7 C 3,2 km/h (1 Bft) 97,87 %
30.07.2018 05:06 20,7 C 26,1 C 20,0 C 85 % 1013,3 hPa 0,0 l/m 2,6 km/h (1 Bft) S-SW 211 0 min 0,000 mm 0,0 UV-I 0 W/m 18,1 C 20,7 C 3,2 km/h (1 Bft) 100,00 %
30.07.2018 05:08 20,7 C 26,1 C 20,0 C 85 % 1013,3 hPa 0,0 l/m 2,2 km/h (1 Bft) S-SW 211 0 min 0,000 mm 0,0 UV-I 0 W/m 18,1 C 20,7 C 3,2 km/h (1 Bft) 100,00 %
30.07.2018 05:10 20,7 C 26,1 C 20,0 C 85 % 1013,3 hPa 0,0 l/m 2,2 km/h (1 Bft) S-SW 211 0 min 0,000 mm 0,0 UV-I 0 W/m 18,1 C 20,7 C 3,2 km/h (1 Bft) 100,00 %
30.07.2018 05:12 20,8 C 26,1 C 20,0 C 85 % 1013,3 hPa 0,0 l/m 2,2 km/h (1 Bft) S-SW 211 0 min 0,000 mm 0,0 UV-I 0 W/m 18,2 C 20,8 C 3,2 km/h (1 Bft) 98,00 %
30.07.2018 05:14 20,8 C 26,1 C 20,0 C 84 % 1013,4 hPa 0,0 l/m 0,8 km/h (0 Bft) S-SW 211 0 min 0,000 mm 0,0 UV-I 0 W/m 18,0 C 20,8 C 1,6 km/h (1 Bft) 100,00 %
30.07.2018 05:16 20,8 C 26,1 C 20,0 C 84 % 1013,4 hPa 0,0 l/m 0,4 km/h (0 Bft) S-SW 211 0 min 0,000 mm 0,0 UV-I 0 W/m 18,0 C 20,8 C 1,6 km/h (1 Bft) 100,00 %
30.07.2018 05:18 20,7 C 26,1 C 20,0 C 85 % 1013,4 hPa 0,0 l/m 0,1 km/h (0 Bft) S-SW 211 0 min 0,000 mm 0,0 UV-I 0 W/m 18,1 C 20,7 C 1,6 km/h (1 Bft) 95,74 %
30.07.2018 05:20 20,7 C 26,1 C 20,0 C 85 % 1013,5 hPa 0,0 l/m 0,0 km/h (0 Bft) S-SW 211 0 min 0,000 mm 0,0 UV-I 0 W/m 18,1 C 20,7 C 0,0 km/h (0 Bft) 100,00 %
30.07.2018 05:22 20,7 C 26,1 C 20,0 C 85 % 1013,4 hPa 0,0 l/m 1,5 km/h (1 Bft) S-SW 211 0 min 0,000 mm 0,0 UV-I 0 W/m 18,1 C 20,7 C 3,2 km/h (1 Bft) 98,00 %
30.07.2018 05:24 20,7 C 26,1 C 19,4 C 85 % 1013,4 hPa 0,0 l/m 0,5 km/h (0 Bft) S-SW 211 0 min 0,000 mm 0,0 UV-I 4 W/m 18,1 C 20,7 C 1,6 km/h (1 Bft) 100,00 %
30.07.2018 05:26 20,7 C 26,1 C 19,4 C 85 % 1013,5 hPa 0,0 l/m 0,0 km/h (0 Bft) S-SW 211 0 min 0,000 mm 0,0 UV-I 5 W/m 18,1 C 20,7 C 0,0 km/h (0 Bft) 100,00 %
30.07.2018 05:28 20,4 C 26,1 C 19,4 C 86 % 1013,5 hPa 0,0 l/m 0,0 km/h (0 Bft) S-SW 211 0 min 0,000 mm 0,0 UV-I 5 W/m 18,0 C 20,4 C 0,0 km/h (0 Bft) 97,87 %
30.07.2018 05:30 20,3 C 26,1 C 19,4 C 87 % 1013,5 hPa 0,0 l/m 1,6 km/h (1 Bft) S-SW 211 0 min 0,000 mm 0,0 UV-I 6 W/m 18,1 C 20,3 C 3,2 km/h (1 Bft) 100,00 %
30.07.2018 05:32 20,3 C 26,1 C 18,9 C 87 % 1013,5 hPa 0,0 l/m 2,9 km/h (1 Bft) S-SW 211 0 min 0,000 mm 0,0 UV-I 7 W/m 18,1 C 20,3 C 3,2 km/h (1 Bft) 100,00 %
30.07.2018 05:34 20,3 C 26,1 C 18,9 C 86 % 1013,5 hPa 0,0 l/m 2,1 km/h (1 Bft) S-SW 211 0 min 0,000 mm 0,0 UV-I 7 W/m 17,9 C 20,3 C 4,8 km/h (1 Bft) 100,00 %
30.07.2018 05:36 20,3 C 26,1 C 18,9 C 87 % 1013,5 hPa 0,0 l/m 0,2 km/h (0 Bft) S-SW 211 0 min 0,000 mm 0,0 UV-I 9 W/m 18,1 C 20,3 C 1,6 km/h (1 Bft) 100,00 %
30.07.2018 05:38 20,3 C 26,1 C 18,9 C 86 % 1013,5 hPa 0,0 l/m 0,0 km/h (0 Bft) S-SW 211 0 min 0,000 mm 0,0 UV-I 9 W/m 17,9 C 20,3 C 0,0 km/h (0 Bft) 100,00 %
30.07.2018 05:40 20,2 C 26,1 C 18,9 C 86 % 1013,6 hPa 0,0 l/m 0,2 km/h (0 Bft) S-SW 211 0 min 0,000 mm 0,0 UV-I 9 W/m 17,8 C 20,2 C 1,6 km/h (1 Bft) 100,00 %
30.07.2018 05:42 19,9 C 26,1 C 18,9 C 88 % 1013,6 hPa 0,0 l/m 1,6 km/h (1 Bft) S-SW 211 0 min 0,000 mm 0,0 UV-I 11 W/m 17,8 C 19,9 C 3,2 km/h (1 Bft) 100,00 %
30.07.2018 05:44 19,8 C 26,1 C 18,9 C 88 % 1013,6 hPa 0,0 l/m 1,5 km/h (1 Bft) S-SW 211 0 min 0,000 mm 0,0 UV-I 11 W/m 17,8 C 19,8 C 1,6 km/h (1 Bft) 100,00 %
30.07.2018 05:46 19,7 C 26,1 C 18,9 C 89 % 1013,6 hPa 0,0 l/m 0,1 km/h (0 Bft) S-SW 211 0 min 0,000 mm 0,0 UV-I 12 W/m 17,8 C 19,7 C 1,6 km/h (1 Bft) 100,00 %
30.07.2018 05:48 19,7 C 26,1 C 18,3 C 89 % 1013,6 hPa 0,0 l/m 0,0 km/h (0 Bft) S-SW 211 2 min 0,000 mm 0,0 UV-I 13 W/m 17,8 C 19,7 C 0,0 km/h (0 Bft) 100,00 %
30.07.2018 05:50 19,8 C 26,1 C 18,3 C 89 % 1013,7 hPa 0,0 l/m 0,0 km/h (0 Bft) S-SW 211 2 min 0,000 mm 0,0 UV-I 14 W/m 17,9 C 19,8 C 0,0 km/h (0 Bft) 97,56 %
30.07.2018 05:52 19,8 C 26,1 C 18,3 C 89 % 1013,6 hPa 0,0 l/m 0,0 km/h (0 Bft) S-SW 211 2 min 0,000 mm 0,0 UV-I 17 W/m 17,9 C 19,8 C 0,0 km/h (0 Bft) 100,00 %
30.07.2018 05:54 19,9 C 26,1 C 18,3 C 88 % 1013,6 hPa 0,0 l/m 0,0 km/h (0 Bft) S-SW 211 2 min 0,000 mm 0,0 UV-I 19 W/m 17,8 C 19,9 C 0,0 km/h (0 Bft) 100,00 %
30.07.2018 05:56 19,9 C 26,1 C 18,3 C 88 % 1013,6 hPa 0,0 l/m 0,0 km/h (0 Bft) S-SW 211 2 min 0,000 mm 0,0 UV-I 21 W/m 17,8 C 19,9 C 0,0 km/h (0 Bft) 97,87 %
30.07.2018 05:58 19,8 C 26,1 C 18,3 C 88 % 1013,6 hPa 0,0 l/m 0,0 km/h (0 Bft) S-SW 211 0 min 0,000 mm 0,0 UV-I 22 W/m 17,8 C 19,8 C 0,0 km/h (0 Bft) 100,00 %
30.07.2018 06:00 19,8 C 26,1 C 18,3 C 89 % 1013,6 hPa 0,0 l/m 0,0 km/h (0 Bft) S-SW 211 0 min 0,000 mm 0,0 UV-I 25 W/m 17,9 C 19,8 C 0,0 km/h (0 Bft) 97,87 %
30.07.2018 06:02 19,7 C 26,1 C 18,3 C 89 % 1013,6 hPa 0,0 l/m 0,0 km/h (0 Bft) S-SW 211 0 min 0,000 mm 0,0 UV-I 26 W/m 17,8 C 19,7 C 0,0 km/h (0 Bft) 100,00 %
30.07.2018 06:04 19,7 C 26,1 C 18,3 C 89 % 1013,6 hPa 0,0 l/m 0,0 km/h (0 Bft) S-SW 211 0 min 0,000 mm 0,0 UV-I 29 W/m 17,8 C 19,7 C 0,0 km/h (0 Bft) 100,00 %
30.07.2018 06:06 19,7 C 26,1 C 18,3 C 89 % 1013,6 hPa 0,0 l/m 0,0 km/h (0 Bft) S-SW 211 0 min 0,000 mm 0,0 UV-I 31 W/m 17,8 C 19,7 C 0,0 km/h (0 Bft) 97,87 %
30.07.2018 06:08 19,7 C 26,1 C 18,3 C 89 % 1013,6 hPa 0,0 l/m 0,1 km/h (0 Bft) S 177 0 min 0,000 mm 0,0 UV-I 33 W/m 17,8 C 19,7 C 1,6 km/h (1 Bft) 95,74 %
30.07.2018 06:10 19,7 C 26,1 C 18,3 C 89 % 1013,7 hPa 0,0 l/m 0,0 km/h (0 Bft) S 177 0 min 0,000 mm 0,0 UV-I 34 W/m 17,8 C 19,7 C 0,0 km/h (0 Bft) 97,87 %
30.07.2018 06:12 19,8 C 26,1 C 18,3 C 89 % 1013,7 hPa 0,0 l/m 0,0 km/h (0 Bft) S 177 0 min 0,000 mm 0,0 UV-I 37 W/m 17,9 C 19,8 C 0,0 km/h (0 Bft) 95,74 %
30.07.2018 06:14 19,8 C 26,1 C 18,3 C 89 % 1013,7 hPa 0,0 l/m 0,0 km/h (0 Bft) S 177 0 min 0,000 mm 0,0 UV-I 40 W/m 17,9 C 19,8 C 0,0 km/h (0 Bft) 98,00 %
30.07.2018 06:16 19,8 C 26,1 C 18,3 C 88 % 1013,7 hPa 0,0 l/m 0,0 km/h (0 Bft) S 177 0 min 0,000 mm 0,0 UV-I 41 W/m 17,8 C 19,8 C 0,0 km/h (0 Bft) 95,74 %
30.07.2018 06:18 19,8 C 26,1 C 18,3 C 88 % 1013,8 hPa 0,0 l/m 0,5 km/h (0 Bft) S 177 0 min 0,000 mm 0,0 UV-I 47 W/m 17,8 C 19,8 C 1,6 km/h (1 Bft) 97,56 %
30.07.2018 06:20 19,8 C 26,1 C 18,9 C 88 % 1013,9 hPa 0,0 l/m 1,2 km/h (1 Bft) S 177 0 min 0,000 mm 0,0 UV-I 53 W/m 17,8 C 19,8 C 1,6 km/h (1 Bft) 96,15 %
30.07.2018 06:22 19,8 C 26,1 C 18,9 C 88 % 1013,8 hPa 0,0 l/m 0,0 km/h (0 Bft) S 177 0 min 0,000 mm 0,0 UV-I 57 W/m 17,8 C 19,8 C 1,6 km/h (1 Bft) 97,87 %
30.07.2018 06:24 19,9 C 26,1 C 18,9 C 88 % 1013,8 hPa 0,0 l/m 0,0 km/h (0 Bft) S 177 2 min 0,000 mm 0,0 UV-I 68 W/m 17,8 C 19,9 C 0,0 km/h (0 Bft) 95,74 %
30.07.2018 06:26 19,8 C 26,1 C 19,4 C 88 % 1013,8 hPa 0,0 l/m 0,0 km/h (0 Bft) S 177 2 min 0,000 mm 0,0 UV-I 75 W/m 17,8 C 19,8 C 0,0 km/h (0 Bft) 95,74 %
30.07.2018 06:28 19,7 C 26,1 C 19,4 C 88 % 1013,8 hPa 0,0 l/m 0,0 km/h (0 Bft) S 177 2 min 0,000 mm 0,0 UV-I 79 W/m 17,7 C 19,7 C 0,0 km/h (0 Bft) 95,74 %
30.07.2018 06:30 19,7 C 26,1 C 19,4 C 88 % 1013,8 hPa 0,0 l/m 0,0 km/h (0 Bft) S 177 2 min 0,000 mm 0,0 UV-I 78 W/m 17,7 C 19,7 C 1,6 km/h (1 Bft) 93,62 %
30.07.2018 06:32 19,8 C 26,1 C 19,4 C 89 % 1013,8 hPa 0,0 l/m 1,5 km/h (1 Bft) S 177 0 min 0,000 mm 0,0 UV-I 66 W/m 17,9 C 19,8 C 3,2 km/h (1 Bft) 93,62 %
30.07.2018 06:34 19,9 C 26,1 C 20,0 C 89 % 1013,8 hPa 0,0 l/m 1,8 km/h (1 Bft) S 177 0 min 0,000 mm 0,0 UV-I 63 W/m 18,0 C 19,9 C 3,2 km/h (1 Bft) 97,87 %
30.07.2018 06:36 20,1 C 26,1 C 20,0 C 88 % 1013,8 hPa 0,0 l/m 1,9 km/h (1 Bft) S 178 0 min 0,000 mm 0,0 UV-I 69 W/m 18,0 C 20,1 C 3,2 km/h (1 Bft) 95,74 %
30.07.2018 06:38 20,1 C 26,1 C 20,0 C 88 % 1013,8 hPa 0,0 l/m 1,9 km/h (1 Bft) S 177 0 min 0,000 mm 0,0 UV-I 71 W/m 18,0 C 20,1 C 3,2 km/h (1 Bft) 94,00 %
30.07.2018 06:40 20,1 C 26,1 C 20,0 C 88 % 1013,9 hPa 0,0 l/m 1,0 km/h (0 Bft) S 177 0 min 0,000 mm 0,0 UV-I 62 W/m 18,0 C 20,1 C 3,2 km/h (1 Bft) 95,74 %
30.07.2018 06:42 20,0 C 26,1 C 20,0 C 88 % 1013,9 hPa 0,0 l/m 0,9 km/h (0 Bft) S 177 0 min 0,000 mm 0,0 UV-I 66 W/m 17,9 C 20,0 C 1,6 km/h (1 Bft) 93,62 %
30.07.2018 06:44 20,0 C 26,1 C 20,0 C 88 % 1013,9 hPa 0,0 l/m 1,0 km/h (0 Bft) S 177 0 min 0,000 mm 0,0 UV-I 77 W/m 17,9 C 20,0 C 1,6 km/h (1 Bft) 97,92 %
30.07.2018 06:46 20,0 C 26,1 C 20,0 C 88 % 1013,8 hPa 0,0 l/m 0,2 km/h (0 Bft) S 178 2 min 0,000 mm 0,0 UV-I 97 W/m 17,9 C 20,0 C 1,6 km/h (1 Bft) 97,37 %
30.07.2018 06:48 20,1 C 26,1 C 20,0 C 88 % 1013,9 hPa 0,0 l/m 0,0 km/h (0 Bft) S 177 2 min 0,000 mm 0,0 UV-I 105 W/m 18,0 C 20,1 C 0,0 km/h (0 Bft) 98,00 %
30.07.2018 06:50 20,2 C 26,1 C 20,0 C 88 % 1013,9 hPa 0,0 l/m 0,4 km/h (0 Bft) S 177 2 min 0,000 mm 0,0 UV-I 110 W/m 18,1 C 20,2 C 1,6 km/h (1 Bft) 93,62 %
30.07.2018 06:52 20,2 C 26,1 C 20,0 C 87 % 1013,9 hPa 0,0 l/m 1,7 km/h (1 Bft) S 178 0 min 0,000 mm 0,0 UV-I 93 W/m 18,0 C 20,2 C 3,2 km/h (1 Bft) 97,87 %
30.07.2018 06:54 20,4 C 26,1 C 20,0 C 87 % 1013,9 hPa 0,0 l/m 0,8 km/h (0 Bft) S 177 0 min 0,000 mm 0,0 UV-I 87 W/m 18,2 C 20,4 C 1,6 km/h (1 Bft) 97,87 %
30.07.2018 06:56 20,4 C 26,1 C 20,0 C 87 % 1014,0 hPa 0,0 l/m 0,7 km/h (0 Bft) S 178 2 min 0,000 mm 0,0 UV-I 117 W/m 18,2 C 20,4 C 1,6 km/h (1 Bft) 97,87 %
30.07.2018 06:58 20,5 C 26,1 C 20,0 C 86 % 1014,0 hPa 0,0 l/m 0,0 km/h (0 Bft) S 177 2 min 0,000 mm 0,0 UV-I 131 W/m 18,1 C 20,5 C 0,0 km/h (0 Bft) 97,96 %
30.07.2018 07:00 20,6 C 26,1 C 20,6 C 86 % 1014,0 hPa 0,0 l/m 0,0 km/h (0 Bft) S 177 2 min 0,000 mm 0,0 UV-I 144 W/m 18,2 C 20,6 C 0,0 km/h (0 Bft) 97,87 %
30.07.2018 07:02 20,7 C 26,1 C 20,6 C 86 % 1014,0 hPa 0,0 l/m 0,8 km/h (0 Bft) S 178 2 min 0,051 mm 0,0 UV-I 153 W/m 18,3 C 20,7 C 1,6 km/h (1 Bft) 96,00 %
30.07.2018 07:04 20,9 C 26,1 C 20,6 C 85 % 1014,0 hPa 0,0 l/m 1,5 km/h (1 Bft) S 178 2 min 0,000 mm 0,0 UV-I 160 W/m 18,3 C 20,9 C 3,2 km/h (1 Bft) 91,49 %
30.07.2018 07:06 21,1 C 26,1 C 21,1 C 85 % 1014,0 hPa 0,0 l/m 2,8 km/h (1 Bft) S 178 2 min 0,000 mm 0,0 UV-I 163 W/m 18,5 C 21,1 C 4,8 km/h (1 Bft) 95,00 %
30.07.2018 07:08 21,2 C 26,1 C 21,1 C 85 % 1014,0 hPa 0,0 l/m 1,4 km/h (1 Bft) S 178 2 min 0,000 mm 0,0 UV-I 165 W/m 18,6 C 21,2 C 3,2 km/h (1 Bft) 94,00 %
30.07.2018 07:10 21,2 C 26,1 C 21,1 C 84 % 1014,0 hPa 0,0 l/m 0,0 km/h (0 Bft) S 178 2 min 0,000 mm 0,0 UV-I 172 W/m 18,4 C 21,2 C 0,0 km/h (0 Bft) 97,87 %
30.07.2018 07:12 21,3 C 26,1 C 21,1 C 84 % 1014,0 hPa 0,0 l/m 0,0 km/h (0 Bft) S 178 2 min 0,000 mm 0,0 UV-I 178 W/m 18,5 C 21,3 C 0,0 km/h (0 Bft) 96,00 %
30.07.2018 07:14 21,4 C 26,1 C 21,7 C 83 % 1014,0 hPa 0,0 l/m 0,0 km/h (0 Bft) S 178 2 min 0,000 mm 0,0 UV-I 185 W/m 18,4 C 21,4 C 0,0 km/h (0 Bft) 97,87 %
30.07.2018 07:16 21,6 C 26,1 C 21,7 C 83 % 1014,0 hPa 0,0 l/m 1,0 km/h (0 Bft) S 178 2 min 0,000 mm 0,0 UV-I 191 W/m 18,6 C 21,6 C 1,6 km/h (1 Bft) 97,30 %
30.07.2018 07:18 21,6 C 26,1 C 21,7 C 83 % 1014,1 hPa 0,0 l/m 1,4 km/h (1 Bft) S 178 2 min 0,000 mm 0,0 UV-I 198 W/m 18,6 C 21,6 C 3,2 km/h (1 Bft) 97,92 %
30.07.2018 07:20 21,7 C 26,1 C 22,2 C 83 % 1014,1 hPa 0,0 l/m 1,7 km/h (1 Bft) S 178 2 min 0,000 mm 0,0 UV-I 199 W/m 18,7 C 21,7 C 3,2 km/h (1 Bft) 97,87 %
30.07.2018 07:22 21,7 C 26,1 C 22,2 C 82 % 1014,2 hPa 0,0 l/m 2,9 km/h (1 Bft) S-SW 195 2 min 0,000 mm 0,0 UV-I 203 W/m 18,5 C 21,7 C 4,8 km/h (1 Bft) 95,74 %
30.07.2018 07:24 21,8 C 26,1 C 22,2 C 82 % 1014,1 hPa 0,0 l/m 1,9 km/h (1 Bft) S-SW 195 2 min 0,000 mm 0,0 UV-I 218 W/m 18,6 C 21,8 C 3,2 km/h (1 Bft) 97,87 %
30.07.2018 07:26 21,9 C 26,1 C 22,8 C 82 % 1014,2 hPa 0,0 l/m 2,8 km/h (1 Bft) S-SW 196 2 min 0,000 mm 0,0 UV-I 229 W/m 18,7 C 21,9 C 4,8 km/h (1 Bft) 97,87 %
30.07.2018 07:28 22,0 C 26,1 C 22,8 C 81 % 1014,2 hPa 0,0 l/m 2,7 km/h (1 Bft) S-SW 196 2 min 0,000 mm 0,0 UV-I 236 W/m 18,6 C 22,0 C 4,8 km/h (1 Bft) 97,87 %
30.07.2018 07:30 22,1 C 26,1 C 22,8 C 81 % 1014,2 hPa 0,0 l/m 1,4 km/h (1 Bft) S-SW 196 2 min 0,000 mm 0,5 UV-I 242 W/m 18,7 C 22,1 C 3,2 km/h (1 Bft) 98,00 %
30.07.2018 07:32 22,1 C 26,1 C 22,8 C 81 % 1014,3 hPa 0,0 l/m 1,6 km/h (1 Bft) S-SW 196 2 min 0,000 mm 0,5 UV-I 250 W/m 18,7 C 22,1 C 3,2 km/h (1 Bft) 92,00 %
30.07.2018 07:34 22,2 C 26,1 C 23,3 C 81 % 1014,2 hPa 0,0 l/m 2,4 km/h (1 Bft) S-SW 196 2 min 0,000 mm 0,5 UV-I 257 W/m 18,8 C 22,2 C 4,8 km/h (1 Bft) 97,37 %
30.07.2018 07:36 22,2 C 26,1 C 23,3 C 80 % 1014,3 hPa 0,0 l/m 1,1 km/h (1 Bft) S-SW 196 2 min 0,000 mm 0,5 UV-I 260 W/m 18,6 C 22,2 C 3,2 km/h (1 Bft) 93,62 %
30.07.2018 07:38 22,2 C 26,1 C 23,3 C 79 % 1014,3 hPa 0,0 l/m 2,6 km/h (1 Bft) S-SW 196 2 min 0,000 mm 0,5 UV-I 259 W/m 18,4 C 22,2 C 4,8 km/h (1 Bft) 89,36 %
30.07.2018 07:40 22,1 C 26,1 C 23,3 C 80 % 1014,3 hPa 0,0 l/m 2,0 km/h (1 Bft) S-SW 196 2 min 0,000 mm 0,5 UV-I 256 W/m 18,5 C 22,1 C 3,2 km/h (1 Bft) 95,74 %
30.07.2018 07:42 22,2 C 26,1 C 23,3 C 80 % 1014,3 hPa 0,0 l/m 2,8 km/h (1 Bft) S-SW 196 2 min 0,000 mm 0,6 UV-I 254 W/m 18,6 C 22,2 C 4,8 km/h (1 Bft) 95,74 %
30.07.2018 07:44 22,3 C 26,1 C 23,3 C 80 % 1014,3 hPa 0,0 l/m 2,2 km/h (1 Bft) S-SW 200 2 min 0,000 mm 0,6 UV-I 256 W/m 18,7 C 22,3 C 4,8 km/h (1 Bft) 98,00 %
30.07.2018 07:46 22,4 C 26,1 C 23,3 C 80 % 1014,3 hPa 0,0 l/m 4,8 km/h (1 Bft) W-SW 239 2 min 0,000 mm 0,6 UV-I 259 W/m 18,8 C 22,4 C 6,4 km/h (2 Bft) 95,74 %
30.07.2018 07:48 22,6 C 26,1 C 23,3 C 80 % 1014,3 hPa 0,0 l/m 5,4 km/h (1 Bft) SW 224 2 min 0,000 mm 0,6 UV-I 266 W/m 19,0 C 22,6 C 8,0 km/h (2 Bft) 95,74 %
30.07.2018 07:50 22,6 C 26,1 C 23,3 C 79 % 1014,3 hPa 0,0 l/m 4,2 km/h (1 Bft) SW 224 2 min 0,000 mm 0,7 UV-I 272 W/m 18,8 C 22,6 C 6,4 km/h (2 Bft) 95,74 %
30.07.2018 07:52 22,7 C 26,1 C 23,3 C 79 % 1014,2 hPa 0,0 l/m 3,8 km/h (1 Bft) SW 226 2 min 0,000 mm 0,7 UV-I 275 W/m 18,9 C 22,7 C 6,4 km/h (2 Bft) 96,00 %
30.07.2018 07:54 22,7 C 26,1 C 23,3 C 79 % 1014,3 hPa 0,0 l/m 2,5 km/h (1 Bft) SW 227 2 min 0,000 mm 0,7 UV-I 278 W/m 18,9 C 22,7 C 4,8 km/h (1 Bft) 93,62 %
30.07.2018 07:56 22,8 C 26,1 C 23,3 C 79 % 1014,3 hPa 0,0 l/m 3,3 km/h (1 Bft) SW 234 2 min 0,000 mm 0,7 UV-I 279 W/m 19,0 C 22,8 C 8,0 km/h (2 Bft) 91,49 %
30.07.2018 07:58 22,8 C 26,1 C 23,3 C 78 % 1014,3 hPa 0,0 l/m 5,3 km/h (1 Bft) W-SW 251 2 min 0,000 mm 0,7 UV-I 286 W/m 18,8 C 22,8 C 8,0 km/h (2 Bft) 95,83 %
30.07.2018 08:00 22,8 C 26,1 C 23,3 C 78 % 1014,3 hPa 0,0 l/m 3,0 km/h (1 Bft) W 261 2 min 0,152 mm 0,8 UV-I 292 W/m 18,8 C 22,8 C 4,8 km/h (1 Bft) 93,62 %
30.07.2018 08:02 22,9 C 26,1 C 23,3 C 78 % 1014,2 hPa 0,0 l/m 4,6 km/h (1 Bft) SW 217 2 min 0,000 mm 0,8 UV-I 296 W/m 18,9 C 22,9 C 8,0 km/h (2 Bft) 100,00 %
30.07.2018 08:04 22,9 C 26,1 C 23,3 C 77 % 1014,3 hPa 0,0 l/m 4,5 km/h (1 Bft) SW 218 2 min 0,000 mm 0,8 UV-I 298 W/m 18,6 C 22,9 C 8,0 km/h (2 Bft) 95,74 %
30.07.2018 08:06 23,1 C 26,1 C 23,3 C 78 % 1014,3 hPa 0,0 l/m 4,3 km/h (1 Bft) SW 219 2 min 0,000 mm 0,8 UV-I 298 W/m 19,0 C 23,1 C 8,0 km/h (2 Bft) 95,74 %
30.07.2018 08:08 23,2 C 26,1 C 23,3 C 77 % 1014,3 hPa 0,0 l/m 3,9 km/h (1 Bft) SW 236 2 min 0,000 mm 0,9 UV-I 301 W/m 18,9 C 23,2 C 6,4 km/h (2 Bft) 96,00 %
30.07.2018 08:10 23,2 C 26,1 C 23,3 C 77 % 1014,3 hPa 0,0 l/m 4,3 km/h (1 Bft) W-SW 254 2 min 0,000 mm 0,9 UV-I 304 W/m 18,9 C 23,2 C 6,4 km/h (2 Bft) 98,00 %
30.07.2018 08:12 23,1 C 26,1 C 23,9 C 77 % 1014,4 hPa 0,0 l/m 2,9 km/h (1 Bft) W-SW 254 2 min 0,000 mm 0,9 UV-I 312 W/m 18,8 C 23,1 C 4,8 km/h (1 Bft) 100,00 %
30.07.2018 08:14 23,3 C 26,1 C 23,9 C 77 % 1014,4 hPa 0,0 l/m 1,6 km/h (1 Bft) W-SW 254 2 min 0,000 mm 0,9 UV-I 322 W/m 19,0 C 23,3 C 3,2 km/h (1 Bft) 97,87 %
30.07.2018 08:16 23,3 C 26,1 C 23,9 C 76 % 1014,4 hPa 0,0 l/m 1,9 km/h (1 Bft) W-SW 254 2 min 0,000 mm 1,0 UV-I 330 W/m 18,8 C 23,3 C 3,2 km/h (1 Bft) 100,00 %
30.07.2018 08:18 23,3 C 26,1 C 23,9 C 76 % 1014,4 hPa 0,0 l/m 0,4 km/h (0 Bft) W-SW 254 2 min 0,000 mm 1,0 UV-I 337 W/m 18,8 C 23,3 C 1,6 km/h (1 Bft) 100,00 %
30.07.2018 08:20 23,4 C 26,1 C 23,9 C 76 % 1014,4 hPa 0,0 l/m 1,3 km/h (1 Bft) W-SW 255 2 min 0,000 mm 1,0 UV-I 344 W/m 18,9 C 23,4 C 3,2 km/h (1 Bft) 97,87 %
30.07.2018 08:22 23,4 C 26,1 C 23,9 C 75 % 1014,4 hPa 0,0 l/m 1,9 km/h (1 Bft) W-SW 255 2 min 0,000 mm 1,1 UV-I 351 W/m 18,7 C 23,4 C 3,2 km/h (1 Bft) 97,87 %
30.07.2018 08:24 23,4 C 26,1 C 23,9 C 75 % 1014,4 hPa 0,0 l/m 1,3 km/h (1 Bft) W-SW 255 2 min 0,000 mm 1,1 UV-I 357 W/m 18,7 C 23,4 C 3,2 km/h (1 Bft) 97,87 %
30.07.2018 08:26 23,5 C 26,1 C 24,4 C 76 % 1014,4 hPa 0,0 l/m 4,3 km/h (1 Bft) S-SW 194 2 min 0,000 mm 1,1 UV-I 361 W/m 19,0 C 23,5 C 6,4 km/h (2 Bft) 98,00 %
30.07.2018 08:28 23,5 C 26,1 C 24,4 C 75 % 1014,5 hPa 0,0 l/m 2,5 km/h (1 Bft) SW 219 2 min 0,000 mm 1,2 UV-I 366 W/m 18,8 C 23,5 C 4,8 km/h (1 Bft) 95,74 %
30.07.2018 08:30 23,4 C 26,1 C 24,4 C 75 % 1014,4 hPa 0,0 l/m 1,9 km/h (1 Bft) SW 219 2 min 0,000 mm 1,2 UV-I 372 W/m 18,7 C 23,4 C 3,2 km/h (1 Bft) 96,00 %
30.07.2018 08:32 23,5 C 26,1 C 25,0 C 76 % 1014,4 hPa 0,0 l/m 2,3 km/h (1 Bft) SW 219 2 min 0,000 mm 1,2 UV-I 377 W/m 19,0 C 23,5 C 4,8 km/h (1 Bft) 95,74 %
30.07.2018 08:34 23,7 C 26,1 C 25,0 C 74 % 1014,5 hPa 0,0 l/m 2,5 km/h (1 Bft) SW 223 2 min 0,000 mm 1,3 UV-I 378 W/m 18,8 C 23,7 C 4,8 km/h (1 Bft) 97,87 %
30.07.2018 08:36 23,7 C 26,1 C 25,6 C 74 % 1014,5 hPa 0,0 l/m 1,0 km/h (0 Bft) SW 223 2 min 0,000 mm 1,3 UV-I 378 W/m 18,8 C 23,7 C 3,2 km/h (1 Bft) 93,75 %
30.07.2018 08:38 23,7 C 26,1 C 26,1 C 74 % 1014,5 hPa 0,0 l/m 0,4 km/h (0 Bft) SW 223 2 min 0,000 mm 1,3 UV-I 380 W/m 18,8 C 23,7 C 3,2 km/h (1 Bft) 97,87 %
30.07.2018 08:40 23,8 C 26,1 C 27,2 C 73 % 1014,5 hPa 0,0 l/m 1,7 km/h (1 Bft) SW 220 2 min 0,000 mm 1,3 UV-I 391 W/m 18,7 C 23,8 C 3,2 km/h (1 Bft) 97,87 %
30.07.2018 08:42 23,9 C 26,1 C 27,8 C 73 % 1014,6 hPa 0,0 l/m 1,5 km/h (1 Bft) N-NW 342 2 min 0,000 mm 1,4 UV-I 400 W/m 18,8 C 23,9 C 3,2 km/h (1 Bft) 98,00 %
30.07.2018 08:44 24,2 C 26,1 C 28,9 C 72 % 1014,6 hPa 0,0 l/m 1,7 km/h (1 Bft) N-NW 342 2 min 0,000 mm 1,4 UV-I 406 W/m 18,8 C 24,2 C 4,8 km/h (1 Bft) 97,14 %
30.07.2018 08:46 24,2 C 26,1 C 29,4 C 72 % 1014,6 hPa 0,0 l/m 0,5 km/h (0 Bft) N-NW 340 2 min 0,000 mm 1,4 UV-I 411 W/m 18,8 C 24,2 C 3,2 km/h (1 Bft) 97,87 %
30.07.2018 08:48 24,2 C 26,1 C 30,0 C 72 % 1014,6 hPa 0,0 l/m 2,7 km/h (1 Bft) N-NW 340 2 min 0,000 mm 1,5 UV-I 415 W/m 18,8 C 24,2 C 4,8 km/h (1 Bft) 98,00 %
30.07.2018 08:50 24,1 C 26,1 C 30,6 C 72 % 1014,6 hPa 0,0 l/m 2,5 km/h (1 Bft) NW 322 2 min 0,000 mm 1,5 UV-I 417 W/m 18,7 C 24,1 C 4,8 km/h (1 Bft) 97,87 %
30.07.2018 08:52 24,1 C 26,1 C 31,1 C 72 % 1014,6 hPa 0,0 l/m 3,4 km/h (1 Bft) W-NW 302 2 min 0,000 mm 1,5 UV-I 422 W/m 18,7 C 24,1 C 4,8 km/h (1 Bft) 95,74 %
30.07.2018 08:54 24,2 C 26,1 C 31,7 C 71 % 1014,6 hPa 0,0 l/m 2,7 km/h (1 Bft) W-NW 302 2 min 0,000 mm 1,6 UV-I 428 W/m 18,6 C 24,2 C 4,8 km/h (1 Bft) 97,87 %
30.07.2018 08:56 24,2 C 26,1 C 32,2 C 71 % 1014,6 hPa 0,0 l/m 3,2 km/h (1 Bft) W-NW 303 2 min 0,000 mm 1,6 UV-I 433 W/m 18,6 C 24,2 C 4,8 km/h (1 Bft) 100,00 %
30.07.2018 08:58 24,4 C 26,1 C 32,2 C 71 % 1014,6 hPa 0,0 l/m 2,9 km/h (1 Bft) NW 304 2 min 0,000 mm 1,7 UV-I 440 W/m 18,8 C 24,4 C 4,8 km/h (1 Bft) 98,00 %
30.07.2018 09:00 24,5 C 26,1 C 32,8 C 71 % 1014,6 hPa 0,0 l/m 2,4 km/h (1 Bft) NW 323 2 min 0,000 mm 1,7 UV-I 445 W/m 18,9 C 24,5 C 4,8 km/h (1 Bft) 100,00 %
30.07.2018 09:02 24,7 C 26,1 C 32,2 C 71 % 1014,6 hPa 0,0 l/m 3,2 km/h (1 Bft) N-NO 28 2 min 0,229 mm 1,7 UV-I 450 W/m 19,1 C 24,7 C 4,8 km/h (1 Bft) 97,87 %
30.07.2018 09:04 24,7 C 26,1 C 32,8 C 71 % 1014,6 hPa 0,0 l/m 2,7 km/h (1 Bft) NO 46 2 min 0,000 mm 1,8 UV-I 457 W/m 19,1 C 24,7 C 6,4 km/h (2 Bft) 100,00 %
30.07.2018 09:06 24,9 C 26,1 C 32,8 C 71 % 1014,7 hPa 0,0 l/m 6,0 km/h (2 Bft) N 11 2 min 0,000 mm 1,8 UV-I 463 W/m 19,3 C 24,9 C 8,0 km/h (2 Bft) 100,00 %
30.07.2018 09:08 25,1 C 26,1 C 32,8 C 70 % 1014,7 hPa 0,0 l/m 3,3 km/h (1 Bft) N-NO 15 2 min 0,000 mm 1,9 UV-I 470 W/m 19,2 C 25,1 C 6,4 km/h (2 Bft) 95,74 %
30.07.2018 09:10 24,9 C 26,1 C 32,8 C 69 % 1014,7 hPa 0,0 l/m 2,6 km/h (1 Bft) O 80 2 min 0,000 mm 1,9 UV-I 473 W/m 18,8 C 24,9 C 3,2 km/h (1 Bft) 97,87 %
30.07.2018 09:12 24,9 C 26,1 C 33,9 C 70 % 1014,7 hPa 0,0 l/m 2,9 km/h (1 Bft) O 83 2 min 0,000 mm 2,0 UV-I 480 W/m 19,0 C 24,9 C 4,8 km/h (1 Bft) 98,00 %
30.07.2018 09:14 24,8 C 26,1 C 33,9 C 70 % 1014,7 hPa 0,0 l/m 1,6 km/h (1 Bft) O 81 2 min 0,000 mm 2,0 UV-I 485 W/m 18,9 C 24,8 C 3,2 km/h (1 Bft) 97,92 %
30.07.2018 09:16 24,9 C 26,1 C 34,4 C 70 % 1014,7 hPa 0,0 l/m 3,9 km/h (1 Bft) N-NW 346 2 min 0,000 mm 2,1 UV-I 494 W/m 19,0 C 24,9 C 6,4 km/h (2 Bft) 95,74 %
30.07.2018 09:18 25,2 C 26,1 C 33,9 C 70 % 1014,7 hPa 0,0 l/m 4,4 km/h (1 Bft) NO 37 2 min 0,000 mm 2,1 UV-I 499 W/m 19,3 C 25,2 C 6,4 km/h (2 Bft) 97,87 %
30.07.2018 09:20 25,3 C 26,1 C 33,9 C 69 % 1014,7 hPa 0,0 l/m 4,7 km/h (1 Bft) N-NO 28 2 min 0,000 mm 2,1 UV-I 505 W/m 19,2 C 25,3 C 8,0 km/h (2 Bft) 97,87 %
30.07.2018 09:22 25,2 C 26,1 C 33,9 C 68 % 1014,7 hPa 0,0 l/m 2,3 km/h (1 Bft) N 5 2 min 0,000 mm 2,2 UV-I 510 W/m 18,9 C 25,2 C 6,4 km/h (2 Bft) 95,74 %
30.07.2018 09:24 25,1 C 26,1 C 33,9 C 69 % 1014,7 hPa 0,0 l/m 4,0 km/h (1 Bft) NO 36 2 min 0,000 mm 2,2 UV-I 512 W/m 19,0 C 25,1 C 8,0 km/h (2 Bft) 100,00 %
30.07.2018 09:26 25,1 C 26,1 C 33,9 C 69 % 1014,7 hPa 0,0 l/m 2,4 km/h (1 Bft) NO 36 2 min 0,000 mm 2,2 UV-I 516 W/m 19,0 C 25,1 C 4,8 km/h (1 Bft) 95,16 %
30.07.2018 09:28 25,2 C 26,1 C 33,9 C 70 % 1014,7 hPa 0,0 l/m 5,8 km/h (2 Bft) NO 51 2 min 0,000 mm 2,3 UV-I 520 W/m 19,3 C 25,2 C 8,0 km/h (2 Bft) 95,74 %
30.07.2018 09:30 25,3 C 26,1 C 34,4 C 69 % 1014,7 hPa 0,0 l/m 3,2 km/h (1 Bft) O-NO 76 2 min 0,000 mm 2,3 UV-I 523 W/m 19,2 C 25,3 C 6,4 km/h (2 Bft) 97,87 %
30.07.2018 09:32 25,4 C 26,1 C 35,0 C 70 % 1014,7 hPa 0,0 l/m 2,4 km/h (1 Bft) O-NO 61 2 min 0,000 mm 2,4 UV-I 528 W/m 19,5 C 25,4 C 4,8 km/h (1 Bft) 95,74 %
30.07.2018 09:34 25,8 C 26,1 C 35,0 C 71 % 1014,7 hPa 0,0 l/m 7,9 km/h (2 Bft) N-NO 28 2 min 0,000 mm 2,4 UV-I 535 W/m 20,1 C 25,5 C 12,9 km/h (3 Bft) 98,00 %
30.07.2018 09:36 25,9 C 26,1 C 34,4 C 67 % 1014,7 hPa 0,0 l/m 7,1 km/h (2 Bft) N 5 2 min 0,000 mm 2,5 UV-I 540 W/m 19,3 C 25,7 C 11,3 km/h (2 Bft) 97,87 %
30.07.2018 09:38 25,9 C 26,1 C 34,4 C 68 % 1014,7 hPa 0,0 l/m 5,4 km/h (1 Bft) N 355 2 min 0,000 mm 2,5 UV-I 544 W/m 19,5 C 25,9 C 8,0 km/h (2 Bft) 95,74 %
30.07.2018 09:40 25,9 C 26,1 C 34,4 C 68 % 1014,7 hPa 0,0 l/m 4,3 km/h (1 Bft) O-NO 75 2 min 0,000 mm 2,5 UV-I 549 W/m 19,5 C 25,9 C 8,0 km/h (2 Bft) 97,87 %
30.07.2018 09:42 25,8 C 26,1 C 34,4 C 66 % 1014,7 hPa 0,0 l/m 3,3 km/h (1 Bft) O 97 2 min 0,000 mm 2,6 UV-I 554 W/m 19,0 C 25,8 C 4,8 km/h (1 Bft) 97,87 %
30.07.2018 09:44 25,8 C 26,1 C 35,0 C 68 % 1014,8 hPa 0,0 l/m 6,0 km/h (2 Bft) NO 43 2 min 0,000 mm 2,6 UV-I 555 W/m 19,4 C 25,8 C 9,7 km/h (2 Bft) 100,00 %
30.07.2018 09:46 25,9 C 26,1 C 35,0 C 67 % 1014,8 hPa 0,0 l/m 5,6 km/h (1 Bft) NO 36 2 min 0,000 mm 2,7 UV-I 560 W/m 19,3 C 25,9 C 8,0 km/h (2 Bft) 100,00 %
30.07.2018 09:48 26,0 C 26,1 C 35,0 C 67 % 1014,8 hPa 0,0 l/m 6,8 km/h (2 Bft) N-NW 348 2 min 0,000 mm 2,7 UV-I 565 W/m 19,4 C 25,9 C 8,0 km/h (2 Bft) 100,00 %
30.07.2018 09:50 26,2 C 26,1 C 35,6 C 67 % 1014,8 hPa 0,0 l/m 5,0 km/h (1 Bft) N 5 2 min 0,000 mm 2,7 UV-I 569 W/m 19,6 C 26,2 C 6,4 km/h (2 Bft) 97,87 %
30.07.2018 09:52 26,2 C 26,1 C 35,6 C 67 % 1014,9 hPa 0,0 l/m 6,0 km/h (2 Bft) NO 39 2 min 0,000 mm 2,8 UV-I 573 W/m 19,6 C 26,2 C 9,7 km/h (2 Bft) 97,87 %
30.07.2018 09:54 26,2 C 26,1 C 35,6 C 65 % 1014,8 hPa 0,0 l/m 6,5 km/h (2 Bft) N-NO 24 2 min 0,000 mm 2,8 UV-I 586 W/m 19,1 C 26,2 C 9,7 km/h (2 Bft) 100,00 %
30.07.2018 09:56 26,3 C 26,1 C 35,0 C 64 % 1014,8 hPa 0,0 l/m 5,8 km/h (2 Bft) O 79 2 min 0,000 mm 2,9 UV-I 601 W/m 18,9 C 26,3 C 12,9 km/h (3 Bft) 100,00 %
30.07.2018 09:58 26,3 C 26,1 C 35,6 C 65 % 1014,8 hPa 0,0 l/m 5,9 km/h (2 Bft) N-NO 24 2 min 0,000 mm 3,0 UV-I 611 W/m 19,2 C 26,3 C 9,7 km/h (2 Bft) 100,00 %
30.07.2018 10:00 26,3 C 26,1 C 35,6 C 63 % 1014,8 hPa 0,0 l/m 4,2 km/h (1 Bft) N-NO 28 2 min 0,356 mm 3,0 UV-I 612 W/m 18,7 C 26,3 C 8,0 km/h (2 Bft) 95,74 %
30.07.2018 10:02 26,2 C 26,1 C 36,1 C 63 % 1014,8 hPa 0,0 l/m 3,1 km/h (1 Bft) N-NO 20 2 min 0,000 mm 3,0 UV-I 614 W/m 18,6 C 26,2 C 6,4 km/h (2 Bft) 100,00 %
30.07.2018 10:04 26,3 C 26,1 C 35,6 C 65 % 1014,8 hPa 0,0 l/m 6,1 km/h (2 Bft) N-NO 22 2 min 0,000 mm 3,1 UV-I 622 W/m 19,2 C 26,3 C 9,7 km/h (2 Bft) 100,00 %
30.07.2018 10:06 26,4 C 26,1 C 36,1 C 65 % 1014,8 hPa 0,0 l/m 6,7 km/h (2 Bft) N-NO 23 2 min 0,000 mm 3,1 UV-I 641 W/m 19,3 C 26,3 C 9,7 km/h (2 Bft) 100,00 %
30.07.2018 10:08 26,6 C 26,1 C 36,1 C 64 % 1014,8 hPa 0,0 l/m 4,8 km/h (1 Bft) NO 49 2 min 0,000 mm 3,2 UV-I 658 W/m 19,2 C 26,6 C 8,0 km/h (2 Bft) 100,00 %
30.07.2018 10:10 26,7 C 26,1 C 36,7 C 63 % 1014,8 hPa 0,0 l/m 3,6 km/h (1 Bft) NO 34 2 min 0,000 mm 3,2 UV-I 665 W/m 19,1 C 26,7 C 6,4 km/h (2 Bft) 100,00 %
30.07.2018 10:12 26,7 C 26,1 C 36,7 C 63 % 1014,8 hPa 0,0 l/m 3,3 km/h (1 Bft) NO 43 2 min 0,000 mm 3,3 UV-I 665 W/m 19,1 C 26,7 C 6,4 km/h (2 Bft) 100,00 %
30.07.2018 10:14 26,6 C 26,1 C 36,1 C 62 % 1014,8 hPa 0,0 l/m 3,1 km/h (1 Bft) NO 38 2 min 0,000 mm 3,3 UV-I 644 W/m 18,7 C 26,6 C 6,4 km/h (2 Bft) 100,00 %
30.07.2018 10:16 26,4 C 26,1 C 35,6 C 63 % 1014,8 hPa 0,0 l/m 2,8 km/h (1 Bft) S-SW 196 2 min 0,000 mm 3,1 UV-I 555 W/m 18,8 C 26,4 C 4,8 km/h (1 Bft) 100,00 %
30.07.2018 10:18 26,3 C 26,1 C 35,6 C 63 % 1014,8 hPa 0,0 l/m 2,7 km/h (1 Bft) N 11 2 min 0,000 mm 3,1 UV-I 533 W/m 18,7 C 26,3 C 6,4 km/h (2 Bft) 95,74 %
30.07.2018 10:20 26,6 C 26,1 C 36,1 C 65 % 1014,8 hPa 0,0 l/m 5,4 km/h (1 Bft) N-NO 25 2 min 0,000 mm 3,3 UV-I 630 W/m 19,5 C 26,6 C 9,7 km/h (2 Bft) 93,62 %
30.07.2018 10:22 26,8 C 26,1 C 35,0 C 63 % 1014,8 hPa 0,0 l/m 5,5 km/h (1 Bft) N 5 2 min 0,000 mm 3,3 UV-I 568 W/m 19,1 C 26,8 C 9,7 km/h (2 Bft) 97,87 %
30.07.2018 10:24 26,9 C 26,1 C 34,4 C 63 % 1014,8 hPa 0,0 l/m 6,3 km/h (2 Bft) O 84 2 min 0,000 mm 3,2 UV-I 699 W/m 19,2 C 26,9 C 8,0 km/h (2 Bft) 97,92 %
30.07.2018 10:26 26,9 C 26,1 C 34,4 C 62 % 1014,8 hPa 0,0 l/m 6,9 km/h (2 Bft) N 351 0 min 0,000 mm 3,0 UV-I 378 W/m 19,0 C 26,8 C 11,3 km/h (2 Bft) 95,74 %
30.07.2018 10:28 27,0 C 26,1 C 35,6 C 62 % 1014,9 hPa 0,0 l/m 4,9 km/h (1 Bft) N 5 0 min 0,000 mm 3,4 UV-I 378 W/m 19,1 C 27,0 C 11,3 km/h (2 Bft) 98,00 %
30.07.2018 10:30 27,3 C 26,1 C 37,2 C 63 % 1014,9 hPa 0,0 l/m 1,8 km/h (1 Bft) S-SW 213 2 min 0,000 mm 3,6 UV-I 562 W/m 19,6 C 27,3 C 4,8 km/h (1 Bft) 97,87 %
30.07.2018 10:32 27,2 C 26,1 C 38,3 C 62 % 1014,8 hPa 0,0 l/m 2,0 km/h (1 Bft) SW 214 2 min 0,000 mm 3,7 UV-I 754 W/m 19,3 C 27,2 C 3,2 km/h (1 Bft) 97,87 %
30.07.2018 10:34 27,1 C 26,1 C 39,4 C 62 % 1014,9 hPa 0,0 l/m 2,2 km/h (1 Bft) O-SO 123 2 min 0,000 mm 3,7 UV-I 712 W/m 19,2 C 27,1 C 4,8 km/h (1 Bft) 95,74 %
30.07.2018 10:36 27,1 C 26,1 C 38,9 C 63 % 1014,9 hPa 0,0 l/m 2,1 km/h (1 Bft) O-SO 123 2 min 0,000 mm 3,8 UV-I 712 W/m 19,4 C 27,1 C 4,8 km/h (1 Bft) 97,87 %
30.07.2018 10:38 27,0 C 26,1 C 39,4 C 63 % 1014,8 hPa 0,0 l/m 2,9 km/h (1 Bft) NO 52 2 min 0,000 mm 3,8 UV-I 706 W/m 19,3 C 27,0 C 6,4 km/h (2 Bft) 95,74 %
30.07.2018 10:40 27,1 C 26,1 C 38,9 C 61 % 1014,8 hPa 0,0 l/m 1,9 km/h (1 Bft) NW 319 2 min 0,000 mm 3,9 UV-I 711 W/m 18,9 C 27,1 C 4,8 km/h (1 Bft) 97,87 %
30.07.2018 10:42 27,1 C 26,1 C 38,9 C 63 % 1014,9 hPa 0,0 l/m 2,6 km/h (1 Bft) NW 319 2 min 0,000 mm 3,9 UV-I 698 W/m 19,4 C 27,1 C 4,8 km/h (1 Bft) 97,87 %
30.07.2018 10:44 27,3 C 26,1 C 38,9 C 62 % 1014,8 hPa 0,0 l/m 4,6 km/h (1 Bft) NW 315 2 min 0,000 mm 3,9 UV-I 687 W/m 19,4 C 27,3 C 6,4 km/h (2 Bft) 94,74 %
30.07.2018 10:46 27,4 C 26,1 C 38,3 C 60 % 1014,9 hPa 0,0 l/m 4,6 km/h (1 Bft) W-NW 289 2 min 0,000 mm 4,0 UV-I 712 W/m 18,9 C 27,4 C 6,4 km/h (2 Bft) 97,87 %
30.07.2018 10:48 27,2 C 26,1 C 38,3 C 61 % 1014,9 hPa 0,0 l/m 4,3 km/h (1 Bft) W 279 2 min 0,000 mm 4,0 UV-I 713 W/m 19,0 C 27,2 C 6,4 km/h (2 Bft) 97,87 %
30.07.2018 10:50 27,2 C 26,1 C 38,9 C 61 % 1014,9 hPa 0,0 l/m 3,2 km/h (1 Bft) W-NW 283 2 min 0,000 mm 4,1 UV-I 718 W/m 19,0 C 27,2 C 4,8 km/h (1 Bft) 97,87 %
30.07.2018 10:52 27,4 C 26,1 C 38,9 C 62 % 1014,9 hPa 0,0 l/m 1,8 km/h (1 Bft) O-NO 76 2 min 0,000 mm 4,1 UV-I 699 W/m 19,5 C 27,4 C 3,2 km/h (1 Bft) 97,87 %
30.07.2018 10:54 27,7 C 26,1 C 38,9 C 60 % 1014,9 hPa 0,0 l/m 5,9 km/h (2 Bft) W-NW 302 2 min 0,000 mm 4,1 UV-I 712 W/m 19,2 C 27,7 C 9,7 km/h (2 Bft) 91,49 %
30.07.2018 10:56 27,6 C 26,1 C 38,3 C 59 % 1014,9 hPa 0,0 l/m 5,6 km/h (1 Bft) W-SW 257 2 min 0,000 mm 4,2 UV-I 720 W/m 18,8 C 27,6 C 9,7 km/h (2 Bft) 95,74 %
30.07.2018 10:58 27,6 C 26,1 C 38,9 C 61 % 1014,9 hPa 0,0 l/m 5,3 km/h (1 Bft) NW 325 2 min 0,000 mm 4,3 UV-I 724 W/m 19,4 C 27,6 C 6,4 km/h (2 Bft) 97,87 %
30.07.2018 11:00 27,7 C 26,1 C 39,4 C 60 % 1014,9 hPa 0,0 l/m 2,2 km/h (1 Bft) O-NO 57 2 min 0,457 mm 4,3 UV-I 710 W/m 19,2 C 27,7 C 4,8 km/h (1 Bft) 95,74 %
30.07.2018 11:02 27,7 C 26,1 C 39,4 C 58 % 1014,9 hPa 0,0 l/m 1,3 km/h (1 Bft) N-NW 346 2 min 0,000 mm 4,3 UV-I 720 W/m 18,7 C 27,7 C 4,8 km/h (1 Bft) 97,22 %
30.07.2018 11:04 27,7 C 26,1 C 40,0 C 59 % 1014,9 hPa 0,0 l/m 3,3 km/h (1 Bft) N-NW 336 2 min 0,000 mm 4,4 UV-I 731 W/m 18,9 C 27,7 C 6,4 km/h (2 Bft) 98,39 %
30.07.2018 11:06 27,7 C 26,7 C 40,0 C 61 % 1014,9 hPa 0,0 l/m 4,0 km/h (1 Bft) N 355 2 min 0,000 mm 4,4 UV-I 744 W/m 19,5 C 27,7 C 6,4 km/h (2 Bft) 97,87 %
30.07.2018 11:08 27,9 C 26,7 C 40,0 C 60 % 1014,9 hPa 0,0 l/m 4,7 km/h (1 Bft) N 355 2 min 0,000 mm 4,4 UV-I 747 W/m 19,4 C 27,9 C 8,0 km/h (2 Bft) 97,87 %
30.07.2018 11:10 28,1 C 26,1 C 40,0 C 59 % 1014,9 hPa 0,0 l/m 6,1 km/h (2 Bft) NW 315 2 min 0,000 mm 4,5 UV-I 757 W/m 19,3 C 28,1 C 8,0 km/h (2 Bft) 98,00 %
30.07.2018 11:12 28,2 C 26,7 C 39,4 C 57 % 1014,9 hPa 0,0 l/m 4,3 km/h (1 Bft) NW 323 2 min 0,000 mm 4,5 UV-I 758 W/m 18,9 C 28,2 C 8,0 km/h (2 Bft) 97,87 %
30.07.2018 11:14 28,2 C 26,7 C 39,4 C 58 % 1014,9 hPa 0,0 l/m 4,8 km/h (1 Bft) NW 324 2 min 0,000 mm 4,5 UV-I 747 W/m 19,1 C 28,2 C 8,0 km/h (2 Bft) 97,87 %
30.07.2018 11:16 28,1 C 26,7 C 39,4 C 57 % 1014,9 hPa 0,0 l/m 3,6 km/h (1 Bft) W 263 2 min 0,000 mm 4,5 UV-I 747 W/m 18,8 C 28,1 C 6,4 km/h (2 Bft) 95,74 %
30.07.2018 11:18 27,8 C 26,7 C 38,9 C 56 % 1014,9 hPa 0,0 l/m 5,7 km/h (1 Bft) W 273 2 min 0,000 mm 4,6 UV-I 758 W/m 18,2 C 27,8 C 11,3 km/h (2 Bft) 95,74 %
30.07.2018 11:20 27,8 C 26,7 C 39,4 C 56 % 1014,8 hPa 0,0 l/m 3,7 km/h (1 Bft) SW 217 2 min 0,000 mm 4,6 UV-I 762 W/m 18,2 C 27,8 C 9,7 km/h (2 Bft) 97,14 %
30.07.2018 11:22 28,1 C 26,7 C 40,6 C 56 % 1014,8 hPa 0,0 l/m 2,9 km/h (1 Bft) W-SW 241 2 min 0,000 mm 4,7 UV-I 759 W/m 18,5 C 28,1 C 6,4 km/h (2 Bft) 92,00 %
30.07.2018 11:24 28,2 C 26,7 C 40,6 C 56 % 1014,8 hPa 0,0 l/m 0,6 km/h (0 Bft) W-SW 242 2 min 0,000 mm 4,6 UV-I 744 W/m 18,6 C 28,2 C 3,2 km/h (1 Bft) 93,62 %
30.07.2018 11:26 28,2 C 26,7 C 38,9 C 58 % 1014,8 hPa 0,0 l/m 5,0 km/h (1 Bft) N-NO 20 2 min 0,000 mm 4,4 UV-I 632 W/m 19,1 C 28,2 C 8,0 km/h (2 Bft) 95,74 %
30.07.2018 11:28 28,4 C 26,7 C 38,9 C 57 % 1014,8 hPa 0,0 l/m 6,6 km/h (2 Bft) N 9 2 min 0,000 mm 4,6 UV-I 612 W/m 19,0 C 28,4 C 8,0 km/h (2 Bft) 95,74 %
30.07.2018 11:30 28,6 C 26,7 C 38,9 C 58 % 1014,8 hPa 0,0 l/m 6,6 km/h (2 Bft) NO 35 2 min 0,000 mm 4,8 UV-I 769 W/m 19,5 C 28,6 C 8,0 km/h (2 Bft) 96,00 %
30.07.2018 11:32 28,6 C 26,7 C 38,9 C 56 % 1014,8 hPa 0,0 l/m 5,4 km/h (1 Bft) NO 34 2 min 0,000 mm 4,9 UV-I 774 W/m 18,9 C 28,6 C 9,7 km/h (2 Bft) 95,74 %
30.07.2018 11:34 28,6 C 26,7 C 38,9 C 58 % 1014,8 hPa 0,0 l/m 8,0 km/h (2 Bft) N-NO 15 2 min 0,000 mm 4,8 UV-I 744 W/m 19,5 C 28,4 C 12,9 km/h (3 Bft) 95,74 %
30.07.2018 11:36 28,8 C 26,7 C 38,9 C 58 % 1014,8 hPa 0,0 l/m 8,2 km/h (2 Bft) NO 56 2 min 0,000 mm 4,7 UV-I 719 W/m 19,7 C 28,6 C 12,9 km/h (3 Bft) 98,00 %
30.07.2018 11:38 28,8 C 26,7 C 39,4 C 58 % 1014,8 hPa 0,0 l/m 8,6 km/h (2 Bft) N-NO 28 2 min 0,000 mm 4,9 UV-I 761 W/m 19,7 C 28,5 C 14,5 km/h (3 Bft) 97,22 %
30.07.2018 11:40 28,9 C 26,7 C 38,9 C 54 % 1014,8 hPa 0,0 l/m 8,8 km/h (2 Bft) NO 55 2 min 0,000 mm 5,0 UV-I 781 W/m 18,6 C 28,6 C 14,5 km/h (3 Bft) 98,08 %
30.07.2018 11:42 28,9 C 26,7 C 38,9 C 55 % 1014,8 hPa 0,0 l/m 7,7 km/h (2 Bft) NO 34 2 min 0,000 mm 5,0 UV-I 779 W/m 18,9 C 28,7 C 12,9 km/h (3 Bft) 95,83 %
30.07.2018 11:44 29,1 C 26,7 C 38,9 C 53 % 1014,8 hPa 0,0 l/m 6,9 km/h (2 Bft) N-NO 30 2 min 0,000 mm 5,1 UV-I 778 W/m 18,5 C 29,0 C 9,7 km/h (2 Bft) 97,87 %
30.07.2018 11:46 29,1 C 26,7 C 39,4 C 53 % 1014,8 hPa 0,0 l/m 5,8 km/h (2 Bft) N-NO 22 2 min 0,000 mm 5,1 UV-I 775 W/m 18,5 C 29,1 C 9,7 km/h (2 Bft) 97,87 %
30.07.2018 11:48 29,0 C 26,7 C 39,4 C 54 % 1014,8 hPa 0,0 l/m 3,9 km/h (1 Bft) NO 40 2 min 0,000 mm 5,1 UV-I 776 W/m 18,7 C 29,0 C 8,0 km/h (2 Bft) 97,87 %
30.07.2018 11:50 28,9 C 26,7 C 40,0 C 50 % 1014,7 hPa 0,0 l/m 2,6 km/h (1 Bft) NW 326 2 min 0,000 mm 5,2 UV-I 777 W/m 17,4 C 28,9 C 6,4 km/h (2 Bft) 97,87 %
30.07.2018 11:52 28,7 C 26,7 C 40,0 C 54 % 1014,7 hPa 0,0 l/m 2,5 km/h (1 Bft) N-NO 28 2 min 0,000 mm 5,2 UV-I 780 W/m 18,5 C 28,7 C 6,4 km/h (2 Bft) 97,87 %
30.07.2018 11:54 28,9 C 26,7 C 40,0 C 56 % 1014,7 hPa 0,0 l/m 9,1 km/h (2 Bft) NO 38 2 min 0,000 mm 5,3 UV-I 781 W/m 19,2 C 28,6 C 12,9 km/h (3 Bft) 96,00 %
30.07.2018 11:56 29,2 C 26,7 C 40,0 C 55 % 1014,7 hPa 0,0 l/m 8,3 km/h (2 Bft) N 355 2 min 0,000 mm 5,3 UV-I 783 W/m 19,2 C 29,0 C 14,5 km/h (3 Bft) 97,87 %
30.07.2018 11:58 29,2 C 26,7 C 39,4 C 53 % 1014,6 hPa 0,0 l/m 5,9 km/h (2 Bft) N-NO 17 2 min 0,000 mm 5,3 UV-I 762 W/m 18,6 C 29,2 C 8,0 km/h (2 Bft) 95,74 %
30.07.2018 12:00 28,9 C 26,7 C 39,4 C 53 % 1014,7 hPa 0,0 l/m 3,6 km/h (1 Bft) W-NW 286 2 min 0,533 mm 5,4 UV-I 786 W/m 18,3 C 28,9 C 4,8 km/h (1 Bft) 97,87 %
30.07.2018 12:02 28,8 C 26,7 C 40,0 C 55 % 1014,6 hPa 0,0 l/m 4,1 km/h (1 Bft) N-NO 12 2 min 0,000 mm 5,4 UV-I 793 W/m 18,8 C 28,8 C 8,0 km/h (2 Bft) 97,87 %
30.07.2018 12:04 28,9 C 26,7 C 40,6 C 55 % 1014,6 hPa 0,0 l/m 4,2 km/h (1 Bft) N 5 2 min 0,000 mm 5,4 UV-I 780 W/m 18,9 C 28,9 C 6,4 km/h (2 Bft) 97,87 %
30.07.2018 12:06 29,1 C 26,7 C 40,6 C 53 % 1014,6 hPa 0,0 l/m 3,5 km/h (1 Bft) O-SO 116 2 min 0,000 mm 5,4 UV-I 783 W/m 18,5 C 29,1 C 6,4 km/h (2 Bft) 94,29 %
30.07.2018 12:08 29,1 C 26,7 C 41,7 C 55 % 1014,7 hPa 0,0 l/m 3,2 km/h (1 Bft) SO 126 2 min 0,000 mm 5,4 UV-I 786 W/m 19,1 C 29,1 C 6,4 km/h (2 Bft) 98,00 %
30.07.2018 12:10 28,9 C 26,7 C 41,7 C 53 % 1014,6 hPa 0,0 l/m 3,6 km/h (1 Bft) N-NW 347 2 min 0,000 mm 5,4 UV-I 796 W/m 18,3 C 28,9 C 6,4 km/h (2 Bft) 98,00 %
30.07.2018 12:12 28,9 C 26,7 C 41,1 C 55 % 1014,6 hPa 0,0 l/m 7,5 km/h (2 Bft) N-NO 14 2 min 0,000 mm 5,5 UV-I 798 W/m 18,9 C 28,8 C 12,9 km/h (3 Bft) 100,00 %
30.07.2018 12:14 28,9 C 26,7 C 40,6 C 53 % 1014,7 hPa 0,0 l/m 3,8 km/h (1 Bft) N-NW 343 2 min 0,000 mm 5,4 UV-I 801 W/m 18,3 C 28,9 C 6,4 km/h (2 Bft) 97,87 %
30.07.2018 12:16 28,9 C 26,7 C 41,1 C 52 % 1014,6 hPa 0,0 l/m 2,7 km/h (1 Bft) SW 215 2 min 0,000 mm 5,6 UV-I 792 W/m 18,0 C 28,9 C 4,8 km/h (1 Bft) 100,00 %
30.07.2018 12:18 28,8 C 26,7 C 40,6 C 53 % 1014,6 hPa 0,0 l/m 1,3 km/h (1 Bft) SW 215 2 min 0,000 mm 5,6 UV-I 809 W/m 18,2 C 28,8 C 3,2 km/h (1 Bft) 95,74 %
30.07.2018 12:20 28,9 C 26,7 C 41,7 C 52 % 1014,6 hPa 0,0 l/m 2,8 km/h (1 Bft) O-SO 105 2 min 0,000 mm 5,6 UV-I 809 W/m 18,0 C 28,9 C 6,4 km/h (2 Bft) 100,00 %
30.07.2018 12:22 29,2 C 26,7 C 42,2 C 55 % 1014,6 hPa 0,0 l/m 4,6 km/h (1 Bft) O-NO 61 2 min 0,000 mm 5,7 UV-I 811 W/m 19,2 C 29,2 C 6,4 km/h (2 Bft) 100,00 %
30.07.2018 12:24 29,4 C 26,7 C 42,2 C 53 % 1014,6 hPa 0,0 l/m 4,3 km/h (1 Bft) O 93 2 min 0,000 mm 5,7 UV-I 810 W/m 18,8 C 29,4 C 6,4 km/h (2 Bft) 100,00 %
30.07.2018 12:26 29,4 C 26,7 C 41,7 C 52 % 1014,6 hPa 0,0 l/m 2,4 km/h (1 Bft) O 93 2 min 0,000 mm 5,7 UV-I 810 W/m 18,5 C 29,4 C 4,8 km/h (1 Bft) 97,87 %
30.07.2018 12:28 29,6 C 26,7 C 42,2 C 52 % 1014,5 hPa 0,0 l/m 3,7 km/h (1 Bft) O 92 2 min 0,000 mm 5,7 UV-I 809 W/m 18,7 C 29,6 C 8,0 km/h (2 Bft) 97,87 %
30.07.2018 12:30 29,7 C 26,7 C 41,7 C 51 % 1014,5 hPa 0,0 l/m 1,9 km/h (1 Bft) O 90 2 min 0,000 mm 5,7 UV-I 807 W/m 18,5 C 29,7 C 4,8 km/h (1 Bft) 97,87 %
30.07.2018 12:32 29,6 C 26,7 C 41,7 C 48 % 1014,5 hPa 0,0 l/m 2,5 km/h (1 Bft) W 259 2 min 0,000 mm 5,7 UV-I 803 W/m 17,4 C 29,6 C 6,4 km/h (2 Bft) 93,62 %
30.07.2018 12:34 29,6 C 26,7 C 42,2 C 51 % 1014,5 hPa 0,0 l/m 3,1 km/h (1 Bft) W 259 2 min 0,000 mm 5,7 UV-I 807 W/m 18,4 C 29,6 C 6,4 km/h (2 Bft) 97,87 %
30.07.2018 12:36 29,6 C 26,7 C 41,7 C 50 % 1014,5 hPa 0,0 l/m 3,1 km/h (1 Bft) O-NO 61 2 min 0,000 mm 5,8 UV-I 815 W/m 18,1 C 29,6 C 9,7 km/h (2 Bft) 93,62 %
30.07.2018 12:38 29,8 C 26,7 C 41,7 C 49 % 1014,5 hPa 0,0 l/m 7,2 km/h (2 Bft) O 90 2 min 0,000 mm 5,8 UV-I 822 W/m 17,9 C 29,7 C 14,5 km/h (3 Bft) 95,74 %
30.07.2018 12:40 29,9 C 26,7 C 42,2 C 53 % 1014,5 hPa 0,0 l/m 5,3 km/h (1 Bft) O-NO 65 2 min 0,000 mm 5,9 UV-I 827 W/m 19,3 C 29,9 C 8,0 km/h (2 Bft) 95,74 %
30.07.2018 12:42 29,9 C 26,7 C 42,2 C 49 % 1014,5 hPa 0,0 l/m 3,5 km/h (1 Bft) SO 138 2 min 0,000 mm 5,8 UV-I 823 W/m 18,0 C 29,9 C 8,0 km/h (2 Bft) 97,87 %
30.07.2018 12:44 29,9 C 26,7 C 42,8 C 52 % 1014,4 hPa 0,0 l/m 7,5 km/h (2 Bft) O 95 2 min 0,000 mm 5,8 UV-I 823 W/m 19,0 C 29,8 C 11,3 km/h (2 Bft) 95,74 %
30.07.2018 12:46 30,2 C 26,7 C 42,2 C 50 % 1014,4 hPa 0,0 l/m 7,9 km/h (2 Bft) NO 53 2 min 0,000 mm 5,8 UV-I 822 W/m 18,6 C 30,1 C 11,3 km/h (2 Bft) 96,00 %
30.07.2018 12:48 30,4 C 26,7 C 42,2 C 48 % 1014,4 hPa 0,0 l/m 7,9 km/h (2 Bft) NW 313 2 min 0,000 mm 5,9 UV-I 822 W/m 18,1 C 30,3 C 12,9 km/h (3 Bft) 94,74 %
30.07.2018 12:50 30,2 C 26,7 C 41,1 C 47 % 1014,4 hPa 0,0 l/m 4,1 km/h (1 Bft) O-NO 67 2 min 0,000 mm 5,9 UV-I 821 W/m 17,6 C 30,2 C 8,0 km/h (2 Bft) 95,74 %
30.07.2018 12:52 30,0 C 26,7 C 41,7 C 49 % 1014,3 hPa 0,0 l/m 3,4 km/h (1 Bft) O 94 2 min 0,000 mm 5,9 UV-I 819 W/m 18,1 C 30,0 C 6,4 km/h (2 Bft) 95,74 %
30.07.2018 12:54 29,9 C 26,7 C 41,7 C 49 % 1014,3 hPa 0,0 l/m 7,0 km/h (2 Bft) O-NO 68 2 min 0,000 mm 5,9 UV-I 825 W/m 18,0 C 29,8 C 12,9 km/h (3 Bft) 93,62 %
30.07.2018 12:56 29,8 C 26,7 C 41,7 C 49 % 1014,3 hPa 0,0 l/m 4,7 km/h (1 Bft) SO 129 2 min 0,000 mm 5,9 UV-I 826 W/m 17,9 C 29,8 C 9,7 km/h (2 Bft) 96,00 %
30.07.2018 12:58 29,7 C 26,7 C 42,2 C 48 % 1014,3 hPa 0,0 l/m 6,2 km/h (2 Bft) O-NO 57 2 min 0,000 mm 5,9 UV-I 833 W/m 17,5 C 29,7 C 11,3 km/h (2 Bft) 95,83 %
30.07.2018 13:00 29,8 C 26,7 C 42,2 C 49 % 1014,3 hPa 0,0 l/m 4,8 km/h (1 Bft) O-SO 119 2 min 0,584 mm 5,9 UV-I 839 W/m 17,9 C 29,8 C 11,3 km/h (2 Bft) 95,74 %
30.07.2018 13:02 29,8 C 26,7 C 42,8 C 49 % 1014,3 hPa 0,0 l/m 2,3 km/h (1 Bft) O-NO 63 2 min 0,000 mm 6,0 UV-I 840 W/m 17,9 C 29,8 C 8,0 km/h (2 Bft) 98,00 %
30.07.2018 13:04 30,1 C 26,7 C 42,8 C 49 % 1014,2 hPa 0,0 l/m 7,7 km/h (2 Bft) NO 38 2 min 0,000 mm 6,0 UV-I 838 W/m 18,2 C 30,0 C 11,3 km/h (2 Bft) 97,87 %
30.07.2018 13:06 30,2 C 27,2 C 41,7 C 48 % 1014,2 hPa 0,0 l/m 4,5 km/h (1 Bft) N 355 2 min 0,000 mm 6,0 UV-I 816 W/m 17,9 C 30,2 C 6,4 km/h (2 Bft) 97,37 %
30.07.2018 13:08 30,2 C 27,2 C 42,8 C 48 % 1014,2 hPa 0,0 l/m 5,1 km/h (1 Bft) O-NO 71 2 min 0,000 mm 6,0 UV-I 826 W/m 17,9 C 30,2 C 11,3 km/h (2 Bft) 97,87 %
30.07.2018 13:10 30,3 C 27,2 C 42,8 C 48 % 1014,2 hPa 0,0 l/m 6,3 km/h (2 Bft) S-SO 168 2 min 0,000 mm 6,0 UV-I 828 W/m 18,0 C 30,3 C 11,3 km/h (2 Bft) 95,74 %
30.07.2018 13:12 30,3 C 27,2 C 43,3 C 46 % 1014,2 hPa 0,0 l/m 5,8 km/h (2 Bft) O-NO 62 2 min 0,000 mm 5,9 UV-I 824 W/m 17,4 C 30,3 C 8,0 km/h (2 Bft) 94,00 %
30.07.2018 13:14 30,5 C 27,2 C 43,9 C 48 % 1014,1 hPa 0,0 l/m 4,2 km/h (1 Bft) NO 51 2 min 0,000 mm 6,0 UV-I 819 W/m 18,2 C 30,5 C 8,0 km/h (2 Bft) 95,74 %
30.07.2018 13:16 30,6 C 27,2 C 43,3 C 46 % 1014,1 hPa 0,0 l/m 7,1 km/h (2 Bft) O-NO 66 2 min 0,000 mm 5,9 UV-I 822 W/m 17,6 C 30,5 C 9,7 km/h (2 Bft) 97,87 %
30.07.2018 13:18 30,6 C 27,2 C 43,3 C 44 % 1014,1 hPa 0,0 l/m 4,3 km/h (1 Bft) O-NO 63 2 min 0,000 mm 5,9 UV-I 821 W/m 16,9 C 30,6 C 6,4 km/h (2 Bft) 97,87 %
30.07.2018 13:20 30,6 C 27,2 C 43,3 C 44 % 1014,1 hPa 0,0 l/m 3,8 km/h (1 Bft) O-NO 68 2 min 0,000 mm 5,9 UV-I 823 W/m 16,9 C 30,6 C 12,9 km/h (3 Bft) 97,87 %
30.07.2018 13:22 30,6 C 27,2 C 41,7 C 44 % 1014,0 hPa 0,0 l/m 7,4 km/h (2 Bft) O-NO 78 2 min 0,000 mm 5,8 UV-I 809 W/m 16,9 C 30,5 C 11,3 km/h (2 Bft) 100,00 %
30.07.2018 13:24 30,6 C 27,2 C 41,7 C 43 % 1014,0 hPa 0,0 l/m 3,3 km/h (1 Bft) NO 44 2 min 0,000 mm 5,7 UV-I 803 W/m 16,6 C 30,6 C 8,0 km/h (2 Bft) 94,74 %
30.07.2018 13:26 30,4 C 27,2 C 42,2 C 44 % 1014,0 hPa 0,0 l/m 4,2 km/h (1 Bft) N-NO 29 2 min 0,000 mm 5,7 UV-I 818 W/m 16,7 C 30,4 C 6,4 km/h (2 Bft) 100,00 %
30.07.2018 13:28 30,3 C 27,2 C 42,2 C 45 % 1014,0 hPa 0,0 l/m 3,0 km/h (1 Bft) N-NO 25 2 min 0,000 mm 5,8 UV-I 815 W/m 17,0 C 30,3 C 4,8 km/h (1 Bft) 97,87 %
30.07.2018 13:30 30,4 C 27,2 C 41,7 C 46 % 1014,0 hPa 0,0 l/m 6,7 km/h (2 Bft) NO 34 2 min 0,000 mm 5,8 UV-I 815 W/m 17,5 C 30,4 C 11,3 km/h (2 Bft) 100,00 %
30.07.2018 13:32 30,4 C 27,2 C 42,2 C 44 % 1014,0 hPa 0,0 l/m 1,4 km/h (1 Bft) NO 36 2 min 0,000 mm 5,8 UV-I 804 W/m 16,7 C 30,4 C 4,8 km/h (1 Bft) 100,00 %
30.07.2018 13:34 30,5 C 27,2 C 42,8 C 49 % 1013,9 hPa 0,0 l/m 2,2 km/h (1 Bft) NO 54 2 min 0,000 mm 5,8 UV-I 812 W/m 18,6 C 30,5 C 8,0 km/h (2 Bft) 100,00 %
30.07.2018 13:36 30,8 C 27,2 C 41,7 C 45 % 1014,0 hPa 0,0 l/m 11,6 km/h (2 Bft) O-NO 74 2 min 0,000 mm 5,9 UV-I 833 W/m 17,5 C 30,5 C 16,1 km/h (3 Bft) 100,00 %
30.07.2018 13:38 30,9 C 27,2 C 41,7 C 46 % 1013,9 hPa 0,0 l/m 10,2 km/h (2 Bft) O-NO 66 2 min 0,000 mm 6,0 UV-I 848 W/m 17,9 C 30,7 C 16,1 km/h (3 Bft) 100,00 %
30.07.2018 13:40 30,8 C 27,2 C 41,7 C 43 % 1013,9 hPa 0,0 l/m 4,7 km/h (1 Bft) N-NO 33 2 min 0,000 mm 6,0 UV-I 853 W/m 16,7 C 30,8 C 8,0 km/h (2 Bft) 95,74 %
30.07.2018 13:42 30,9 C 27,2 C 41,7 C 45 % 1013,9 hPa 0,0 l/m 10,8 km/h (2 Bft) O-NO 57 2 min 0,000 mm 6,0 UV-I 846 W/m 17,6 C 30,6 C 17,7 km/h (3 Bft) 98,00 %
30.07.2018 13:44 31,2 C 27,2 C 42,8 C 47 % 1013,9 hPa 0,0 l/m 8,0 km/h (2 Bft) NO 34 2 min 0,000 mm 6,0 UV-I 849 W/m 18,5 C 31,1 C 11,3 km/h (2 Bft) 100,00 %
30.07.2018 13:46 31,2 C 27,2 C 41,7 C 44 % 1013,9 hPa 0,0 l/m 7,1 km/h (2 Bft) NO 53 2 min 0,000 mm 6,0 UV-I 862 W/m 17,5 C 31,2 C 11,3 km/h (2 Bft) 100,00 %
30.07.2018 13:48 31,1 C 27,2 C 41,1 C 41 % 1013,8 hPa 0,0 l/m 3,0 km/h (1 Bft) NO 45 2 min 0,000 mm 5,9 UV-I 868 W/m 16,3 C 31,1 C 4,8 km/h (1 Bft) 97,87 %
30.07.2018 13:50 30,8 C 27,2 C 41,7 C 41 % 1013,8 hPa 0,0 l/m 4,7 km/h (1 Bft) W 264 2 min 0,000 mm 5,9 UV-I 872 W/m 16,0 C 30,8 C 8,0 km/h (2 Bft) 97,87 %
30.07.2018 13:52 30,8 C 27,2 C 42,8 C 42 % 1013,8 hPa 0,0 l/m 2,8 km/h (1 Bft) O 82 2 min 0,000 mm 5,9 UV-I 859 W/m 16,4 C 30,8 C 4,8 km/h (1 Bft) 97,37 %
30.07.2018 13:54 31,0 C 27,2 C 42,8 C 43 % 1013,8 hPa 0,0 l/m 6,8 km/h (2 Bft) O 93 2 min 0,000 mm 5,9 UV-I 856 W/m 16,9 C 31,0 C 12,9 km/h (3 Bft) 97,87 %
30.07.2018 13:56 31,1 C 27,2 C 42,8 C 42 % 1013,8 hPa 0,0 l/m 5,8 km/h (2 Bft) N 355 2 min 0,000 mm 5,8 UV-I 845 W/m 16,6 C 31,1 C 8,0 km/h (2 Bft) 100,00 %
30.07.2018 13:58 31,1 C 27,2 C 43,3 C 43 % 1013,7 hPa 0,0 l/m 3,8 km/h (1 Bft) N 355 2 min 0,000 mm 5,7 UV-I 845 W/m 17,0 C 31,1 C 4,8 km/h (1 Bft) 100,00 %
30.07.2018 14:00 31,2 C 27,2 C 43,9 C 42 % 1013,7 hPa 0,0 l/m 2,4 km/h (1 Bft) W 273 2 min 0,610 mm 5,8 UV-I 857 W/m 16,7 C 31,2 C 4,8 km/h (1 Bft) 98,11 %
30.07.2018 14:02 31,2 C 27,2 C 43,3 C 43 % 1013,7 hPa 0,0 l/m 3,8 km/h (1 Bft) O-NO 57 2 min 0,000 mm 5,8 UV-I 874 W/m 17,1 C 31,2 C 6,4 km/h (2 Bft) 97,87 %
30.07.2018 14:04 31,2 C 27,2 C 42,8 C 43 % 1013,7 hPa 0,0 l/m 3,7 km/h (1 Bft) NO 36 2 min 0,000 mm 5,9 UV-I 883 W/m 17,1 C 31,2 C 6,4 km/h (2 Bft) 97,87 %
30.07.2018 14:06 31,1 C 27,2 C 42,2 C 42 % 1013,7 hPa 0,0 l/m 1,7 km/h (1 Bft) O-SO 117 2 min 0,000 mm 5,9 UV-I 887 W/m 16,6 C 31,1 C 4,8 km/h (1 Bft) 97,22 %
30.07.2018 14:08 31,3 C 27,2 C 43,3 C 43 % 1013,7 hPa 0,0 l/m 4,5 km/h (1 Bft) N-NO 28 2 min 0,000 mm 5,8 UV-I 885 W/m 17,2 C 31,3 C 8,0 km/h (2 Bft) 98,08 %
30.07.2018 14:10 31,5 C 27,2 C 43,3 C 43 % 1013,7 hPa 0,0 l/m 3,9 km/h (1 Bft) NO 46 2 min 0,000 mm 5,7 UV-I 870 W/m 17,4 C 31,5 C 4,8 km/h (1 Bft) 97,92 %
30.07.2018 14:12 31,4 C 27,2 C 43,9 C 40 % 1013,7 hPa 0,0 l/m 2,5 km/h (1 Bft) O-NO 74 2 min 0,000 mm 5,7 UV-I 857 W/m 16,1 C 31,4 C 4,8 km/h (1 Bft) 97,87 %
30.07.2018 14:14 31,4 C 27,2 C 44,4 C 44 % 1013,7 hPa 0,0 l/m 2,7 km/h (1 Bft) SO 136 2 min 0,000 mm 5,6 UV-I 871 W/m 17,6 C 31,4 C 4,8 km/h (1 Bft) 97,87 %
30.07.2018 14:16 31,4 C 27,2 C 44,4 C 43 % 1013,7 hPa 0,0 l/m 5,2 km/h (1 Bft) NO 42 2 min 0,000 mm 5,4 UV-I 867 W/m 17,3 C 31,4 C 11,3 km/h (2 Bft) 97,87 %
30.07.2018 14:18 31,6 C 27,2 C 44,4 C 43 % 1013,7 hPa 0,0 l/m 4,8 km/h (1 Bft) O-NO 70 2 min 0,000 mm 5,4 UV-I 878 W/m 17,5 C 31,6 C 8,0 km/h (2 Bft) 96,00 %
30.07.2018 14:20 31,6 C 27,2 C 42,8 C 43 % 1013,6 hPa 0,0 l/m 7,1 km/h (2 Bft) N 5 2 min 0,000 mm 5,4 UV-I 878 W/m 17,5 C 31,6 C 11,3 km/h (2 Bft) 100,00 %
30.07.2018 14:22 31,7 C 27,2 C 43,3 C 41 % 1013,6 hPa 0,0 l/m 6,0 km/h (2 Bft) N 11 2 min 0,000 mm 5,4 UV-I 848 W/m 16,8 C 31,7 C 11,3 km/h (2 Bft) 94,74 %
30.07.2018 14:24 31,7 C 27,2 C 43,9 C 40 % 1013,6 hPa 0,0 l/m 1,3 km/h (1 Bft) NW 325 2 min 0,000 mm 5,3 UV-I 859 W/m 16,4 C 31,7 C 3,2 km/h (1 Bft) 95,74 %
30.07.2018 14:26 31,4 C 27,2 C 43,9 C 40 % 1013,6 hPa 0,0 l/m 3,7 km/h (1 Bft) O-SO 117 2 min 0,000 mm 5,3 UV-I 872 W/m 16,1 C 31,4 C 6,4 km/h (2 Bft) 95,74 %
30.07.2018 14:28 31,4 C 27,2 C 43,3 C 41 % 1013,5 hPa 0,0 l/m 5,3 km/h (1 Bft) S-SW 204 2 min 0,000 mm 5,4 UV-I 885 W/m 16,5 C 31,4 C 12,9 km/h (3 Bft) 97,87 %
30.07.2018 14:30 31,6 C 27,2 C 43,9 C 41 % 1013,6 hPa 0,0 l/m 7,9 km/h (2 Bft) W-SW 257 2 min 0,000 mm 5,4 UV-I 872 W/m 16,7 C 31,5 C 12,9 km/h (3 Bft) 98,11 %
30.07.2018 14:32 31,7 C 27,2 C 43,9 C 40 % 1013,5 hPa 0,0 l/m 5,5 km/h (1 Bft) W-SW 250 2 min 0,000 mm 5,5 UV-I 878 W/m 16,4 C 31,7 C 9,7 km/h (2 Bft) 97,87 %
30.07.2018 14:34 31,8 C 27,2 C 43,9 C 40 % 1013,6 hPa 0,0 l/m 4,3 km/h (1 Bft) S-SW 202 2 min 0,000 mm 5,5 UV-I 868 W/m 16,5 C 31,8 C 8,0 km/h (2 Bft) 93,62 %
30.07.2018 14:36 31,6 C 27,2 C 43,9 C 40 % 1013,6 hPa 0,0 l/m 4,7 km/h (1 Bft) S-SW 202 2 min 0,000 mm 5,4 UV-I 866 W/m 16,3 C 31,6 C 8,0 km/h (2 Bft) 93,62 %
30.07.2018 14:38 31,4 C 27,2 C 44,4 C 39 % 1013,6 hPa 0,0 l/m 2,6 km/h (1 Bft) SO 132 2 min 0,000 mm 5,4 UV-I 877 W/m 15,7 C 31,4 C 4,8 km/h (1 Bft) 93,62 %
30.07.2018 14:40 31,5 C 27,2 C 43,9 C 44 % 1013,6 hPa 0,0 l/m 4,6 km/h (1 Bft) N-NO 14 2 min 0,000 mm 5,1 UV-I 861 W/m 17,7 C 31,5 C 8,0 km/h (2 Bft) 94,74 %
30.07.2018 14:42 31,8 C 27,2 C 42,8 C 43 % 1013,6 hPa 0,0 l/m 7,6 km/h (2 Bft) O-SO 117 2 min 0,000 mm 5,0 UV-I 842 W/m 17,6 C 31,8 C 12,9 km/h (3 Bft) 93,75 %
30.07.2018 14:44 31,9 C 27,2 C 42,8 C 45 % 1013,6 hPa 0,0 l/m 8,1 km/h (2 Bft) O-NO 72 2 min 0,000 mm 4,9 UV-I 840 W/m 18,5 C 31,8 C 14,5 km/h (3 Bft) 97,87 %
30.07.2018 14:46 32,0 C 27,2 C 42,2 C 40 % 1013,6 hPa 0,0 l/m 7,9 km/h (2 Bft) N-NO 19 2 min 0,000 mm 4,7 UV-I 828 W/m 16,7 C 32,0 C 12,9 km/h (3 Bft) 95,74 %
30.07.2018 14:48 31,9 C 27,8 C 42,8 C 40 % 1013,6 hPa 0,0 l/m 4,4 km/h (1 Bft) S-SO 156 2 min 0,000 mm 4,6 UV-I 852 W/m 16,6 C 31,9 C 8,0 km/h (2 Bft) 92,00 %
30.07.2018 14:50 31,9 C 27,2 C 42,8 C 41 % 1013,7 hPa 0,0 l/m 5,0 km/h (1 Bft) O-NO 71 2 min 0,000 mm 4,2 UV-I 828 W/m 17,0 C 31,9 C 9,7 km/h (2 Bft) 95,74 %
30.07.2018 14:52 31,9 C 27,8 C 42,8 C 40 % 1013,6 hPa 0,0 l/m 8,2 km/h (2 Bft) O 98 2 min 0,000 mm 4,0 UV-I 824 W/m 16,6 C 31,8 C 14,5 km/h (3 Bft) 95,74 %
30.07.2018 14:54 31,7 C 27,2 C 40,6 C 40 % 1013,6 hPa 0,0 l/m 6,4 km/h (2 Bft) O-SO 121 2 min 0,000 mm 3,1 UV-I 776 W/m 16,4 C 31,7 C 12,9 km/h (3 Bft) 91,49 %
30.07.2018 14:56 31,3 C 27,8 C 40,0 C 39 % 1013,6 hPa 0,0 l/m 4,0 km/h (1 Bft) SO 132 0 min 0,000 mm 3,4 UV-I 262 W/m 15,7 C 31,3 C 8,0 km/h (2 Bft) 93,62 %
30.07.2018 14:58 31,2 C 27,8 C 40,6 C 41 % 1013,5 hPa 0,0 l/m 4,3 km/h (1 Bft) O-SO 111 2 min 0,000 mm 4,0 UV-I 681 W/m 16,4 C 31,2 C 9,7 km/h (2 Bft) 95,74 %
30.07.2018 15:00 31,2 C 27,8 C 41,1 C 44 % 1013,6 hPa 0,0 l/m 6,5 km/h (2 Bft) N-NO 16 2 min 0,000 mm 3,9 UV-I 673 W/m 17,5 C 31,2 C 12,9 km/h (3 Bft) 97,87 %
30.07.2018 15:02 31,3 C 27,8 C 39,4 C 43 % 1013,6 hPa 0,0 l/m 6,6 km/h (2 Bft) N 9 2 min 0,610 mm 3,7 UV-I 780 W/m 17,2 C 31,3 C 11,3 km/h (2 Bft) 93,62 %
30.07.2018 15:04 31,3 C 27,8 C 38,3 C 42 % 1013,6 hPa 0,0 l/m 6,6 km/h (2 Bft) N-NO 30 2 min 0,000 mm 3,5 UV-I 780 W/m 16,8 C 31,3 C 12,9 km/h (3 Bft) 95,74 %
30.07.2018 15:06 31,2 C 27,8 C 37,8 C 43 % 1013,5 hPa 0,0 l/m 7,3 km/h (2 Bft) NO 53 2 min 0,000 mm 3,5 UV-I 780 W/m 17,1 C 31,1 C 11,3 km/h (2 Bft) 93,62 %
30.07.2018 15:08 31,4 C 27,8 C 38,9 C 43 % 1013,5 hPa 0,0 l/m 7,0 km/h (2 Bft) N-NO 18 2 min 0,000 mm 3,9 UV-I 707 W/m 17,3 C 31,4 C 8,0 km/h (2 Bft) 94,00 %
30.07.2018 15:10 31,4 C 27,8 C 37,8 C 43 % 1013,5 hPa 0,0 l/m 7,6 km/h (2 Bft) N-NO 25 2 min 0,000 mm 3,3 UV-I 470 W/m 17,3 C 31,3 C 11,3 km/h (2 Bft) 97,37 %
30.07.2018 15:12 31,2 C 27,8 C 36,1 C 43 % 1013,5 hPa 0,0 l/m 6,9 km/h (2 Bft) N-NO 33 0 min 0,000 mm 3,1 UV-I 242 W/m 17,1 C 31,2 C 9,7 km/h (2 Bft) 95,74 %
30.07.2018 15:14 31,0 C 27,8 C 35,0 C 44 % 1013,6 hPa 0,0 l/m 6,6 km/h (2 Bft) N-NO 26 0 min 0,000 mm 3,2 UV-I 254 W/m 17,3 C 31,0 C 9,7 km/h (2 Bft) 95,74 %
30.07.2018 15:16 30,9 C 27,8 C 33,9 C 45 % 1013,6 hPa 0,0 l/m 6,9 km/h (2 Bft) N-NO 28 0 min 0,000 mm 3,3 UV-I 272 W/m 17,6 C 30,9 C 8,0 km/h (2 Bft) 97,87 %
30.07.2018 15:18 30,9 C 27,8 C 36,1 C 44 % 1013,6 hPa 0,0 l/m 4,8 km/h (1 Bft) O-NO 57 0 min 0,000 mm 4,2 UV-I 334 W/m 17,2 C 30,9 C 8,0 km/h (2 Bft) 95,74 %
30.07.2018 15:20 31,3 C 27,8 C 38,9 C 47 % 1013,6 hPa 0,0 l/m 5,7 km/h (1 Bft) O-NO 62 2 min 0,000 mm 4,5 UV-I 815 W/m 18,6 C 31,3 C 9,7 km/h (2 Bft) 95,74 %
30.07.2018 15:22 31,8 C 27,8 C 40,6 C 43 % 1013,5 hPa 0,0 l/m 6,6 km/h (2 Bft) NO 40 2 min 0,000 mm 4,5 UV-I 827 W/m 17,6 C 31,8 C 12,9 km/h (3 Bft) 98,00 %
30.07.2018 15:24 32,1 C 27,8 C 41,7 C 42 % 1013,5 hPa 0,0 l/m 7,3 km/h (2 Bft) N-NO 28 2 min 0,000 mm 4,4 UV-I 821 W/m 17,5 C 32,1 C 12,9 km/h (3 Bft) 97,87 %
30.07.2018 15:26 32,3 C 27,8 C 41,7 C 42 % 1013,5 hPa 0,0 l/m 14,8 km/h (3 Bft) N-NO 33 2 min 0,000 mm 4,0 UV-I 796 W/m 17,7 C 32,2 C 19,3 km/h (3 Bft) 95,74 %
30.07.2018 15:28 32,3 C 27,8 C 41,7 C 42 % 1013,5 hPa 0,0 l/m 11,4 km/h (2 Bft) O 94 2 min 0,000 mm 4,1 UV-I 776 W/m 17,7 C 32,2 C 16,1 km/h (3 Bft) 100,00 %
30.07.2018 15:30 32,1 C 27,8 C 39,4 C 42 % 1013,5 hPa 0,0 l/m 14,3 km/h (3 Bft) O 79 2 min 0,000 mm 3,5 UV-I 612 W/m 17,5 C 31,9 C 19,3 km/h (3 Bft) 97,87 %
30.07.2018 15:32 31,7 C 27,8 C 37,2 C 41 % 1013,5 hPa 0,0 l/m 11,6 km/h (2 Bft) O 90 0 min 0,000 mm 3,0 UV-I 264 W/m 16,8 C 31,5 C 16,1 km/h (3 Bft) 98,00 %
30.07.2018 15:34 31,3 C 27,8 C 35,6 C 43 % 1013,5 hPa 0,0 l/m 7,0 km/h (2 Bft) NO 45 0 min 0,000 mm 2,8 UV-I 255 W/m 17,2 C 31,3 C 14,5 km/h (3 Bft) 100,00 %
30.07.2018 15:36 31,1 C 27,8 C 35,0 C 45 % 1013,5 hPa 0,0 l/m 10,0 km/h (2 Bft) NO 46 0 min 0,000 mm 2,7 UV-I 253 W/m 17,7 C 30,9 C 14,5 km/h (3 Bft) 100,00 %
30.07.2018 15:38 30,9 C 27,8 C 33,9 C 45 % 1013,5 hPa 0,0 l/m 8,0 km/h (2 Bft) NO 42 0 min 0,000 mm 2,6 UV-I 258 W/m 17,6 C 30,8 C 11,3 km/h (2 Bft) 100,00 %
30.07.2018 15:40 30,8 C 27,8 C 32,8 C 44 % 1013,5 hPa 0,0 l/m 10,6 km/h (2 Bft) NO 55 0 min 0,000 mm 2,6 UV-I 254 W/m 17,1 C 30,5 C 16,1 km/h (3 Bft) 97,87 %
30.07.2018 15:42 30,7 C 27,8 C 32,8 C 45 % 1013,5 hPa 0,0 l/m 7,3 km/h (2 Bft) NO 42 0 min 0,000 mm 2,4 UV-I 251 W/m 17,4 C 30,6 C 12,9 km/h (3 Bft) 100,00 %
30.07.2018 15:44 30,7 C 27,8 C 32,2 C 43 % 1013,4 hPa 0,0 l/m 4,9 km/h (1 Bft) NO 37 0 min 0,000 mm 2,2 UV-I 255 W/m 16,7 C 30,7 C 9,7 km/h (2 Bft) 100,00 %
30.07.2018 15:46 30,6 C 27,8 C 32,2 C 44 % 1013,4 hPa 0,0 l/m 6,7 km/h (2 Bft) N-NO 19 0 min 0,000 mm 2,2 UV-I 268 W/m 16,9 C 30,6 C 9,7 km/h (2 Bft) 100,00 %
30.07.2018 15:48 30,6 C 27,8 C 32,8 C 44 % 1013,4 hPa 0,0 l/m 7,5 km/h (2 Bft) O-NO 72 0 min 0,000 mm 2,2 UV-I 286 W/m 16,9 C 30,5 C 14,5 km/h (3 Bft) 97,87 %
30.07.2018 15:50 30,7 C 27,8 C 32,8 C 44 % 1013,4 hPa 0,0 l/m 6,6 km/h (2 Bft) NO 46 0 min 0,000 mm 2,2 UV-I 295 W/m 17,0 C 30,7 C 8,0 km/h (2 Bft) 97,87 %
30.07.2018 15:52 30,8 C 27,8 C 32,8 C 45 % 1013,4 hPa 0,0 l/m 5,8 km/h (2 Bft) N-NO 29 0 min 0,000 mm 2,2 UV-I 293 W/m 17,5 C 30,8 C 9,7 km/h (2 Bft) 100,00 %
30.07.2018 15:54 30,8 C 27,8 C 32,8 C 45 % 1013,3 hPa 0,0 l/m 12,4 km/h (3 Bft) NO 40 0 min 0,000 mm 2,2 UV-I 282 W/m 17,5 C 30,4 C 19,3 km/h (3 Bft) 97,87 %
30.07.2018 15:56 30,7 C 27,8 C 32,8 C 49 % 1013,3 hPa 0,0 l/m 18,0 km/h (3 Bft) O 90 0 min 0,000 mm 2,3 UV-I 358 W/m 18,7 C 30,1 C 25,7 km/h (4 Bft) 100,00 %
30.07.2018 15:58 30,4 C 27,8 C 32,2 C 49 % 1013,3 hPa 0,0 l/m 18,0 km/h (3 Bft) O 98 0 min 0,000 mm 2,2 UV-I 350 W/m 18,5 C 29,7 C 25,7 km/h (4 Bft) 100,00 %
30.07.2018 16:00 30,2 C 27,8 C 32,2 C 51 % 1013,3 hPa 0,0 l/m 15,0 km/h (3 Bft) O-SO 103 0 min 0,381 mm 2,0 UV-I 262 W/m 18,9 C 29,6 C 24,1 km/h (4 Bft) 97,87 %
30.07.2018 16:02 30,1 C 27,8 C 32,2 C 50 % 1013,3 hPa 0,0 l/m 16,9 km/h (3 Bft) O-NO 59 0 min 0,000 mm 2,0 UV-I 258 W/m 18,5 C 29,4 C 22,5 km/h (4 Bft) 95,74 %
30.07.2018 16:04 29,9 C 27,8 C 32,2 C 50 % 1013,3 hPa 0,0 l/m 16,0 km/h (3 Bft) O-NO 74 0 min 0,000 mm 2,0 UV-I 306 W/m 18,3 C 29,2 C 22,5 km/h (4 Bft) 100,00 %
30.07.2018 16:06 30,0 C 27,8 C 33,3 C 51 % 1013,3 hPa 0,0 l/m 14,1 km/h (3 Bft) NO 54 0 min 0,000 mm 2,1 UV-I 338 W/m 18,7 C 29,4 C 20,9 km/h (4 Bft) 98,36 %
30.07.2018 16:08 30,1 C 27,8 C 33,3 C 51 % 1013,3 hPa 0,0 l/m 11,3 km/h (2 Bft) O-NO 74 0 min 0,000 mm 2,0 UV-I 250 W/m 18,8 C 29,7 C 19,3 km/h (3 Bft) 100,00 %
30.07.2018 16:10 30,3 C 27,8 C 33,9 C 53 % 1013,3 hPa 0,0 l/m 13,9 km/h (3 Bft) NO 42 0 min 0,000 mm 2,0 UV-I 248 W/m 19,6 C 29,8 C 24,1 km/h (4 Bft) 100,00 %
30.07.2018 16:12 30,2 C 27,8 C 33,9 C 50 % 1013,3 hPa 0,0 l/m 18,0 km/h (3 Bft) NO 40 0 min 0,000 mm 2,2 UV-I 218 W/m 18,6 C 29,5 C 24,1 km/h (4 Bft) 97,37 %
30.07.2018 16:14 30,1 C 27,8 C 33,3 C 52 % 1013,3 hPa 0,0 l/m 15,0 km/h (3 Bft) N-NO 31 0 min 0,000 mm 2,2 UV-I 297 W/m 19,1 C 29,5 C 19,3 km/h (3 Bft) 100,00 %
30.07.2018 16:16 29,9 C 27,8 C 32,8 C 51 % 1013,2 hPa 0,0 l/m 14,8 km/h (3 Bft) NO 34 0 min 0,000 mm 2,1 UV-I 229 W/m 18,6 C 29,3 C 24,1 km/h (4 Bft) 97,87 %
30.07.2018 16:18 29,8 C 27,8 C 32,2 C 50 % 1013,3 hPa 0,0 l/m 14,9 km/h (3 Bft) O-NO 65 0 min 0,000 mm 1,9 UV-I 220 W/m 18,2 C 29,1 C 19,3 km/h (3 Bft) 100,00 %
30.07.2018 16:20 29,7 C 27,8 C 31,7 C 52 % 1013,3 hPa 0,0 l/m 15,2 km/h (3 Bft) NO 47 0 min 0,000 mm 1,9 UV-I 207 W/m 18,8 C 29,0 C 22,5 km/h (4 Bft) 100,00 %
30.07.2018 16:22 29,6 C 27,8 C 31,1 C 52 % 1013,3 hPa 0,0 l/m 15,9 km/h (3 Bft) O 84 0 min 0,000 mm 1,9 UV-I 198 W/m 18,7 C 28,8 C 19,3 km/h (3 Bft) 97,87 %
30.07.2018 16:24 29,5 C 27,8 C 31,1 C 52 % 1013,3 hPa 0,0 l/m 13,3 km/h (3 Bft) O-NO 71 0 min 0,000 mm 1,9 UV-I 221 W/m 18,6 C 28,9 C 19,3 km/h (3 Bft) 97,87 %
30.07.2018 16:26 29,4 C 27,8 C 31,1 C 52 % 1013,2 hPa 0,0 l/m 11,6 km/h (2 Bft) O 82 0 min 0,000 mm 1,4 UV-I 237 W/m 18,5 C 28,9 C 16,1 km/h (3 Bft) 100,00 %
30.07.2018 16:28 29,6 C 27,8 C 33,9 C 55 % 1013,3 hPa 0,0 l/m 13,9 km/h (3 Bft) O-NO 59 0 min 0,000 mm 1,9 UV-I 291 W/m 19,6 C 29,0 C 19,3 km/h (3 Bft) 98,00 %
30.07.2018 16:30 30,1 C 27,8 C 35,6 C 52 % 1013,3 hPa 0,0 l/m 16,4 km/h (3 Bft) O 88 2 min 0,000 mm 2,6 UV-I 654 W/m 19,1 C 29,4 C 24,1 km/h (4 Bft) 100,00 %
30.07.2018 16:32 30,3 C 27,8 C 37,2 C 49 % 1013,3 hPa 0,0 l/m 13,9 km/h (3 Bft) NO 42 2 min 0,000 mm 2,5 UV-I 632 W/m 18,4 C 29,8 C 20,9 km/h (4 Bft) 100,00 %
30.07.2018 16:34 30,5 C 27,8 C 37,8 C 49 % 1013,2 hPa 0,0 l/m 17,4 km/h (3 Bft) O-NO 71 2 min 0,000 mm 2,4 UV-I 611 W/m 18,6 C 29,9 C 20,9 km/h (4 Bft) 89,36 %
30.07.2018 16:36 30,4 C 27,8 C 36,1 C 48 % 1013,3 hPa 0,0 l/m 14,5 km/h (3 Bft) O 93 2 min 0,000 mm 2,1 UV-I 504 W/m 18,1 C 29,9 C 22,5 km/h (4 Bft) 93,62 %
30.07.2018 16:38 30,3 C 27,8 C 35,0 C 48 % 1013,2 hPa 0,0 l/m 15,9 km/h (3 Bft) O-NO 57 0 min 0,000 mm 2,0 UV-I 244 W/m 18,0 C 29,7 C 22,5 km/h (4 Bft) 91,49 %
30.07.2018 16:40 30,2 C 27,8 C 35,0 C 49 % 1013,2 hPa 0,0 l/m 15,6 km/h (3 Bft) O-NO 71 2 min 0,000 mm 2,1 UV-I 420 W/m 18,3 C 29,6 C 22,5 km/h (4 Bft) 95,74 %
30.07.2018 16:42 30,2 C 27,8 C 36,1 C 48 % 1013,2 hPa 0,0 l/m 15,7 km/h (3 Bft) O-NO 60 2 min 0,000 mm 2,2 UV-I 533 W/m 17,9 C 29,6 C 19,3 km/h (3 Bft) 95,74 %
30.07.2018 16:44 30,1 C 27,8 C 35,0 C 48 % 1013,1 hPa 0,0 l/m 15,5 km/h (3 Bft) O-NO 78 2 min 0,000 mm 2,0 UV-I 492 W/m 17,9 C 29,5 C 20,9 km/h (4 Bft) 89,74 %
30.07.2018 16:46 29,9 C 27,8 C 33,3 C 48 % 1013,2 hPa 0,0 l/m 14,3 km/h (3 Bft) O-NO 75 0 min 0,000 mm 1,8 UV-I 205 W/m 17,7 C 29,3 C 22,5 km/h (4 Bft) 95,74 %
30.07.2018 16:48 29,8 C 27,8 C 32,2 C 48 % 1013,2 hPa 0,0 l/m 12,3 km/h (3 Bft) NO 45 0 min 0,000 mm 1,7 UV-I 158 W/m 17,6 C 29,3 C 17,7 km/h (3 Bft) 91,49 %
30.07.2018 16:50 29,5 C 27,8 C 31,1 C 49 % 1013,2 hPa 0,0 l/m 17,8 km/h (3 Bft) N-NO 22 0 min 0,000 mm 1,7 UV-I 152 W/m 17,6 C 28,6 C 27,4 km/h (4 Bft) 91,49 %
30.07.2018 16:52 29,2 C 27,8 C 30,6 C 49 % 1013,1 hPa 0,0 l/m 16,7 km/h (3 Bft) NO 44 0 min 0,000 mm 1,7 UV-I 159 W/m 17,4 C 28,3 C 24,1 km/h (4 Bft) 93,62 %
30.07.2018 16:54 29,3 C 27,8 C 32,8 C 48 % 1013,1 hPa 0,0 l/m 15,7 km/h (3 Bft) O-NO 65 0 min 0,000 mm 1,9 UV-I 257 W/m 17,1 C 28,5 C 22,5 km/h (4 Bft) 93,62 %
30.07.2018 16:56 29,5 C 27,8 C 34,4 C 49 % 1013,2 hPa 0,0 l/m 10,9 km/h (2 Bft) NO 49 2 min 0,000 mm 1,7 UV-I 477 W/m 17,6 C 29,1 C 17,7 km/h (3 Bft) 91,49 %
30.07.2018 16:59 29,9 C 27,8 C 36,1 C 49 % 1013,1 hPa 0,0 l/m 13,7 km/h (3 Bft) NO 42 3 min 0,000 mm 2,0 UV-I 458 W/m 18,0 C 29,3 C 27,4 km/h (4 Bft) 91,78 %
30.07.2018 17:00 29,9 C 27,8 C 36,1 C 48 % 1013,1 hPa 0,0 l/m 11,9 km/h (2 Bft) NO 37 1 min 0,000 mm 1,9 UV-I 457 W/m 17,7 C 29,4 C 19,3 km/h (3 Bft) 91,67 %
30.07.2018 17:02 30,2 C 27,8 C 36,7 C 49 % 1013,2 hPa 0,0 l/m 15,8 km/h (3 Bft) O-NO 68 2 min 0,381 mm 2,0 UV-I 469 W/m 18,3 C 29,6 C 22,5 km/h (4 Bft) 93,62 %
30.07.2018 17:04 30,2 C 27,8 C 37,2 C 48 % 1013,1 hPa 0,0 l/m 14,1 km/h (3 Bft) O-NO 73 2 min 0,000 mm 1,9 UV-I 475 W/m 17,9 C 29,7 C 22,5 km/h (4 Bft) 93,62 %
30.07.2018 17:06 30,2 C 27,8 C 37,2 C 48 % 1013,2 hPa 0,0 l/m 12,3 km/h (3 Bft) O 99 2 min 0,000 mm 1,9 UV-I 472 W/m 17,9 C 29,8 C 20,9 km/h (4 Bft) 93,62 %
30.07.2018 17:08 30,2 C 27,8 C 37,2 C 47 % 1013,1 hPa 0,0 l/m 10,7 km/h (2 Bft) O 86 2 min 0,000 mm 1,9 UV-I 462 W/m 17,6 C 29,9 C 16,1 km/h (3 Bft) 96,00 %
30.07.2018 17:10 30,2 C 27,8 C 37,2 C 48 % 1013,1 hPa 0,0 l/m 14,1 km/h (3 Bft) O-NO 63 2 min 0,000 mm 1,8 UV-I 455 W/m 17,9 C 29,7 C 22,5 km/h (4 Bft) 97,87 %
30.07.2018 17:12 30,2 C 27,8 C 37,2 C 48 % 1013,1 hPa 0,0 l/m 14,4 km/h (3 Bft) O-SO 105 2 min 0,000 mm 1,8 UV-I 458 W/m 17,9 C 29,6 C 19,3 km/h (3 Bft) 94,74 %
30.07.2018 17:14 30,3 C 27,8 C 37,2 C 46 % 1013,0 hPa 0,0 l/m 13,4 km/h (3 Bft) O-NO 60 2 min 0,000 mm 1,8 UV-I 455 W/m 17,4 C 29,8 C 20,9 km/h (4 Bft) 93,62 %
30.07.2018 17:16 30,2 C 27,8 C 37,2 C 47 % 1013,1 hPa 0,0 l/m 13,4 km/h (3 Bft) O-NO 69 2 min 0,000 mm 1,7 UV-I 452 W/m 17,6 C 29,7 C 17,7 km/h (3 Bft) 95,74 %
30.07.2018 17:18 30,2 C 27,8 C 37,2 C 47 % 1013,1 hPa 0,0 l/m 12,5 km/h (3 Bft) O 81 2 min 0,000 mm 1,7 UV-I 451 W/m 17,6 C 29,7 C 17,7 km/h (3 Bft) 97,92 %
30.07.2018 17:20 30,2 C 27,8 C 37,8 C 47 % 1013,1 hPa 0,0 l/m 7,6 km/h (2 Bft) O-NO 73 2 min 0,000 mm 1,6 UV-I 446 W/m 17,6 C 30,1 C 12,9 km/h (3 Bft) 94,00 %
30.07.2018 17:22 30,2 C 27,8 C 37,8 C 49 % 1013,1 hPa 0,0 l/m 11,8 km/h (2 Bft) NO 55 2 min 0,000 mm 1,6 UV-I 443 W/m 18,3 C 29,8 C 19,3 km/h (3 Bft) 95,74 %
30.07.2018 17:24 30,3 C 27,8 C 38,3 C 47 % 1013,1 hPa 0,0 l/m 12,2 km/h (2 Bft) O-SO 105 2 min 0,000 mm 1,5 UV-I 441 W/m 17,7 C 29,9 C 16,1 km/h (3 Bft) 95,74 %
30.07.2018 17:26 30,3 C 27,8 C 38,3 C 48 % 1013,1 hPa 0,0 l/m 11,0 km/h (2 Bft) O-NO 63 2 min 0,000 mm 1,5 UV-I 437 W/m 18,0 C 30,0 C 16,1 km/h (3 Bft) 97,87 %
30.07.2018 17:28 30,3 C 27,8 C 37,2 C 48 % 1013,1 hPa 0,0 l/m 10,2 km/h (2 Bft) NO 51 2 min 0,000 mm 1,4 UV-I 436 W/m 18,0 C 30,0 C 14,5 km/h (3 Bft) 96,00 %
30.07.2018 17:30 30,1 C 27,8 C 35,6 C 47 % 1013,1 hPa 0,0 l/m 14,0 km/h (3 Bft) NO 41 0 min 0,000 mm 1,3 UV-I 225 W/m 17,5 C 29,5 C 17,7 km/h (3 Bft) 97,37 %
30.07.2018 17:32 29,9 C 27,8 C 35,0 C 48 % 1013,1 hPa 0,0 l/m 16,1 km/h (3 Bft) N-NO 30 2 min 0,000 mm 1,3 UV-I 368 W/m 17,7 C 29,2 C 22,5 km/h (4 Bft) 96,00 %
30.07.2018 17:34 29,9 C 27,8 C 34,4 C 48 % 1013,1 hPa 0,0 l/m 16,3 km/h (3 Bft) NO 46 2 min 0,000 mm 1,3 UV-I 329 W/m 17,7 C 29,2 C 22,5 km/h (4 Bft) 97,87 %
30.07.2018 17:36 29,9 C 27,8 C 34,4 C 48 % 1013,2 hPa 0,0 l/m 13,7 km/h (3 Bft) NO 42 2 min 0,000 mm 1,3 UV-I 301 W/m 17,7 C 29,3 C 19,3 km/h (3 Bft) 97,87 %
30.07.2018 17:38 29,8 C 27,8 C 33,9 C 49 % 1013,2 hPa 0,0 l/m 12,9 km/h (3 Bft) NO 55 2 min 0,000 mm 1,2 UV-I 303 W/m 17,9 C 29,3 C 22,5 km/h (4 Bft) 95,74 %
30.07.2018 17:40 29,7 C 27,8 C 32,8 C 48 % 1013,1 hPa 0,0 l/m 14,4 km/h (3 Bft) NO 42 0 min 0,000 mm 1,1 UV-I 207 W/m 17,5 C 29,0 C 19,3 km/h (3 Bft) 98,00 %
30.07.2018 17:42 29,5 C 27,8 C 31,7 C 48 % 1013,1 hPa 0,0 l/m 11,1 km/h (2 Bft) NO 37 0 min 0,000 mm 1,1 UV-I 166 W/m 17,3 C 29,0 C 17,7 km/h (3 Bft) 97,87 %
30.07.2018 17:44 29,3 C 27,8 C 30,6 C 49 % 1013,1 hPa 0,0 l/m 12,5 km/h (3 Bft) NO 40 0 min 0,000 mm 1,0 UV-I 120 W/m 17,5 C 28,7 C 17,7 km/h (3 Bft) 97,37 %
30.07.2018 17:46 29,2 C 27,8 C 30,6 C 50 % 1013,1 hPa 0,0 l/m 10,9 km/h (2 Bft) O-NO 61 0 min 0,000 mm 1,0 UV-I 149 W/m 17,7 C 28,7 C 16,1 km/h (3 Bft) 97,87 %
30.07.2018 17:48 29,1 C 27,8 C 30,0 C 50 % 1013,1 hPa 0,0 l/m 9,8 km/h (2 Bft) O-NO 59 0 min 0,000 mm 1,0 UV-I 128 W/m 17,6 C 28,7 C 14,5 km/h (3 Bft) 95,74 %
30.07.2018 17:50 29,1 C 27,8 C 30,0 C 50 % 1013,2 hPa 0,0 l/m 9,8 km/h (2 Bft) O-NO 59 0 min 0,000 mm 0,9 UV-I 101 W/m 17,6 C 28,7 C 14,5 km/h (3 Bft) 97,87 %
30.07.2018 17:52 28,9 C 27,8 C 29,4 C 50 % 1013,2 hPa 0,0 l/m 10,1 km/h (2 Bft) O-SO 105 0 min 0,000 mm 0,9 UV-I 96 W/m 17,4 C 28,5 C 16,1 km/h (3 Bft) 100,00 %
30.07.2018 17:54 28,9 C 27,8 C 28,9 C 50 % 1013,1 hPa 0,0 l/m 12,9 km/h (3 Bft) O-NO 75 0 min 0,000 mm 0,9 UV-I 101 W/m 17,4 C 28,2 C 17,7 km/h (3 Bft) 97,92 %
30.07.2018 17:56 28,8 C 27,8 C 28,9 C 50 % 1013,2 hPa 0,0 l/m 10,1 km/h (2 Bft) NO 34 0 min 0,000 mm 0,9 UV-I 113 W/m 17,3 C 28,4 C 14,5 km/h (3 Bft) 100,00 %
30.07.2018 17:58 28,8 C 27,8 C 28,9 C 51 % 1013,1 hPa 0,0 l/m 9,5 km/h (2 Bft) NO 51 0 min 0,000 mm 0,9 UV-I 118 W/m 17,6 C 28,4 C 14,5 km/h (3 Bft) 98,00 %
30.07.2018 18:00 28,8 C 27,8 C 29,4 C 52 % 1013,1 hPa 0,0 l/m 7,8 km/h (2 Bft) O-NO 74 0 min 0,000 mm 0,9 UV-I 124 W/m 17,9 C 28,6 C 11,3 km/h (2 Bft) 100,00 %
30.07.2018 18:02 28,9 C 27,8 C 30,6 C 51 % 1013,1 hPa 0,0 l/m 8,2 km/h (2 Bft) O 93 0 min 0,304 mm 0,9 UV-I 142 W/m 17,7 C 28,7 C 11,3 km/h (2 Bft) 100,00 %
30.07.2018 18:04 29,0 C 27,8 C 31,7 C 51 % 1013,1 hPa 0,0 l/m 10,1 km/h (2 Bft) O 101 2 min 0,000 mm 0,9 UV-I 252 W/m 17,8 C 28,6 C 16,1 km/h (3 Bft) 97,87 %
30.07.2018 18:06 29,2 C 27,8 C 33,3 C 52 % 1013,0 hPa 0,0 l/m 10,8 km/h (2 Bft) O 82 2 min 0,000 mm 0,9 UV-I 306 W/m 18,3 C 28,7 C 16,1 km/h (3 Bft) 100,00 %
30.07.2018 18:08 29,3 C 27,8 C 34,4 C 52 % 1013,1 hPa 0,0 l/m 7,7 km/h (2 Bft) O-NO 62 2 min 0,000 mm 0,9 UV-I 303 W/m 18,4 C 29,1 C 12,9 km/h (3 Bft) 97,56 %
30.07.2018 18:10 29,5 C 27,8 C 35,6 C 53 % 1013,1 hPa 0,0 l/m 8,0 km/h (2 Bft) NO 51 2 min 0,000 mm 0,9 UV-I 307 W/m 18,9 C 29,3 C 14,5 km/h (3 Bft) 100,00 %
30.07.2018 18:12 29,7 C 27,8 C 35,6 C 52 % 1013,0 hPa 0,0 l/m 10,6 km/h (2 Bft) O-SO 107 2 min 0,000 mm 0,8 UV-I 301 W/m 18,8 C 29,3 C 16,1 km/h (3 Bft) 100,00 %
30.07.2018 18:14 29,6 C 27,8 C 33,9 C 51 % 1013,0 hPa 0,0 l/m 12,9 km/h (3 Bft) O-NO 76 0 min 0,000 mm 0,8 UV-I 205 W/m 18,4 C 29,0 C 17,7 km/h (3 Bft) 97,87 %
30.07.2018 18:16 29,4 C 27,8 C 33,9 C 51 % 1013,0 hPa 0,0 l/m 10,9 km/h (2 Bft) O-NO 72 2 min 0,000 mm 0,8 UV-I 244 W/m 18,2 C 28,9 C 17,7 km/h (3 Bft) 98,00 %
30.07.2018 18:18 29,4 C 27,8 C 34,4 C 52 % 1013,0 hPa 0,0 l/m 11,4 km/h (2 Bft) O 81 2 min 0,000 mm 0,8 UV-I 288 W/m 18,5 C 28,9 C 16,1 km/h (3 Bft) 95,74 %
30.07.2018 18:20 29,4 C 27,8 C 35,0 C 53 % 1013,0 hPa 0,0 l/m 11,6 km/h (2 Bft) O 88 2 min 0,000 mm 0,8 UV-I 285 W/m 18,8 C 28,9 C 22,5 km/h (4 Bft) 97,37 %
30.07.2018 18:22 29,4 C 27,8 C 35,0 C 52 % 1013,1 hPa 0,0 l/m 13,5 km/h (3 Bft) NO 47 2 min 0,000 mm 0,7 UV-I 278 W/m 18,5 C 28,7 C 19,3 km/h (3 Bft) 98,00 %
30.07.2018 18:24 29,4 C 27,8 C 35,0 C 52 % 1013,1 hPa 0,0 l/m 10,8 km/h (2 Bft) NO 37 2 min 0,000 mm 0,7 UV-I 269 W/m 18,5 C 29,0 C 17,7 km/h (3 Bft) 97,87 %
30.07.2018 18:26 29,4 C 27,8 C 34,4 C 52 % 1013,1 hPa 0,0 l/m 15,2 km/h (3 Bft) NO 46 2 min 0,000 mm 0,7 UV-I 259 W/m 18,5 C 28,6 C 19,3 km/h (3 Bft) 96,00 %
30.07.2018 18:28 29,4 C 27,8 C 34,4 C 52 % 1013,1 hPa 0,0 l/m 12,7 km/h (3 Bft) NO 55 2 min 0,000 mm 0,7 UV-I 254 W/m 18,5 C 28,8 C 19,3 km/h (3 Bft) 95,74 %
30.07.2018 18:30 29,5 C 27,8 C 34,4 C 51 % 1013,1 hPa 0,0 l/m 11,7 km/h (2 Bft) O 91 2 min 0,000 mm 0,7 UV-I 243 W/m 18,3 C 29,0 C 17,7 km/h (3 Bft) 96,00 %
30.07.2018 18:32 29,4 C 27,8 C 34,4 C 51 % 1013,1 hPa 0,0 l/m 13,3 km/h (3 Bft) O 91 2 min 0,000 mm 0,6 UV-I 233 W/m 18,2 C 28,8 C 19,3 km/h (3 Bft) 96,00 %
30.07.2018 18:34 29,4 C 27,8 C 33,9 C 51 % 1013,1 hPa 0,0 l/m 13,2 km/h (3 Bft) O 84 2 min 0,000 mm 0,6 UV-I 229 W/m 18,2 C 28,8 C 16,1 km/h (3 Bft) 94,87 %
30.07.2018 18:36 29,4 C 27,8 C 33,9 C 51 % 1013,1 hPa 0,0 l/m 10,9 km/h (2 Bft) O-NO 67 2 min 0,000 mm 0,6 UV-I 227 W/m 18,2 C 28,9 C 16,1 km/h (3 Bft) 95,74 %
30.07.2018 18:38 29,3 C 27,8 C 34,4 C 51 % 1013,1 hPa 0,0 l/m 8,9 km/h (2 Bft) O 80 2 min 0,000 mm 0,6 UV-I 225 W/m 18,1 C 29,0 C 14,5 km/h (3 Bft) 94,00 %
30.07.2018 18:40 29,3 C 27,8 C 34,4 C 52 % 1013,1 hPa 0,0 l/m 8,5 km/h (2 Bft) O 79 2 min 0,000 mm 0,6 UV-I 223 W/m 18,4 C 29,1 C 14,5 km/h (3 Bft) 93,62 %
30.07.2018 18:42 29,3 C 27,8 C 34,4 C 52 % 1013,1 hPa 0,0 l/m 9,7 km/h (2 Bft) O 82 2 min 0,000 mm 0,5 UV-I 216 W/m 18,4 C 28,9 C 14,5 km/h (3 Bft) 97,87 %
30.07.2018 18:44 29,3 C 27,8 C 33,9 C 52 % 1013,1 hPa 0,0 l/m 11,5 km/h (2 Bft) O-NO 63 2 min 0,000 mm 0,5 UV-I 210 W/m 18,4 C 28,8 C 17,7 km/h (3 Bft) 93,62 %
30.07.2018 18:46 29,3 C 27,8 C 33,9 C 51 % 1013,1 hPa 0,0 l/m 11,1 km/h (2 Bft) O 79 2 min 0,000 mm 0,5 UV-I 204 W/m 18,1 C 28,8 C 14,5 km/h (3 Bft) 97,87 %
30.07.2018 18:48 29,3 C 27,8 C 33,9 C 51 % 1013,2 hPa 0,0 l/m 10,1 km/h (2 Bft) O-NO 74 2 min 0,000 mm 0,5 UV-I 199 W/m 18,1 C 28,9 C 14,5 km/h (3 Bft) 97,87 %
30.07.2018 18:50 29,2 C 27,8 C 33,3 C 50 % 1013,1 hPa 0,0 l/m 13,6 km/h (3 Bft) O-NO 59 2 min 0,000 mm 0,5 UV-I 193 W/m 17,7 C 28,5 C 19,3 km/h (3 Bft) 95,74 %
30.07.2018 18:52 29,2 C 27,8 C 33,3 C 51 % 1013,1 hPa 0,0 l/m 13,0 km/h (3 Bft) O-NO 63 2 min 0,000 mm 0,1 UV-I 189 W/m 18,0 C 28,5 C 16,1 km/h (3 Bft) 97,87 %
30.07.2018 18:54 29,2 C 27,8 C 33,3 C 50 % 1013,1 hPa 0,0 l/m 9,8 km/h (2 Bft) O 85 2 min 0,000 mm 0,0 UV-I 186 W/m 17,7 C 28,8 C 14,5 km/h (3 Bft) 98,00 %
30.07.2018 18:56 29,2 C 27,8 C 33,3 C 50 % 1013,1 hPa 0,0 l/m 11,2 km/h (2 Bft) O-NO 71 2 min 0,000 mm 0,0 UV-I 180 W/m 17,7 C 28,7 C 17,7 km/h (3 Bft) 97,37 %
30.07.2018 18:58 29,2 C 27,8 C 33,3 C 51 % 1013,1 hPa 0,0 l/m 8,6 km/h (2 Bft) O-NO 64 2 min 0,000 mm 0,0 UV-I 176 W/m 18,0 C 28,9 C 16,1 km/h (3 Bft) 95,74 %
30.07.2018 19:00 29,2 C 27,8 C 33,3 C 50 % 1013,1 hPa 0,0 l/m 12,2 km/h (2 Bft) O-NO 78 2 min 0,000 mm 0,0 UV-I 170 W/m 17,7 C 28,6 C 17,7 km/h (3 Bft) 96,00 %
30.07.2018 19:02 29,1 C 27,8 C 32,8 C 50 % 1013,1 hPa 0,0 l/m 11,8 km/h (2 Bft) O 98 2 min 0,254 mm 0,0 UV-I 165 W/m 17,6 C 28,5 C 16,1 km/h (3 Bft) 100,00 %
30.07.2018 19:04 29,1 C 27,8 C 33,3 C 51 % 1013,1 hPa 0,0 l/m 8,9 km/h (2 Bft) O-SO 102 2 min 0,000 mm 0,0 UV-I 160 W/m 17,9 C 28,8 C 14,5 km/h (3 Bft) 100,00 %
30.07.2018 19:06 29,0 C 27,8 C 32,8 C 50 % 1013,1 hPa 0,0 l/m 8,3 km/h (2 Bft) O-NO 77 2 min 0,000 mm 0,0 UV-I 155 W/m 17,5 C 28,8 C 14,5 km/h (3 Bft) 97,87 %
30.07.2018 19:08 28,9 C 27,8 C 32,8 C 51 % 1013,1 hPa 0,0 l/m 9,2 km/h (2 Bft) O 94 2 min 0,000 mm 0,0 UV-I 152 W/m 17,7 C 28,6 C 14,5 km/h (3 Bft) 100,00 %
30.07.2018 19:10 28,9 C 27,8 C 32,8 C 51 % 1013,1 hPa 0,0 l/m 8,4 km/h (2 Bft) O 81 2 min 0,000 mm 0,0 UV-I 148 W/m 17,7 C 28,6 C 14,5 km/h (3 Bft) 100,00 %
30.07.2018 19:12 28,9 C 27,8 C 32,8 C 50 % 1013,1 hPa 0,0 l/m 10,8 km/h (2 Bft) O 85 2 min 0,000 mm 0,0 UV-I 144 W/m 17,4 C 28,4 C 14,5 km/h (3 Bft) 95,74 %
30.07.2018 19:14 28,9 C 27,8 C 32,8 C 50 % 1013,2 hPa 0,0 l/m 9,2 km/h (2 Bft) O 83 2 min 0,000 mm 0,0 UV-I 139 W/m 17,4 C 28,6 C 16,1 km/h (3 Bft) 100,00 %
30.07.2018 19:16 28,8 C 27,8 C 32,8 C 51 % 1013,2 hPa 0,0 l/m 6,9 km/h (2 Bft) O 82 2 min 0,000 mm 0,0 UV-I 135 W/m 17,6 C 28,7 C 12,9 km/h (3 Bft) 100,00 %
30.07.2018 19:18 28,8 C 27,8 C 32,8 C 50 % 1013,2 hPa 0,0 l/m 6,9 km/h (2 Bft) O-NO 67 2 min 0,000 mm 0,0 UV-I 131 W/m 17,3 C 28,7 C 9,7 km/h (2 Bft) 100,00 %
30.07.2018 19:20 28,8 C 27,8 C 32,2 C 51 % 1013,1 hPa 0,0 l/m 9,6 km/h (2 Bft) O-NO 68 2 min 0,000 mm 0,0 UV-I 127 W/m 17,6 C 28,4 C 16,1 km/h (3 Bft) 97,87 %
30.07.2018 19:22 28,7 C 27,8 C 32,2 C 51 % 1013,1 hPa 0,0 l/m 9,6 km/h (2 Bft) O 89 2 min 0,000 mm 0,0 UV-I 124 W/m 17,5 C 28,3 C 14,5 km/h (3 Bft) 95,74 %
30.07.2018 19:24 28,7 C 27,8 C 32,2 C 50 % 1013,1 hPa 0,0 l/m 10,8 km/h (2 Bft) O 87 2 min 0,000 mm 0,0 UV-I 120 W/m 17,2 C 28,2 C 14,5 km/h (3 Bft) 100,00 %
30.07.2018 19:26 28,7 C 27,8 C 31,7 C 50 % 1013,2 hPa 0,0 l/m 10,4 km/h (2 Bft) O-NO 66 2 min 0,000 mm 0,0 UV-I 116 W/m 17,2 C 28,2 C 12,9 km/h (3 Bft) 100,00 %
30.07.2018 19:28 28,7 C 27,8 C 31,7 C 50 % 1013,2 hPa 0,0 l/m 10,5 km/h (2 Bft) O 81 2 min 0,000 mm 0,0 UV-I 112 W/m 17,2 C 28,2 C 16,1 km/h (3 Bft) 100,00 %
30.07.2018 19:30 28,6 C 27,8 C 31,1 C 50 % 1013,2 hPa 0,0 l/m 10,1 km/h (2 Bft) O-NO 66 2 min 0,000 mm 0,0 UV-I 108 W/m 17,1 C 28,1 C 14,5 km/h (3 Bft) 100,00 %
30.07.2018 19:32 28,6 C 27,2 C 31,1 C 50 % 1013,2 hPa 0,0 l/m 9,4 km/h (2 Bft) O 86 2 min 0,000 mm 0,0 UV-I 104 W/m 17,1 C 28,2 C 14,5 km/h (3 Bft) 95,74 %
30.07.2018 19:34 28,6 C 27,2 C 31,1 C 50 % 1013,2 hPa 0,0 l/m 9,9 km/h (2 Bft) O-NO 66 2 min 0,000 mm 0,0 UV-I 99 W/m 17,1 C 28,2 C 16,1 km/h (3 Bft) 95,74 %
30.07.2018 19:36 28,5 C 27,2 C 31,1 C 51 % 1013,2 hPa 0,0 l/m 9,3 km/h (2 Bft) O 85 2 min 0,000 mm 0,0 UV-I 97 W/m 17,4 C 28,1 C 12,9 km/h (3 Bft) 97,87 %
30.07.2018 19:38 28,4 C 27,2 C 31,1 C 51 % 1013,2 hPa 0,0 l/m 7,9 km/h (2 Bft) O-NO 69 2 min 0,000 mm 0,0 UV-I 93 W/m 17,3 C 28,2 C 11,3 km/h (2 Bft) 100,00 %
30.07.2018 19:40 28,4 C 27,2 C 30,6 C 51 % 1013,2 hPa 0,0 l/m 6,4 km/h (2 Bft) O-NO 78 2 min 0,000 mm 0,0 UV-I 89 W/m 17,3 C 28,4 C 11,3 km/h (2 Bft) 100,00 %
30.07.2018 19:42 28,3 C 27,2 C 30,6 C 52 % 1013,1 hPa 0,0 l/m 6,1 km/h (2 Bft) O-NO 78 2 min 0,000 mm 0,0 UV-I 85 W/m 17,5 C 28,3 C 11,3 km/h (2 Bft) 100,00 %
30.07.2018 19:44 28,3 C 27,2 C 30,6 C 52 % 1013,2 hPa 0,0 l/m 6,1 km/h (2 Bft) O 82 2 min 0,000 mm 0,0 UV-I 80 W/m 17,5 C 28,3 C 11,3 km/h (2 Bft) 95,74 %
30.07.2018 19:46 28,2 C 27,2 C 30,6 C 53 % 1013,2 hPa 0,0 l/m 6,8 km/h (2 Bft) O-NO 72 2 min 0,000 mm 0,0 UV-I 77 W/m 17,7 C 28,1 C 11,3 km/h (2 Bft) 100,00 %
30.07.2018 19:49 28,0 C 27,2 C 30,0 C 53 % 1013,2 hPa 0,0 l/m 6,7 km/h (2 Bft) O-NO 66 3 min 0,000 mm 0,0 UV-I 72 W/m 17,5 C 28,0 C 11,3 km/h (2 Bft) 100,00 %
30.07.2018 19:50 27,9 C 27,2 C 30,0 C 54 % 1013,2 hPa 0,0 l/m 5,6 km/h (1 Bft) O 89 1 min 0,000 mm 0,0 UV-I 69 W/m 17,7 C 27,9 C 8,0 km/h (2 Bft) 100,00 %
30.07.2018 19:52 27,9 C 27,2 C 29,4 C 54 % 1013,2 hPa 0,0 l/m 6,0 km/h (2 Bft) O-NO 65 2 min 0,000 mm 0,0 UV-I 66 W/m 17,7 C 27,9 C 9,7 km/h (2 Bft) 97,22 %
30.07.2018 19:54 27,8 C 27,2 C 29,4 C 54 % 1013,2 hPa 0,0 l/m 6,2 km/h (2 Bft) O 101 0 min 0,000 mm 0,0 UV-I 62 W/m 17,6 C 27,8 C 9,7 km/h (2 Bft) 98,00 %
30.07.2018 19:56 27,8 C 27,2 C 28,9 C 55 % 1013,3 hPa 0,0 l/m 6,0 km/h (2 Bft) O 84 0 min 0,000 mm 0,0 UV-I 58 W/m 17,9 C 27,8 C 9,7 km/h (2 Bft) 97,87 %
30.07.2018 19:58 27,7 C 27,2 C 28,9 C 55 % 1013,3 hPa 0,0 l/m 4,1 km/h (1 Bft) O 88 0 min 0,000 mm 0,0 UV-I 54 W/m 17,8 C 27,7 C 6,4 km/h (2 Bft) 95,74 %
30.07.2018 20:00 27,6 C 27,2 C 28,3 C 56 % 1013,3 hPa 0,0 l/m 4,0 km/h (1 Bft) O-SO 103 0 min 0,153 mm 0,0 UV-I 53 W/m 18,0 C 27,6 C 6,4 km/h (2 Bft) 95,74 %
30.07.2018 20:02 27,5 C 27,2 C 28,3 C 56 % 1013,3 hPa 0,0 l/m 4,7 km/h (1 Bft) SO 130 0 min 0,000 mm 0,0 UV-I 50 W/m 17,9 C 27,5 C 9,7 km/h (2 Bft) 95,74 %
30.07.2018 20:04 27,5 C 27,2 C 27,8 C 55 % 1013,3 hPa 0,0 l/m 4,4 km/h (1 Bft) O-SO 109 0 min 0,000 mm 0,0 UV-I 47 W/m 17,6 C 27,5 C 6,4 km/h (2 Bft) 97,87 %
30.07.2018 20:06 27,5 C 27,2 C 27,2 C 55 % 1013,3 hPa 0,0 l/m 3,4 km/h (1 Bft) O-SO 108 0 min 0,000 mm 0,0 UV-I 44 W/m 17,6 C 27,5 C 6,4 km/h (2 Bft) 98,00 %
30.07.2018 20:08 27,4 C 27,2 C 26,7 C 55 % 1013,3 hPa 0,0 l/m 3,5 km/h (1 Bft) O-SO 113 0 min 0,000 mm 0,0 UV-I 41 W/m 17,5 C 27,4 C 4,8 km/h (1 Bft) 97,87 %
30.07.2018 20:10 27,5 C 27,2 C 26,7 C 54 % 1013,3 hPa 0,0 l/m 4,6 km/h (1 Bft) O-SO 114 2 min 0,000 mm 0,0 UV-I 39 W/m 17,3 C 27,5 C 6,4 km/h (2 Bft) 96,00 %
30.07.2018 20:12 27,5 C 27,2 C 26,1 C 55 % 1013,3 hPa 0,0 l/m 5,2 km/h (1 Bft) O-SO 105 2 min 0,000 mm 0,0 UV-I 36 W/m 17,6 C 27,5 C 9,7 km/h (2 Bft) 97,37 %
30.07.2018 20:14 27,4 C 27,2 C 26,1 C 55 % 1013,3 hPa 0,0 l/m 4,3 km/h (1 Bft) O-SO 115 2 min 0,000 mm 0,0 UV-I 33 W/m 17,5 C 27,4 C 6,4 km/h (2 Bft) 97,87 %
30.07.2018 20:16 27,3 C 27,2 C 25,6 C 55 % 1013,4 hPa 0,0 l/m 5,7 km/h (1 Bft) O-SO 119 2 min 0,000 mm 0,0 UV-I 32 W/m 17,4 C 27,3 C 11,3 km/h (2 Bft) 98,00 %
30.07.2018 20:18 27,3 C 27,2 C 25,6 C 55 % 1013,3 hPa 0,0 l/m 5,1 km/h (1 Bft) O-SO 118 2 min 0,000 mm 0,0 UV-I 30 W/m 17,4 C 27,3 C 6,4 km/h (2 Bft) 97,87 %
30.07.2018 20:20 27,2 C 27,2 C 25,0 C 55 % 1013,3 hPa 0,0 l/m 5,2 km/h (1 Bft) O-SO 117 2 min 0,000 mm 0,0 UV-I 26 W/m 17,4 C 27,2 C 9,7 km/h (2 Bft) 92,00 %
30.07.2018 20:22 27,2 C 27,2 C 25,0 C 55 % 1013,4 hPa 0,0 l/m 4,3 km/h (1 Bft) O-SO 105 2 min 0,000 mm 0,0 UV-I 24 W/m 17,4 C 27,2 C 6,4 km/h (2 Bft) 94,44 %
30.07.2018 20:24 27,1 C 27,2 C 25,0 C 55 % 1013,4 hPa 0,0 l/m 4,8 km/h (1 Bft) SO 124 2 min 0,000 mm 0,0 UV-I 21 W/m 17,3 C 27,1 C 8,0 km/h (2 Bft) 98,00 %
30.07.2018 20:26 27,0 C 27,2 C 25,0 C 55 % 1013,4 hPa 0,0 l/m 5,6 km/h (1 Bft) SO 126 2 min 0,000 mm 0,0 UV-I 19 W/m 17,2 C 27,0 C 9,7 km/h (2 Bft) 96,15 %
30.07.2018 20:28 26,9 C 27,2 C 24,4 C 55 % 1013,3 hPa 0,0 l/m 6,2 km/h (2 Bft) O-SO 116 2 min 0,000 mm 0,0 UV-I 19 W/m 17,1 C 26,9 C 9,7 km/h (2 Bft) 93,75 %
30.07.2018 20:30 26,9 C 27,2 C 24,4 C 55 % 1013,4 hPa 0,0 l/m 5,7 km/h (1 Bft) O-SO 104 2 min 0,000 mm 0,0 UV-I 16 W/m 17,1 C 26,9 C 11,3 km/h (2 Bft) 95,74 %
30.07.2018 20:32 26,9 C 27,2 C 24,4 C 55 % 1013,3 hPa 0,0 l/m 4,9 km/h (1 Bft) O-SO 117 0 min 0,000 mm 0,0 UV-I 14 W/m 17,1 C 26,9 C 6,4 km/h (2 Bft) 95,74 %
30.07.2018 20:34 26,8 C 27,2 C 23,9 C 55 % 1013,4 hPa 0,0 l/m 6,0 km/h (2 Bft) O-SO 111 0 min 0,000 mm 0,0 UV-I 12 W/m 17,0 C 26,8 C 9,7 km/h (2 Bft) 91,49 %
30.07.2018 20:36 26,7 C 27,2 C 23,9 C 55 % 1013,3 hPa 0,0 l/m 5,4 km/h (1 Bft) O-SO 119 0 min 0,000 mm 0,0 UV-I 12 W/m 16,9 C 26,7 C 9,7 km/h (2 Bft) 96,00 %
30.07.2018 20:38 26,6 C 27,2 C 23,9 C 55 % 1013,4 hPa 0,0 l/m 5,3 km/h (1 Bft) O-SO 105 0 min 0,000 mm 0,0 UV-I 11 W/m 16,8 C 26,6 C 6,4 km/h (2 Bft) 95,12 %
30.07.2018 20:40 26,6 C 27,2 C 23,9 C 55 % 1013,5 hPa 0,0 l/m 4,5 km/h (1 Bft) O-SO 108 0 min 0,000 mm 0,0 UV-I 9 W/m 16,8 C 26,6 C 9,7 km/h (2 Bft) 97,87 %
30.07.2018 20:42 26,6 C 27,2 C 23,9 C 55 % 1013,5 hPa 0,0 l/m 4,3 km/h (1 Bft) O-SO 108 0 min 0,000 mm 0,0 UV-I 9 W/m 16,8 C 26,6 C 6,4 km/h (2 Bft) 91,49 %
30.07.2018 20:44 26,6 C 27,2 C 23,3 C 55 % 1013,5 hPa 0,0 l/m 4,6 km/h (1 Bft) O-SO 111 0 min 0,000 mm 0,0 UV-I 7 W/m 16,8 C 26,6 C 9,7 km/h (2 Bft) 94,00 %
30.07.2018 20:46 26,5 C 27,2 C 23,3 C 55 % 1013,6 hPa 0,0 l/m 3,8 km/h (1 Bft) SO 127 0 min 0,000 mm 0,0 UV-I 7 W/m 16,7 C 26,5 C 6,4 km/h (2 Bft) 95,74 %
30.07.2018 20:48 26,4 C 27,2 C 23,3 C 55 % 1013,6 hPa 0,0 l/m 6,0 km/h (2 Bft) SO 125 0 min 0,000 mm 0,0 UV-I 6 W/m 16,6 C 26,4 C 9,7 km/h (2 Bft) 94,74 %
30.07.2018 20:50 26,5 C 27,2 C 23,3 C 55 % 1013,6 hPa 0,0 l/m 4,8 km/h (1 Bft) SO 124 0 min 0,000 mm 0,0 UV-I 5 W/m 16,7 C 26,5 C 6,4 km/h (2 Bft) 96,00 %
30.07.2018 20:52 26,5 C 27,2 C 23,3 C 55 % 1013,7 hPa 0,0 l/m 4,9 km/h (1 Bft) SO 128 0 min 0,000 mm 0,0 UV-I 5 W/m 16,7 C 26,5 C 9,7 km/h (2 Bft) 93,62 %
30.07.2018 20:54 26,6 C 27,2 C 23,3 C 55 % 1013,6 hPa 0,0 l/m 3,9 km/h (1 Bft) O-SO 104 0 min 0,000 mm 0,0 UV-I 5 W/m 16,8 C 26,6 C 4,8 km/h (1 Bft) 97,87 %
30.07.2018 20:56 26,4 C 27,2 C 23,3 C 55 % 1013,7 hPa 0,0 l/m 6,1 km/h (2 Bft) O-SO 113 0 min 0,000 mm 0,0 UV-I 5 W/m 16,6 C 26,4 C 9,7 km/h (2 Bft) 98,11 %
30.07.2018 20:58 26,4 C 27,2 C 23,3 C 55 % 1013,7 hPa 0,0 l/m 5,8 km/h (2 Bft) O-SO 115 0 min 0,000 mm 0,0 UV-I 5 W/m 16,6 C 26,4 C 9,7 km/h (2 Bft) 95,74 %
30.07.2018 21:00 26,3 C 27,2 C 23,3 C 56 % 1013,7 hPa 0,0 l/m 5,2 km/h (1 Bft) SO 126 0 min 0,000 mm 0,0 UV-I 1 W/m 16,8 C 26,3 C 11,3 km/h (2 Bft) 91,49 %
30.07.2018 21:02 26,3 C 27,2 C 22,8 C 55 % 1013,7 hPa 0,0 l/m 4,4 km/h (1 Bft) O-SO 117 0 min 0,051 mm 0,0 UV-I 0 W/m 16,5 C 26,3 C 6,4 km/h (2 Bft) 93,62 %
30.07.2018 21:04 26,3 C 27,2 C 22,8 C 56 % 1013,7 hPa 0,0 l/m 4,9 km/h (1 Bft) O-SO 109 0 min 0,000 mm 0,0 UV-I 0 W/m 16,8 C 26,3 C 6,4 km/h (2 Bft) 97,87 %
30.07.2018 21:06 26,2 C 27,2 C 22,8 C 56 % 1013,8 hPa 0,0 l/m 5,4 km/h (1 Bft) O-SO 121 0 min 0,000 mm 0,0 UV-I 0 W/m 16,7 C 26,2 C 9,7 km/h (2 Bft) 93,75 %
30.07.2018 21:08 26,1 C 27,2 C 22,8 C 56 % 1013,7 hPa 0,0 l/m 5,1 km/h (1 Bft) O-SO 117 0 min 0,000 mm 0,0 UV-I 0 W/m 16,6 C 26,1 C 9,7 km/h (2 Bft) 97,87 %
30.07.2018 21:10 25,9 C 27,2 C 22,8 C 57 % 1013,9 hPa 0,0 l/m 5,3 km/h (1 Bft) O-SO 116 0 min 0,000 mm 0,0 UV-I 0 W/m 16,7 C 25,9 C 9,7 km/h (2 Bft) 97,87 %
30.07.2018 21:12 25,9 C 27,2 C 22,8 C 56 % 1013,9 hPa 0,0 l/m 6,1 km/h (2 Bft) O-SO 119 0 min 0,000 mm 0,0 UV-I 0 W/m 16,4 C 25,9 C 11,3 km/h (2 Bft) 97,37 %
30.07.2018 21:14 25,9 C 27,2 C 22,8 C 56 % 1013,9 hPa 0,0 l/m 5,1 km/h (1 Bft) SO 128 0 min 0,000 mm 0,0 UV-I 0 W/m 16,4 C 25,9 C 8,0 km/h (2 Bft) 97,87 %
30.07.2018 21:16 26,0 C 27,2 C 22,8 C 56 % 1013,9 hPa 0,0 l/m 7,1 km/h (2 Bft) O-SO 114 0 min 0,000 mm 0,0 UV-I 0 W/m 16,5 C 25,8 C 11,3 km/h (2 Bft) 97,87 %
30.07.2018 21:18 26,0 C 27,2 C 22,8 C 56 % 1013,9 hPa 0,0 l/m 6,7 km/h (2 Bft) O-SO 120 0 min 0,000 mm 0,0 UV-I 0 W/m 16,5 C 25,9 C 9,7 km/h (2 Bft) 97,87 %
30.07.2018 21:20 26,0 C 27,2 C 22,8 C 56 % 1013,9 hPa 0,0 l/m 5,9 km/h (2 Bft) O-SO 116 0 min 0,000 mm 0,0 UV-I 0 W/m 16,5 C 26,0 C 8,0 km/h (2 Bft) 95,74 %
30.07.2018 21:22 26,0 C 27,2 C 22,8 C 56 % 1013,9 hPa 0,0 l/m 4,6 km/h (1 Bft) O 89 0 min 0,000 mm 0,0 UV-I 0 W/m 16,5 C 26,0 C 6,4 km/h (2 Bft) 98,00 %
30.07.2018 21:24 25,9 C 27,2 C 22,8 C 56 % 1013,9 hPa 0,0 l/m 6,5 km/h (2 Bft) O 96 0 min 0,000 mm 0,0 UV-I 0 W/m 16,4 C 25,9 C 9,7 km/h (2 Bft) 97,87 %
30.07.2018 21:26 25,9 C 27,2 C 22,8 C 56 % 1013,9 hPa 0,0 l/m 6,4 km/h (2 Bft) O 101 0 min 0,000 mm 0,0 UV-I 0 W/m 16,4 C 25,9 C 9,7 km/h (2 Bft) 91,49 %
30.07.2018 21:28 25,9 C 27,2 C 22,8 C 56 % 1013,9 hPa 0,0 l/m 5,6 km/h (1 Bft) O 89 0 min 0,000 mm 0,0 UV-I 0 W/m 16,4 C 25,9 C 9,7 km/h (2 Bft) 93,62 %
30.07.2018 21:30 26,1 C 27,2 C 22,8 C 56 % 1014,0 hPa 0,0 l/m 3,2 km/h (1 Bft) O-SO 103 0 min 0,000 mm 0,0 UV-I 0 W/m 16,6 C 26,1 C 6,4 km/h (2 Bft) 95,74 %
30.07.2018 21:32 26,1 C 27,2 C 22,8 C 56 % 1013,9 hPa 0,0 l/m 2,7 km/h (1 Bft) O-SO 103 0 min 0,000 mm 0,0 UV-I 0 W/m 16,6 C 26,1 C 3,2 km/h (1 Bft) 95,74 %
30.07.2018 21:34 25,8 C 27,2 C 22,2 C 57 % 1014,0 hPa 0,0 l/m 3,1 km/h (1 Bft) O-SO 103 0 min 0,000 mm 0,0 UV-I 0 W/m 16,6 C 25,8 C 4,8 km/h (1 Bft) 98,00 %
30.07.2018 21:36 25,7 C 27,2 C 22,2 C 57 % 1014,0 hPa 0,0 l/m 4,6 km/h (1 Bft) O 101 0 min 0,000 mm 0,0 UV-I 0 W/m 16,5 C 25,7 C 4,8 km/h (1 Bft) 95,74 %
30.07.2018 21:38 25,6 C 27,2 C 22,2 C 57 % 1014,0 hPa 0,0 l/m 4,7 km/h (1 Bft) O 101 0 min 0,000 mm 0,0 UV-I 0 W/m 16,4 C 25,6 C 6,4 km/h (2 Bft) 95,74 %
30.07.2018 21:40 25,6 C 27,2 C 21,7 C 57 % 1014,0 hPa 0,0 l/m 3,6 km/h (1 Bft) O-SO 103 0 min 0,000 mm 0,0 UV-I 0 W/m 16,4 C 25,6 C 4,8 km/h (1 Bft) 100,00 %
30.07.2018 21:42 25,5 C 27,2 C 21,7 C 58 % 1014,0 hPa 0,0 l/m 4,4 km/h (1 Bft) O-SO 111 0 min 0,000 mm 0,0 UV-I 0 W/m 16,6 C 25,5 C 6,4 km/h (2 Bft) 97,87 %
30.07.2018 21:44 25,1 C 27,2 C 21,7 C 60 % 1014,0 hPa 0,0 l/m 3,7 km/h (1 Bft) O-SO 112 0 min 0,000 mm 0,0 UV-I 0 W/m 16,8 C 25,1 C 6,4 km/h (2 Bft) 93,62 %
30.07.2018 21:46 24,8 C 27,2 C 21,7 C 61 % 1014,1 hPa 0,0 l/m 3,8 km/h (1 Bft) O-SO 111 0 min 0,000 mm 0,0 UV-I 0 W/m 16,8 C 24,8 C 4,8 km/h (1 Bft) 100,00 %
30.07.2018 21:48 24,7 C 27,2 C 21,7 C 60 % 1014,1 hPa 0,0 l/m 5,3 km/h (1 Bft) O 91 0 min 0,000 mm 0,0 UV-I 0 W/m 16,4 C 24,7 C 9,7 km/h (2 Bft) 98,00 %
30.07.2018 21:50 25,0 C 27,2 C 21,7 C 59 % 1014,0 hPa 0,0 l/m 4,5 km/h (1 Bft) O-SO 103 0 min 0,000 mm 0,0 UV-I 0 W/m 16,4 C 25,0 C 6,4 km/h (2 Bft) 95,74 %
30.07.2018 21:52 25,2 C 27,2 C 22,2 C 58 % 1014,0 hPa 0,0 l/m 5,2 km/h (1 Bft) O-SO 105 0 min 0,000 mm 0,0 UV-I 0 W/m 16,3 C 25,2 C 9,7 km/h (2 Bft) 100,00 %
30.07.2018 21:54 25,3 C 27,2 C 22,2 C 58 % 1014,0 hPa 0,0 l/m 3,4 km/h (1 Bft) O-SO 107 0 min 0,000 mm 0,0 UV-I 0 W/m 16,4 C 25,3 C 4,8 km/h (1 Bft) 97,87 %
30.07.2018 21:56 25,3 C 27,2 C 22,2 C 59 % 1014,0 hPa 0,0 l/m 6,0 km/h (2 Bft) SO 142 0 min 0,000 mm 0,0 UV-I 0 W/m 16,7 C 25,3 C 9,7 km/h (2 Bft) 100,00 %
30.07.2018 21:58 25,3 C 27,2 C 22,2 C 58 % 1014,0 hPa 0,0 l/m 4,7 km/h (1 Bft) O-SO 106 0 min 0,000 mm 0,0 UV-I 0 W/m 16,4 C 25,3 C 9,7 km/h (2 Bft) 97,87 %
30.07.2018 22:00 25,3 C 27,2 C 22,2 C 58 % 1014,0 hPa 0,0 l/m 4,4 km/h (1 Bft) O-SO 110 0 min 0,000 mm 0,0 UV-I 0 W/m 16,4 C 25,3 C 6,4 km/h (2 Bft) 97,87 %
30.07.2018 22:02 25,3 C 27,2 C 22,2 C 58 % 1014,0 hPa 0,0 l/m 5,3 km/h (1 Bft) O-SO 105 0 min 0,050 mm 0,0 UV-I 0 W/m 16,4 C 25,3 C 9,7 km/h (2 Bft) 100,00 %
30.07.2018 22:04 25,2 C 27,2 C 21,7 C 58 % 1014,0 hPa 0,0 l/m 3,5 km/h (1 Bft) O-SO 105 0 min 0,000 mm 0,0 UV-I 0 W/m 16,3 C 25,2 C 4,8 km/h (1 Bft) 100,00 %
30.07.2018 22:06 25,2 C 27,2 C 21,7 C 58 % 1014,0 hPa 0,0 l/m 4,2 km/h (1 Bft) O-SO 111 0 min 0,000 mm 0,0 UV-I 0 W/m 16,3 C 25,2 C 9,7 km/h (2 Bft) 100,00 %
30.07.2018 22:08 25,0 C 27,2 C 21,7 C 59 % 1014,0 hPa 0,0 l/m 3,9 km/h (1 Bft) O-SO 117 0 min 0,000 mm 0,0 UV-I 0 W/m 16,4 C 25,0 C 6,4 km/h (2 Bft) 100,00 %
30.07.2018 22:10 24,8 C 27,2 C 21,1 C 60 % 1014,0 hPa 0,0 l/m 3,7 km/h (1 Bft) O-SO 117 0 min 0,000 mm 0,0 UV-I 0 W/m 16,5 C 24,8 C 4,8 km/h (1 Bft) 100,00 %
30.07.2018 22:12 24,6 C 27,2 C 21,1 C 61 % 1014,0 hPa 0,0 l/m 4,4 km/h (1 Bft) O-SO 106 0 min 0,000 mm 0,0 UV-I 0 W/m 16,6 C 24,6 C 6,4 km/h (2 Bft) 93,62 %
30.07.2018 22:14 24,4 C 27,2 C 21,1 C 61 % 1014,0 hPa 0,0 l/m 3,7 km/h (1 Bft) O-SO 106 0 min 0,000 mm 0,0 UV-I 0 W/m 16,4 C 24,4 C 4,8 km/h (1 Bft) 97,87 %
30.07.2018 22:16 24,5 C 27,2 C 20,6 C 61 % 1014,0 hPa 0,0 l/m 3,0 km/h (1 Bft) O-SO 106 0 min 0,000 mm 0,0 UV-I 0 W/m 16,5 C 24,5 C 4,8 km/h (1 Bft) 93,62 %
30.07.2018 22:18 24,4 C 27,2 C 20,6 C 61 % 1013,9 hPa 0,0 l/m 2,8 km/h (1 Bft) O-SO 106 0 min 0,000 mm 0,0 UV-I 0 W/m 16,4 C 24,4 C 3,2 km/h (1 Bft) 97,92 %
30.07.2018 22:20 24,3 C 27,2 C 20,6 C 62 % 1014,0 hPa 0,0 l/m 2,7 km/h (1 Bft) O-SO 106 0 min 0,000 mm 0,0 UV-I 0 W/m 16,5 C 24,3 C 4,8 km/h (1 Bft) 97,87 %
30.07.2018 22:22 24,2 C 27,2 C 20,0 C 63 % 1014,0 hPa 0,0 l/m 2,7 km/h (1 Bft) O-SO 106 0 min 0,000 mm 0,0 UV-I 0 W/m 16,7 C 24,2 C 4,8 km/h (1 Bft) 97,87 %
30.07.2018 22:24 23,9 C 27,2 C 20,0 C 63 % 1014,0 hPa 0,0 l/m 1,7 km/h (1 Bft) O-SO 106 0 min 0,000 mm 0,0 UV-I 0 W/m 16,4 C 23,9 C 3,2 km/h (1 Bft) 97,87 %
30.07.2018 22:26 23,8 C 27,2 C 20,0 C 64 % 1014,1 hPa 0,0 l/m 1,4 km/h (1 Bft) O-SO 106 0 min 0,000 mm 0,0 UV-I 0 W/m 16,6 C 23,8 C 3,2 km/h (1 Bft) 96,23 %
30.07.2018 22:28 23,7 C 27,2 C 20,0 C 65 % 1014,0 hPa 0,0 l/m 1,5 km/h (1 Bft) O-SO 106 0 min 0,000 mm 0,0 UV-I 0 W/m 16,7 C 23,7 C 3,2 km/h (1 Bft) 97,87 %
30.07.2018 22:30 23,4 C 27,2 C 20,0 C 66 % 1014,0 hPa 0,0 l/m 1,3 km/h (1 Bft) O-SO 106 0 min 0,000 mm 0,0 UV-I 0 W/m 16,7 C 23,4 C 1,6 km/h (1 Bft) 97,37 %
30.07.2018 22:32 23,3 C 27,2 C 19,4 C 68 % 1014,0 hPa 0,0 l/m 1,2 km/h (1 Bft) O-SO 106 0 min 0,000 mm 0,0 UV-I 0 W/m 17,1 C 23,3 C 1,6 km/h (1 Bft) 95,74 %
30.07.2018 22:34 23,1 C 27,2 C 20,0 C 69 % 1014,0 hPa 0,0 l/m 1,8 km/h (1 Bft) O-SO 106 0 min 0,000 mm 0,0 UV-I 0 W/m 17,1 C 23,1 C 3,2 km/h (1 Bft) 93,62 %
30.07.2018 22:36 22,8 C 27,2 C 20,0 C 70 % 1014,0 hPa 0,0 l/m 2,2 km/h (1 Bft) O-SO 106 0 min 0,000 mm 0,0 UV-I 0 W/m 17,0 C 22,8 C 3,2 km/h (1 Bft) 98,00 %
30.07.2018 22:38 22,6 C 27,2 C 20,0 C 70 % 1014,0 hPa 0,0 l/m 2,3 km/h (1 Bft) O-SO 106 0 min 0,000 mm 0,0 UV-I 0 W/m 16,8 C 22,6 C 3,2 km/h (1 Bft) 98,00 %
30.07.2018 22:40 22,4 C 27,2 C 20,0 C 70 % 1014,0 hPa 0,0 l/m 2,3 km/h (1 Bft) O-SO 106 0 min 0,000 mm 0,0 UV-I 0 W/m 16,7 C 22,4 C 3,2 km/h (1 Bft) 93,62 %
30.07.2018 22:42 22,3 C 27,2 C 20,6 C 69 % 1014,0 hPa 0,0 l/m 3,1 km/h (1 Bft) O-SO 106 0 min 0,000 mm 0,0 UV-I 0 W/m 16,3 C 22,3 C 4,8 km/h (1 Bft) 93,62 %
30.07.2018 22:44 22,3 C 27,2 C 20,0 C 70 % 1014,0 hPa 0,0 l/m 3,2 km/h (1 Bft) O-SO 106 0 min 0,000 mm 0,0 UV-I 0 W/m 16,6 C 22,3 C 4,8 km/h (1 Bft) 97,87 %
30.07.2018 22:46 22,4 C 27,2 C 20,0 C 70 % 1013,9 hPa 0,0 l/m 2,7 km/h (1 Bft) O-SO 106 0 min 0,000 mm 0,0 UV-I 0 W/m 16,7 C 22,4 C 4,8 km/h (1 Bft) 97,87 %
30.07.2018 22:48 22,3 C 27,2 C 20,6 C 70 % 1014,0 hPa 0,0 l/m 2,3 km/h (1 Bft) O-SO 106 0 min 0,000 mm 0,0 UV-I 0 W/m 16,6 C 22,3 C 4,8 km/h (1 Bft) 97,87 %
30.07.2018 22:50 22,3 C 27,2 C 20,0 C 70 % 1014,0 hPa 0,0 l/m 3,5 km/h (1 Bft) O-SO 105 0 min 0,000 mm 0,0 UV-I 0 W/m 16,6 C 22,3 C 6,4 km/h (2 Bft) 100,00 %
30.07.2018 22:52 22,3 C 27,2 C 20,0 C 70 % 1014,0 hPa 0,0 l/m 2,9 km/h (1 Bft) O-SO 105 0 min 0,000 mm 0,0 UV-I 0 W/m 16,6 C 22,3 C 4,8 km/h (1 Bft) 100,00 %
30.07.2018 22:54 22,3 C 27,2 C 20,0 C 70 % 1014,1 hPa 0,0 l/m 2,8 km/h (1 Bft) O 94 0 min 0,000 mm 0,0 UV-I 0 W/m 16,6 C 22,3 C 4,8 km/h (1 Bft) 95,74 %
30.07.2018 22:56 22,2 C 27,2 C 20,0 C 70 % 1014,1 hPa 0,0 l/m 2,8 km/h (1 Bft) O 94 0 min 0,000 mm 0,0 UV-I 0 W/m 16,5 C 22,2 C 4,8 km/h (1 Bft) 98,00 %
30.07.2018 22:58 22,1 C 27,2 C 20,0 C 70 % 1014,1 hPa 0,0 l/m 1,3 km/h (1 Bft) O 94 0 min 0,000 mm 0,0 UV-I 0 W/m 16,4 C 22,1 C 3,2 km/h (1 Bft) 100,00 %
30.07.2018 23:00 22,1 C 27,2 C 20,0 C 70 % 1014,2 hPa 0,0 l/m 1,8 km/h (1 Bft) O 94 0 min 0,000 mm 0,0 UV-I 0 W/m 16,4 C 22,1 C 3,2 km/h (1 Bft) 95,83 %
30.07.2018 23:02 22,1 C 27,2 C 20,0 C 70 % 1014,2 hPa 0,0 l/m 0,9 km/h (0 Bft) O 94 0 min 0,026 mm 0,0 UV-I 0 W/m 16,4 C 22,1 C 1,6 km/h (1 Bft) 98,46 %
30.07.2018 23:04 22,2 C 27,2 C 20,0 C 71 % 1014,2 hPa 0,0 l/m 1,2 km/h (1 Bft) O 94 0 min 0,000 mm 0,0 UV-I 0 W/m 16,7 C 22,2 C 1,6 km/h (1 Bft) 95,74 %
30.07.2018 23:06 22,2 C 27,2 C 19,4 C 71 % 1014,1 hPa 0,0 l/m 0,7 km/h (0 Bft) O 94 0 min 0,000 mm 0,0 UV-I 0 W/m 16,7 C 22,2 C 1,6 km/h (1 Bft) 97,87 %
30.07.2018 23:09 22,2 C 27,2 C 20,0 C 72 % 1014,2 hPa 0,0 l/m 0,0 km/h (0 Bft) O 94 0 min 0,000 mm 0,0 UV-I 0 W/m 16,9 C 22,2 C 1,6 km/h (1 Bft) 98,68 %
30.07.2018 23:10 22,2 C 27,2 C 19,4 C 72 % 1014,2 hPa 0,0 l/m 0,0 km/h (0 Bft) O 94 0 min 0,000 mm 0,0 UV-I 0 W/m 16,9 C 22,2 C 0,0 km/h (0 Bft) 95,83 %
30.07.2018 23:12 22,1 C 27,2 C 19,4 C 72 % 1014,2 hPa 0,0 l/m 0,0 km/h (0 Bft) O 94 0 min 0,000 mm 0,0 UV-I 0 W/m 16,8 C 22,1 C 0,0 km/h (0 Bft) 95,74 %
30.07.2018 23:14 22,1 C 27,2 C 19,4 C 73 % 1014,2 hPa 0,0 l/m 0,0 km/h (0 Bft) O 94 0 min 0,000 mm 0,0 UV-I 0 W/m 17,0 C 22,1 C 0,0 km/h (0 Bft) 97,87 %
30.07.2018 23:16 22,0 C 27,2 C 19,4 C 73 % 1014,1 hPa 0,0 l/m 0,1 km/h (0 Bft) O 94 0 min 0,000 mm 0,0 UV-I 0 W/m 16,9 C 22,0 C 1,6 km/h (1 Bft) 97,87 %
30.07.2018 23:19 21,8 C 27,2 C 20,0 C 73 % 1014,2 hPa 0,0 l/m 1,7 km/h (1 Bft) O 94 0 min 0,000 mm 0,0 UV-I 0 W/m 16,7 C 21,8 C 3,2 km/h (1 Bft) 97,14 %
30.07.2018 23:20 21,7 C 27,2 C 20,0 C 73 % 1014,2 hPa 0,0 l/m 1,8 km/h (1 Bft) O 94 0 min 0,000 mm 0,0 UV-I 0 W/m 16,6 C 21,7 C 3,2 km/h (1 Bft) 100,00 %
30.07.2018 23:22 21,7 C 27,2 C 19,4 C 74 % 1014,1 hPa 0,0 l/m 0,9 km/h (0 Bft) O 94 0 min 0,000 mm 0,0 UV-I 0 W/m 16,9 C 21,7 C 1,6 km/h (1 Bft) 97,37 %
30.07.2018 23:24 21,7 C 27,2 C 19,4 C 74 % 1014,1 hPa 0,0 l/m 1,7 km/h (1 Bft) O 94 0 min 0,000 mm 0,0 UV-I 0 W/m 16,9 C 21,7 C 3,2 km/h (1 Bft) 100,00 %
30.07.2018 23:26 21,7 C 27,2 C 18,9 C 74 % 1014,2 hPa 0,0 l/m 1,1 km/h (1 Bft) O 94 0 min 0,000 mm 0,0 UV-I 0 W/m 16,9 C 21,7 C 1,6 km/h (1 Bft) 97,87 %
30.07.2018 23:29 21,7 C 27,2 C 18,9 C 73 % 1014,3 hPa 0,0 l/m 1,3 km/h (1 Bft) O 94 0 min 0,000 mm 0,0 UV-I 0 W/m 16,6 C 21,7 C 3,2 km/h (1 Bft) 97,30 %
30.07.2018 23:30 21,7 C 27,2 C 18,9 C 74 % 1014,3 hPa 0,0 l/m 2,1 km/h (1 Bft) O 94 0 min 0,000 mm 0,0 UV-I 0 W/m 16,9 C 21,7 C 3,2 km/h (1 Bft) 91,30 %
30.07.2018 23:32 21,7 C 27,2 C 18,9 C 73 % 1014,3 hPa 0,0 l/m 2,3 km/h (1 Bft) SO 140 0 min 0,000 mm 0,0 UV-I 0 W/m 16,6 C 21,7 C 3,2 km/h (1 Bft) 100,00 %
30.07.2018 23:34 21,8 C 27,2 C 18,9 C 73 % 1014,3 hPa 0,0 l/m 2,5 km/h (1 Bft) SO 140 0 min 0,000 mm 0,0 UV-I 0 W/m 16,7 C 21,8 C 3,2 km/h (1 Bft) 100,00 %
30.07.2018 23:36 21,7 C 27,2 C 18,9 C 73 % 1014,3 hPa 0,0 l/m 0,7 km/h (0 Bft) SO 140 0 min 0,000 mm 0,0 UV-I 0 W/m 16,6 C 21,7 C 3,2 km/h (1 Bft) 97,92 %
30.07.2018 23:39 21,5 C 27,2 C 18,9 C 75 % 1014,3 hPa 0,0 l/m 0,8 km/h (0 Bft) SO 140 0 min 0,000 mm 0,0 UV-I 0 W/m 16,9 C 21,5 C 3,2 km/h (1 Bft) 96,88 %
30.07.2018 23:40 21,5 C 27,2 C 18,9 C 75 % 1014,3 hPa 0,0 l/m 2,9 km/h (1 Bft) SO 140 0 min 0,000 mm 0,0 UV-I 0 W/m 16,9 C 21,5 C 3,2 km/h (1 Bft) 100,00 %
30.07.2018 23:42 21,5 C 27,2 C 18,9 C 75 % 1014,3 hPa 0,0 l/m 3,1 km/h (1 Bft) SO 140 0 min 0,000 mm 0,0 UV-I 0 W/m 16,9 C 21,5 C 3,2 km/h (1 Bft) 100,00 %
30.07.2018 23:44 21,5 C 27,2 C 18,9 C 75 % 1014,3 hPa 0,0 l/m 2,0 km/h (1 Bft) SO 140 0 min 0,000 mm 0,0 UV-I 0 W/m 16,9 C 21,5 C 3,2 km/h (1 Bft) 97,87 %
30.07.2018 23:46 21,4 C 27,2 C 18,9 C 75 % 1014,3 hPa 0,0 l/m 1,0 km/h (0 Bft) SO 140 0 min 0,000 mm 0,0 UV-I 0 W/m 16,8 C 21,4 C 3,2 km/h (1 Bft) 97,87 %
30.07.2018 23:49 21,2 C 27,2 C 18,9 C 74 % 1014,3 hPa 0,0 l/m 1,5 km/h (1 Bft) SO 140 0 min 0,000 mm 0,0 UV-I 0 W/m 16,4 C 21,2 C 3,2 km/h (1 Bft) 97,14 %
30.07.2018 23:50 21,3 C 27,2 C 18,9 C 75 % 1014,3 hPa 0,0 l/m 2,1 km/h (1 Bft) SO 140 0 min 0,000 mm 0,0 UV-I 0 W/m 16,7 C 21,3 C 3,2 km/h (1 Bft) 95,83 %
30.07.2018 23:52 21,3 C 27,2 C 18,9 C 75 % 1014,3 hPa 0,0 l/m 1,3 km/h (1 Bft) SO 140 0 min 0,000 mm 0,0 UV-I 0 W/m 16,7 C 21,3 C 3,2 km/h (1 Bft) 100,00 %
30.07.2018 23:54 21,3 C 27,2 C 18,9 C 75 % 1014,4 hPa 0,0 l/m 1,5 km/h (1 Bft) SO 140 0 min 0,000 mm 0,0 UV-I 0 W/m 16,7 C 21,3 C 1,6 km/h (1 Bft) 100,00 %
30.07.2018 23:56 21,3 C 27,2 C 18,3 C 75 % 1014,3 hPa 0,0 l/m 1,3 km/h (1 Bft) SO 140 0 min 0,000 mm 0,0 UV-I 0 W/m 16,7 C 21,3 C 1,6 km/h (1 Bft) 98,00 %
30.07.2018 23:59 21,2 C 27,2 C 18,3 C 75 % 1014,3 hPa 0,0 l/m 0,0 km/h (0 Bft) SO 140 0 min 0,000 mm 0,0 UV-I 0 W/m 16,6 C 21,2 C 1,6 km/h (1 Bft) 100,00 %
_ Min-Zeit 05:46 02:14 05:48 14:38 00:32 - 00:46 - - - - - - 14:56 05:46 00:46 07:38
Minimum _ 19,7 C 26,1 C 18,3 C 39 % 1012,7 hPa - 0,0 km/h (0 Bft) - - - - - - 15,7 C 19,7 C 0,0 km/h (0 Bft) 89,36 %
_ Max-Zeit 15:26 14:48 14:14 05:46 09:52 00:00 15:56 - - 16:59 14:00 13:02 14:06 09:34 15:28 16:50 00:00
Maximum _ 32,3 C 27,8 C 44,4 C 89 % 1014,9 hPa 0,0 l/m 18,0 km/h
O (3 Bft)
- - 3 min 0,610 mm 6,0 UV-I 887 W/m 20,1 C 32,2 C 27,4 km/h
N-NO (4 Bft)
100,00 %
Durchschnitt _ 25,5 C 26,8 C 28,4 C 65 % 1013,7 hPa #0,0 l/m 4,9 km/h (1 Bft) S-SW - #11:52 h #5,258 mm 3,2 UV-I 418 W/m 17,8 C 25,4 C 7,8 km/h (2 Bft) 97,13 %